Darstellungsparameter: Aktuell verwendete Einstellungen:
Skalierung der Graphiken ... ?
xyx+y,   Skalierungsfaktor:      Skalierung: Modus: x, Faktor: 1
Darstellungszeitraum ... ?
Vom - - bis: - -   Zeitraum: 11.06.2019 - 10.09.2019
Min/Max/Avg-Anzeige ... ?
Zeige MMA aktuell
Zeige MMA Monat
Zeige MMA alles
Zeige --A aktuell
Zeige --A Monat
Zeige --A alles
Keine MMA-Anzeige
MMA:
Keine MMA-Graphiken
MMA-Basis: 11.06.2019 - 10.09.2019
Quicknavigation für Darstellung... ?
Tage:      1T, 2T, 3T, 5T -1T -2T -3T -5T +1T +2T +3T +5T
Wochen: 1W, 2W, 3W -1W -2W -3W +1W +2W +3W
Monate: 1M, 3M, 6M -1M -3M -6M +1M +3M +6M
Jahre:    1J, 3J, 5J, 10J -1J -3J -5J -10J +1J +3J +5J +10J
Nutze für die Darstellung ... ?
Originaldaten oder Mittelwerte auf ...
Stundenbasis Tagesbasis Wochenbasis
Monatsbasis Jahresbasis      Datenbasis: Original-Daten
Darstellen als:
Statistik (Auto) Statistik J:M      Darstellung:
Zur Graphik,    zurück zur Übersicht aller Sensoren.
 
Tabellarische Datenbersicht: ?
 
Sensor: Nr:Datum:Temp:Feuchte:Taupunkt:
Aussen-T/F 1 11-06-2019 00:00:00 16.8 C 84 % 14.08 C
2 11-06-2019 00:05:00 16.7 C 85 % 14.17 C
3 11-06-2019 00:10:00 16.7 C 85 % 14.17 C
4 11-06-2019 00:15:00 16.6 C 85 % 14.07 C
5 11-06-2019 00:20:00 16.6 C 85 % 14.07 C
6 11-06-2019 00:25:00 16.5 C 86 % 14.15 C
7 11-06-2019 00:30:00 16.5 C 86 % 14.15 C
8 11-06-2019 00:35:00 16.5 C 86 % 14.15 C
9 11-06-2019 00:40:00 16.5 C 86 % 14.15 C
10 11-06-2019 00:45:00 16.5 C 86 % 14.15 C
11 11-06-2019 00:50:00 16.4 C 86 % 14.05 C
12 11-06-2019 00:55:00 16.4 C 86 % 14.05 C
13 11-06-2019 01:00:00 16.4 C 86 % 14.05 C
14 11-06-2019 01:05:00 16.4 C 87 % 14.23 C
15 11-06-2019 01:10:00 16.4 C 87 % 14.23 C
16 11-06-2019 01:15:00 16.4 C 87 % 14.23 C
17 11-06-2019 01:20:00 16.4 C 87 % 14.23 C
18 11-06-2019 01:25:00 16.4 C 87 % 14.23 C
19 11-06-2019 01:30:00 16.4 C 87 % 14.23 C
20 11-06-2019 01:35:00 16.4 C 87 % 14.23 C
21 11-06-2019 01:40:00 16.4 C 87 % 14.23 C
22 11-06-2019 01:45:00 16.4 C 87 % 14.23 C
23 11-06-2019 01:50:00 16.3 C 86 % 13.95 C
24 11-06-2019 01:55:00 16.3 C 87 % 14.13 C
25 11-06-2019 02:00:00 16.3 C 86 % 13.95 C
Sensor: Nr:Datum:Temp:Feuchte:Taupunkt:
Aussen-T/F 26 11-06-2019 02:05:00 16.3 C 86 % 13.95 C
27 11-06-2019 02:10:00 16.3 C 86 % 13.95 C
28 11-06-2019 02:15:00 16.2 C 86 % 13.86 C
29 11-06-2019 02:20:00 16.2 C 86 % 13.86 C
30 11-06-2019 02:25:00 16.2 C 86 % 13.86 C
31 11-06-2019 02:30:00 16.2 C 86 % 13.86 C
32 11-06-2019 02:35:00 16.1 C 86 % 13.76 C
33 11-06-2019 02:40:00 16.1 C 86 % 13.76 C
34 11-06-2019 02:45:00 16.1 C 86 % 13.76 C
35 11-06-2019 02:50:00 16 C 87 % 13.84 C
36 11-06-2019 02:55:00 15.9 C 88 % 13.92 C
37 11-06-2019 03:00:00 15.8 C 89 % 13.99 C
38 11-06-2019 03:05:00 15.7 C 89 % 13.89 C
39 11-06-2019 03:10:00 15.6 C 89 % 13.79 C
40 11-06-2019 03:15:00 15.4 C 90 % 13.77 C
41 11-06-2019 03:20:00 15.3 C 90 % 13.67 C
42 11-06-2019 03:25:00 15.3 C 91 % 13.84 C
43 11-06-2019 03:30:00 15.2 C 91 % 13.74 C
44 11-06-2019 03:35:00 15.1 C 91 % 13.64 C
45 11-06-2019 03:40:00 15.1 C 92 % 13.81 C
46 11-06-2019 03:45:00 15.1 C 92 % 13.81 C
47 11-06-2019 03:50:00 15 C 92 % 13.71 C
48 11-06-2019 03:55:00 14.9 C 92 % 13.61 C
49 11-06-2019 04:00:00 14.8 C 92 % 13.51 C
50 11-06-2019 04:05:00 14.8 C 93 % 13.68 C
Sensor: Nr:Datum:Temp:Feuchte:Taupunkt:
Aussen-T/F 51 11-06-2019 04:10:00 14.7 C 93 % 13.58 C
52 11-06-2019 04:15:00 14.7 C 93 % 13.58 C
53 11-06-2019 04:20:00 14.7 C 93 % 13.58 C
54 11-06-2019 04:25:00 14.6 C 93 % 13.48 C
55 11-06-2019 04:30:00 14.6 C 93 % 13.48 C
56 11-06-2019 04:35:00 14.6 C 93 % 13.48 C
57 11-06-2019 04:40:00 14.5 C 93 % 13.38 C
58 11-06-2019 04:45:00 14.4 C 93 % 13.28 C
59 11-06-2019 04:50:00 14.4 C 94 % 13.45 C
60 11-06-2019 04:55:00 14.4 C 94 % 13.45 C
61 11-06-2019 05:00:00 14.3 C 94 % 13.35 C
62 11-06-2019 05:05:00 14.3 C 94 % 13.35 C
63 11-06-2019 05:10:00 14.3 C 94 % 13.35 C
64 11-06-2019 05:15:00 14.3 C 94 % 13.35 C
65 11-06-2019 05:20:00 14.2 C 94 % 13.25 C
66 11-06-2019 05:25:00 14.2 C 94 % 13.25 C
67 11-06-2019 05:30:00 14.2 C 94 % 13.25 C
68 11-06-2019 05:35:00 14.2 C 94 % 13.25 C
69 11-06-2019 05:40:00 14.2 C 94 % 13.25 C
70 11-06-2019 05:45:00 14.2 C 94 % 13.25 C
71 11-06-2019 05:50:00 14.1 C 94 % 13.15 C
72 11-06-2019 05:55:00 14.1 C 94 % 13.15 C
73 11-06-2019 06:00:00 14.1 C 94 % 13.15 C
74 11-06-2019 06:05:00 14.1 C 94 % 13.15 C
75 11-06-2019 06:10:00 14.1 C 95 % 13.31 C
Sensor: Nr:Datum:Temp:Feuchte:Taupunkt:
Aussen-T/F 76 11-06-2019 06:15:00 14.1 C 95 % 13.31 C
77 11-06-2019 06:20:00 14.1 C 95 % 13.31 C
78 11-06-2019 06:25:00 14.1 C 95 % 13.31 C
79 11-06-2019 06:30:00 14.1 C 95 % 13.31 C
80 11-06-2019 06:35:00 14.2 C 95 % 13.41 C
81 11-06-2019 06:40:00 14.2 C 95 % 13.41 C
82 11-06-2019 06:45:00 14.2 C 95 % 13.41 C
83 11-06-2019 06:50:00 14.3 C 95 % 13.51 C
84 11-06-2019 06:55:00 14.3 C 95 % 13.51 C
85 11-06-2019 07:00:00 14.3 C 95 % 13.51 C
86 11-06-2019 07:05:00 14.3 C 95 % 13.51 C
87 11-06-2019 07:10:00 14.3 C 95 % 13.51 C
88 11-06-2019 07:15:00 14.4 C 95 % 13.61 C
89 11-06-2019 07:20:00 14.4 C 96 % 13.77 C
90 11-06-2019 07:25:00 14.6 C 96 % 13.97 C
91 11-06-2019 07:30:00 14.6 C 96 % 13.97 C
92 11-06-2019 07:35:00 14.6 C 95 % 13.81 C
93 11-06-2019 07:40:00 14.6 C 95 % 13.81 C
94 11-06-2019 07:45:00 14.6 C 95 % 13.81 C
95 11-06-2019 07:50:00 14.6 C 95 % 13.81 C
96 11-06-2019 07:55:00 14.7 C 96 % 14.07 C
97 11-06-2019 08:00:00 14.8 C 96 % 14.17 C
98 11-06-2019 08:05:00 14.9 C 96 % 14.27 C
99 11-06-2019 08:10:00 14.9 C 95 % 14.11 C
100 11-06-2019 08:15:00 14.9 C 96 % 14.27 C
Sensor: Nr:Datum:Temp:Feuchte:Taupunkt:
Aussen-T/F 101 11-06-2019 08:20:00 15 C 96 % 14.37 C
102 11-06-2019 08:25:00 15.1 C 96 % 14.47 C
103 11-06-2019 08:30:00 15.1 C 96 % 14.47 C
104 11-06-2019 08:35:00 15.1 C 96 % 14.47 C
105 11-06-2019 08:40:00 15.1 C 95 % 14.31 C
106 11-06-2019 08:45:00 15.1 C 95 % 14.31 C
107 11-06-2019 08:50:00 15.1 C 95 % 14.31 C
108 11-06-2019 08:55:00 15.1 C 95 % 14.31 C
109 11-06-2019 09:00:00 15.2 C 95 % 14.4 C
110 11-06-2019 09:05:00 15.2 C 95 % 14.4 C
111 11-06-2019 09:10:00 15.3 C 95 % 14.5 C
112 11-06-2019 09:15:00 15.3 C 95 % 14.5 C
113 11-06-2019 09:20:00 15.3 C 95 % 14.5 C
114 11-06-2019 09:25:00 15.3 C 95 % 14.5 C
115 11-06-2019 09:30:00 15.3 C 93 % 14.18 C
116 11-06-2019 09:35:00 15.3 C 93 % 14.18 C
117 11-06-2019 09:40:00 15.4 C 93 % 14.27 C
118 11-06-2019 09:45:00 15.4 C 92 % 14.11 C
119 11-06-2019 09:50:00 15.5 C 93 % 14.37 C
120 11-06-2019 09:55:00 15.6 C 92 % 14.31 C
121 11-06-2019 10:00:00 15.8 C 92 % 14.5 C
122 11-06-2019 10:05:00 16.1 C 93 % 14.97 C
123 11-06-2019 10:10:00 16.3 C 93 % 15.17 C
124 11-06-2019 10:15:00 16.3 C 91 % 14.83 C
125 11-06-2019 10:20:00 16 C 87 % 13.84 C
Sensor: Nr:Datum:Temp:Feuchte:Taupunkt:
Aussen-T/F 126 11-06-2019 10:25:00 15.9 C 87 % 13.74 C
127 11-06-2019 10:30:00 16 C 89 % 14.19 C
128 11-06-2019 10:35:00 16.2 C 91 % 14.73 C
129 11-06-2019 10:40:00 16.2 C 91 % 14.73 C
130 11-06-2019 10:45:00 16.3 C 91 % 14.83 C
131 11-06-2019 10:50:00 16.4 C 92 % 15.1 C
132 11-06-2019 10:55:00 16.5 C 92 % 15.2 C
133 11-06-2019 11:00:00 16.7 C 92 % 15.39 C
134 11-06-2019 11:05:00 16.6 C 90 % 14.95 C
135 11-06-2019 11:10:00 16.5 C 89 % 14.68 C
136 11-06-2019 11:15:00 16.4 C 86 % 14.05 C
137 11-06-2019 11:20:00 16.6 C 83 % 13.7 C
138 11-06-2019 11:25:00 16.8 C 83 % 13.9 C
139 11-06-2019 11:30:00 16.9 C 82 % 13.81 C
140 11-06-2019 11:35:00 17.1 C 80 % 13.62 C
141 11-06-2019 11:40:00 17.3 C 80 % 13.82 C
142 11-06-2019 11:45:00 17.4 C 85 % 14.85 C
143 11-06-2019 11:50:00 17.4 C 86 % 15.03 C
144 11-06-2019 11:55:00 17.4 C 87 % 15.21 C
145 11-06-2019 12:00:00 17.4 C 87 % 15.21 C
146 11-06-2019 12:05:00 17.4 C 87 % 15.21 C
147 11-06-2019 12:10:00 17.3 C 84 % 14.57 C
148 11-06-2019 12:15:00 17.4 C 80 % 13.92 C
149 11-06-2019 12:20:00 17.5 C 79 % 13.82 C
150 11-06-2019 12:25:00 17.7 C 77 % 13.62 C
Sensor: Nr:Datum:Temp:Feuchte:Taupunkt:
Aussen-T/F 151 11-06-2019 12:30:00 17.9 C 77 % 13.81 C
152 11-06-2019 12:35:00 18.1 C 75 % 13.6 C
153 11-06-2019 12:40:00 18.2 C 74 % 13.49 C
154 11-06-2019 12:45:00 18.3 C 74 % 13.59 C
155 11-06-2019 12:50:00 18.3 C 75 % 13.79 C
156 11-06-2019 12:55:00 18.3 C 74 % 13.59 C
157 11-06-2019 13:00:00 18.5 C 75 % 13.99 C
158 11-06-2019 13:05:00 18.7 C 74 % 13.97 C
159 11-06-2019 13:10:00 18.8 C 74 % 14.07 C
160 11-06-2019 13:15:00 18.8 C 72 % 13.65 C
161 11-06-2019 13:20:00 18.9 C 75 % 14.37 C
162 11-06-2019 13:25:00 18.9 C 74 % 14.17 C
163 11-06-2019 13:30:00 19 C 70 % 13.41 C
164 11-06-2019 13:35:00 19.2 C 71 % 13.82 C
165 11-06-2019 13:40:00 19.3 C 71 % 13.91 C
166 11-06-2019 13:45:00 19.6 C 71 % 14.2 C
167 11-06-2019 13:50:00 19.7 C 68 % 13.63 C
168 11-06-2019 13:55:00 19.7 C 68 % 13.63 C
169 11-06-2019 14:00:00 19.8 C 67 % 13.5 C
170 11-06-2019 14:05:00 19.9 C 67 % 13.59 C
171 11-06-2019 14:10:00 20.1 C 66 % 13.55 C
172 11-06-2019 14:15:00 20 C 67 % 13.69 C
173 11-06-2019 14:20:00 19.9 C 66 % 13.36 C
174 11-06-2019 14:25:00 19.9 C 66 % 13.36 C
175 11-06-2019 14:30:00 20 C 67 % 13.69 C
Sensor: Nr:Datum:Temp:Feuchte:Taupunkt:
Aussen-T/F 176 11-06-2019 14:35:00 20.2 C 66 % 13.65 C
177 11-06-2019 14:40:00 20.5 C 69 % 14.62 C
178 11-06-2019 14:45:00 20.8 C 66 % 14.22 C
179 11-06-2019 14:50:00 20.8 C 65 % 13.98 C
180 11-06-2019 14:55:00 21 C 61 % 13.2 C
181 11-06-2019 15:00:00 20.9 C 65 % 14.08 C
182 11-06-2019 15:05:00 21.1 C 66 % 14.5 C
183 11-06-2019 15:10:00 21.2 C 62 % 13.63 C
184 11-06-2019 15:15:00 21.2 C 60 % 13.13 C
185 11-06-2019 15:20:00 21.2 C 61 % 13.38 C
186 11-06-2019 15:25:00 21.2 C 62 % 13.63 C
187 11-06-2019 15:30:00 21.4 C 65 % 14.55 C
188 11-06-2019 15:35:00 21.6 C 60 % 13.51 C
189 11-06-2019 15:40:00 21.4 C 59 % 13.06 C
190 11-06-2019 15:45:00 21.2 C 60 % 13.13 C
191 11-06-2019 15:50:00 21.6 C 64 % 14.5 C
192 11-06-2019 15:55:00 21.8 C 58 % 13.17 C
193 11-06-2019 16:00:00 21.8 C 60 % 13.69 C
194 11-06-2019 16:05:00 21.7 C 58 % 13.08 C
195 11-06-2019 16:10:00 21.5 C 59 % 13.15 C
196 11-06-2019 16:15:00 21.3 C 60 % 13.22 C
197 11-06-2019 16:20:00 21.1 C 60 % 13.04 C
198 11-06-2019 16:25:00 20.9 C 61 % 13.1 C
199 11-06-2019 16:30:00 20.8 C 63 % 13.5 C
200 11-06-2019 16:35:00 20.8 C 72 % 15.57 C
Sensor: Nr:Datum:Temp:Feuchte:Taupunkt:
Aussen-T/F 201 11-06-2019 16:40:00 20.6 C 74 % 15.8 C
202 11-06-2019 16:45:00 20.4 C 76 % 16.03 C
203 11-06-2019 16:50:00 20.3 C 77 % 16.14 C
204 11-06-2019 16:55:00 20.1 C 78 % 16.14 C
205 11-06-2019 17:00:00 20 C 78 % 16.05 C
206 11-06-2019 17:05:00 19.8 C 78 % 15.85 C
207 11-06-2019 17:10:00 19.7 C 78 % 15.76 C
208 11-06-2019 17:15:00 19.6 C 78 % 15.66 C
209 11-06-2019 17:20:00 19.4 C 78 % 15.47 C
210 11-06-2019 17:25:00 19.2 C 79 % 15.47 C
211 11-06-2019 17:30:00 19.2 C 79 % 15.47 C
212 11-06-2019 17:35:00 19.1 C 80 % 15.57 C
213 11-06-2019 17:40:00 18.9 C 80 % 15.38 C
214 11-06-2019 17:45:00 18.9 C 81 % 15.57 C
215 11-06-2019 17:50:00 18.8 C 81 % 15.47 C
216 11-06-2019 17:55:00 18.8 C 82 % 15.66 C
217 11-06-2019 18:00:00 18.8 C 82 % 15.66 C
218 11-06-2019 18:05:00 18.8 C 82 % 15.66 C
219 11-06-2019 18:10:00 18.8 C 82 % 15.66 C
220 11-06-2019 18:15:00 18.8 C 82 % 15.66 C
221 11-06-2019 18:20:00 18.8 C 82 % 15.66 C
222 11-06-2019 18:25:00 18.7 C 83 % 15.75 C
223 11-06-2019 18:30:00 18.7 C 83 % 15.75 C
224 11-06-2019 18:35:00 18.6 C 83 % 15.66 C
225 11-06-2019 18:40:00 18.6 C 82 % 15.47 C
Sensor: Nr:Datum:Temp:Feuchte:Taupunkt:
Aussen-T/F 226 11-06-2019 18:45:00 18.6 C 78 % 14.69 C
227 11-06-2019 18:50:00 18.8 C 83 % 15.85 C
228 11-06-2019 18:55:00 19.1 C 84 % 16.33 C
229 11-06-2019 19:00:00 19.2 C 81 % 15.86 C
230 11-06-2019 19:05:00 19.4 C 78 % 15.47 C
231 11-06-2019 19:10:00 19.7 C 72 % 14.51 C
232 11-06-2019 19:15:00 20.2 C 71 % 14.78 C
233 11-06-2019 19:20:00 20.7 C 69 % 14.81 C
234 11-06-2019 19:25:00 21.1 C 66 % 14.5 C
235 11-06-2019 19:30:00 21.1 C 65 % 14.27 C
236 11-06-2019 19:35:00 20.8 C 66 % 14.22 C
237 11-06-2019 19:40:00 20.7 C 67 % 14.36 C
238 11-06-2019 19:45:00 20.5 C 67 % 14.16 C
239 11-06-2019 19:50:00 20.5 C 74 % 15.71 C
240 11-06-2019 19:55:00 20.3 C 76 % 15.93 C
241 11-06-2019 20:00:00 20.1 C 76 % 15.74 C
242 11-06-2019 20:05:00 19.9 C 78 % 15.95 C
243 11-06-2019 20:10:00 19.7 C 78 % 15.76 C
244 11-06-2019 20:15:00 19.4 C 79 % 15.66 C
245 11-06-2019 20:20:00 19.2 C 80 % 15.67 C
246 11-06-2019 20:25:00 19.1 C 81 % 15.76 C
247 11-06-2019 20:30:00 19.1 C 81 % 15.76 C
248 11-06-2019 20:35:00 18.9 C 81 % 15.57 C
249 11-06-2019 20:40:00 18.9 C 81 % 15.57 C
250 11-06-2019 20:45:00 18.8 C 81 % 15.47 C
Sensor: Nr:Datum:Temp:Feuchte:Taupunkt:
Aussen-T/F 251 11-06-2019 20:50:00 18.7 C 81 % 15.37 C
252 11-06-2019 20:55:00 18.5 C 81 % 15.18 C
253 11-06-2019 21:00:00 18.4 C 82 % 15.27 C
254 11-06-2019 21:05:00 18.3 C 82 % 15.17 C
255 11-06-2019 21:10:00 18.2 C 82 % 15.08 C
256 11-06-2019 21:15:00 18.1 C 82 % 14.98 C
257 11-06-2019 21:20:00 17.9 C 83 % 14.97 C
258 11-06-2019 21:25:00 17.8 C 83 % 14.88 C
259 11-06-2019 21:30:00 17.7 C 84 % 14.96 C
260 11-06-2019 21:35:00 17.6 C 84 % 14.87 C
261 11-06-2019 21:40:00 17.4 C 84 % 14.67 C
262 11-06-2019 21:45:00 17.3 C 84 % 14.57 C
263 11-06-2019 21:50:00 17.3 C 84 % 14.57 C
264 11-06-2019 21:55:00 17.2 C 84 % 14.47 C
265 11-06-2019 22:00:00 17.2 C 85 % 14.66 C
266 11-06-2019 22:05:00 17.2 C 85 % 14.66 C
267 11-06-2019 22:10:00 17.1 C 84 % 14.38 C
268 11-06-2019 22:15:00 17.1 C 85 % 14.56 C
269 11-06-2019 22:20:00 17 C 85 % 14.46 C
270 11-06-2019 22:25:00 16.9 C 85 % 14.36 C
271 11-06-2019 22:30:00 16.8 C 85 % 14.26 C
272 11-06-2019 22:35:00 16.7 C 84 % 13.98 C
273 11-06-2019 22:40:00 16.6 C 84 % 13.89 C
274 11-06-2019 22:45:00 16.4 C 85 % 13.87 C
275 11-06-2019 22:50:00 16.3 C 85 % 13.77 C
Sensor: Nr:Datum:Temp:Feuchte:Taupunkt:
Aussen-T/F 276 11-06-2019 22:55:00 16.2 C 85 % 13.68 C
277 11-06-2019 23:00:00 16.1 C 85 % 13.58 C
278 11-06-2019 23:05:00 15.9 C 85 % 13.38 C
279 11-06-2019 23:10:00 15.9 C 86 % 13.56 C
280 11-06-2019 23:15:00 15.8 C 86 % 13.46 C
281 11-06-2019 23:20:00 15.8 C 87 % 13.64 C
282 11-06-2019 23:25:00 15.7 C 87 % 13.54 C
283 11-06-2019 23:30:00 15.7 C 87 % 13.54 C
284 11-06-2019 23:35:00 15.6 C 87 % 13.45 C
285 11-06-2019 23:40:00 15.6 C 87 % 13.45 C
286 11-06-2019 23:45:00 15.5 C 87 % 13.35 C
287 11-06-2019 23:50:00 15.5 C 87 % 13.35 C
288 11-06-2019 23:55:00 15.4 C 87 % 13.25 C
289 12-06-2019 00:00:00 15.4 C 87 % 13.25 C
290 12-06-2019 00:05:00 15.4 C 87 % 13.25 C
291 12-06-2019 00:10:00 15.4 C 87 % 13.25 C
292 12-06-2019 00:15:00 15.3 C 87 % 13.15 C
293 12-06-2019 00:20:00 15.3 C 87 % 13.15 C
294 12-06-2019 00:25:00 15.2 C 87 % 13.05 C
295 12-06-2019 00:30:00 15.2 C 87 % 13.05 C
296 12-06-2019 00:35:00 15.1 C 87 % 12.95 C
297 12-06-2019 00:40:00 15.1 C 87 % 12.95 C
298 12-06-2019 00:45:00 14.9 C 87 % 12.76 C
299 12-06-2019 00:50:00 14.9 C 87 % 12.76 C
300 12-06-2019 00:55:00 14.8 C 87 % 12.66 C
Sensor: Nr:Datum:Temp:Feuchte:Taupunkt:
Aussen-T/F 301 12-06-2019 01:00:00 14.7 C 87 % 12.56 C
302 12-06-2019 01:05:00 14.6 C 87 % 12.46 C
303 12-06-2019 01:10:00 14.5 C 88 % 12.54 C
304 12-06-2019 01:15:00 14.4 C 88 % 12.44 C
305 12-06-2019 01:20:00 14.3 C 89 % 12.51 C
306 12-06-2019 01:25:00 14.3 C 89 % 12.51 C
307 12-06-2019 01:30:00 14.2 C 89 % 12.41 C
308 12-06-2019 01:35:00 14.2 C 89 % 12.41 C
309 12-06-2019 01:40:00 14.3 C 90 % 12.68 C
310 12-06-2019 01:45:00 14.3 C 90 % 12.68 C
311 12-06-2019 01:50:00 14.4 C 90 % 12.78 C
312 12-06-2019 01:55:00 14.5 C 90 % 12.88 C
313 12-06-2019 02:00:00 14.5 C 90 % 12.88 C
314 12-06-2019 02:05:00 14.6 C 90 % 12.98 C
315 12-06-2019 02:10:00 14.6 C 90 % 12.98 C
316 12-06-2019 02:15:00 14.6 C 90 % 12.98 C
317 12-06-2019 02:20:00 14.6 C 90 % 12.98 C
318 12-06-2019 02:25:00 14.6 C 90 % 12.98 C
319 12-06-2019 02:30:00 14.6 C 90 % 12.98 C
320 12-06-2019 02:35:00 14.6 C 90 % 12.98 C
321 12-06-2019 02:40:00 14.6 C 90 % 12.98 C
322 12-06-2019 02:45:00 14.6 C 90 % 12.98 C
323 12-06-2019 02:50:00 14.6 C 90 % 12.98 C
324 12-06-2019 02:55:00 14.6 C 90 % 12.98 C
325 12-06-2019 03:00:00 14.6 C 90 % 12.98 C
Sensor: Nr:Datum:Temp:Feuchte:Taupunkt:
Aussen-T/F 326 12-06-2019 03:05:00 14.6 C 90 % 12.98 C
327 12-06-2019 03:10:00 14.6 C 90 % 12.98 C
328 12-06-2019 03:15:00 14.5 C 91 % 13.05 C
329 12-06-2019 03:20:00 14.5 C 91 % 13.05 C
330 12-06-2019 03:25:00 14.5 C 91 % 13.05 C
331 12-06-2019 03:30:00 14.5 C 91 % 13.05 C
332 12-06-2019 03:35:00 14.5 C 91 % 13.05 C
333 12-06-2019 03:40:00 14.5 C 91 % 13.05 C
334 12-06-2019 03:45:00 14.5 C 91 % 13.05 C
335 12-06-2019 03:50:00 14.5 C 91 % 13.05 C
336 12-06-2019 03:55:00 14.5 C 91 % 13.05 C
337 12-06-2019 04:00:00 14.4 C 91 % 12.95 C
338 12-06-2019 04:05:00 14.4 C 91 % 12.95 C
339 12-06-2019 04:10:00 14.4 C 91 % 12.95 C
340 12-06-2019 04:15:00 14.4 C 91 % 12.95 C
341 12-06-2019 04:20:00 14.4 C 91 % 12.95 C
342 12-06-2019 04:25:00 14.4 C 91 % 12.95 C
343 12-06-2019 04:30:00 14.4 C 91 % 12.95 C
344 12-06-2019 04:35:00 14.4 C 91 % 12.95 C
345 12-06-2019 04:40:00 14.4 C 91 % 12.95 C
346 12-06-2019 04:45:00 14.4 C 91 % 12.95 C
347 12-06-2019 04:50:00 14.4 C 91 % 12.95 C
348 12-06-2019 04:55:00 14.3 C 91 % 12.85 C
349 12-06-2019 05:00:00 14.3 C 91 % 12.85 C
350 12-06-2019 05:05:00 14.2 C 91 % 12.75 C
Sensor: Nr:Datum:Temp:Feuchte:Taupunkt:
Aussen-T/F 351 12-06-2019 05:10:00 14.1 C 91 % 12.65 C
352 12-06-2019 05:15:00 14 C 92 % 12.72 C
353 12-06-2019 05:20:00 14.1 C 92 % 12.82 C
354 12-06-2019 05:25:00 14.1 C 92 % 12.82 C
355 12-06-2019 05:30:00 14.1 C 92 % 12.82 C
356 12-06-2019 05:35:00 14.1 C 92 % 12.82 C
357 12-06-2019 05:40:00 14.1 C 92 % 12.82 C
358 12-06-2019 05:45:00 14.1 C 92 % 12.82 C
359 12-06-2019 05:50:00 14.2 C 92 % 12.92 C
360 12-06-2019 05:55:00 14.1 C 92 % 12.82 C
361 12-06-2019 06:00:00 14 C 92 % 12.72 C
362 12-06-2019 06:05:00 13.9 C 92 % 12.62 C
363 12-06-2019 06:10:00 13.8 C 92 % 12.52 C
364 12-06-2019 06:15:00 13.8 C 92 % 12.52 C
365 12-06-2019 06:20:00 13.8 C 92 % 12.52 C
366 12-06-2019 06:25:00 13.8 C 92 % 12.52 C
367 12-06-2019 06:30:00 13.9 C 93 % 12.79 C
368 12-06-2019 06:35:00 13.9 C 93 % 12.79 C
369 12-06-2019 06:40:00 14 C 93 % 12.89 C
370 12-06-2019 06:45:00 14.1 C 93 % 12.99 C
371 12-06-2019 06:50:00 14.2 C 93 % 13.08 C
372 12-06-2019 06:55:00 14.3 C 92 % 13.02 C
373 12-06-2019 07:00:00 14.4 C 92 % 13.12 C
374 12-06-2019 07:05:00 14.6 C 92 % 13.32 C
375 12-06-2019 07:10:00 14.7 C 91 % 13.25 C
Sensor: Nr:Datum:Temp:Feuchte:Taupunkt:
Aussen-T/F 376 12-06-2019 07:15:00 14.7 C 91 % 13.25 C
377 12-06-2019 07:20:00 14.8 C 91 % 13.35 C
378 12-06-2019 07:25:00 14.8 C 92 % 13.51 C
379 12-06-2019 07:30:00 14.9 C 92 % 13.61 C
380 12-06-2019 07:35:00 15 C 91 % 13.54 C
381 12-06-2019 07:40:00 15 C 91 % 13.54 C
382 12-06-2019 07:45:00 15.1 C 91 % 13.64 C
383 12-06-2019 07:50:00 15.2 C 91 % 13.74 C
384 12-06-2019 07:55:00 15.3 C 91 % 13.84 C
385 12-06-2019 08:00:00 15.4 C 91 % 13.94 C
386 12-06-2019 08:05:00 15.4 C 90 % 13.77 C
387 12-06-2019 08:10:00 15.4 C 89 % 13.6 C
388 12-06-2019 08:15:00 15.5 C 89 % 13.7 C
389 12-06-2019 08:20:00 15.6 C 89 % 13.79 C
390 12-06-2019 08:25:00 15.7 C 89 % 13.89 C
391 12-06-2019 08:30:00 15.8 C 89 % 13.99 C
392 12-06-2019 08:35:00 15.9 C 88 % 13.92 C
393 12-06-2019 08:40:00 16 C 88 % 14.01 C
394 12-06-2019 08:45:00 16.2 C 88 % 14.21 C
395 12-06-2019 08:50:00 16.3 C 88 % 14.31 C
396 12-06-2019 08:55:00 16.6 C 86 % 14.25 C
397 12-06-2019 09:00:00 16.7 C 85 % 14.17 C
398 12-06-2019 09:05:00 16.8 C 84 % 14.08 C
399 12-06-2019 09:10:00 16.8 C 84 % 14.08 C
400 12-06-2019 09:15:00 16.7 C 84 % 13.98 C
Sensor: Nr:Datum:Temp:Feuchte:Taupunkt:
Aussen-T/F 401 12-06-2019 09:20:00 16.7 C 85 % 14.17 C
402 12-06-2019 09:25:00 16.6 C 85 % 14.07 C
403 12-06-2019 09:30:00 16.6 C 86 % 14.25 C
404 12-06-2019 09:35:00 16.5 C 86 % 14.15 C
405 12-06-2019 09:40:00 16.4 C 87 % 14.23 C
406 12-06-2019 09:45:00 16.3 C 87 % 14.13 C
407 12-06-2019 09:50:00 16.2 C 88 % 14.21 C
408 12-06-2019 09:55:00 16.1 C 89 % 14.29 C
409 12-06-2019 10:00:00 15.9 C 89 % 14.09 C
410 12-06-2019 10:05:00 15.7 C 90 % 14.06 C
411 12-06-2019 10:10:00 15.6 C 91 % 14.14 C
412 12-06-2019 10:15:00 15.5 C 92 % 14.21 C
413 12-06-2019 10:20:00 15.4 C 92 % 14.11 C
414 12-06-2019 10:25:00 15.2 C 92 % 13.91 C
415 12-06-2019 10:30:00 15.1 C 93 % 13.98 C
416 12-06-2019 10:35:00 14.9 C 92 % 13.61 C
417 12-06-2019 10:40:00 14.8 C 93 % 13.68 C
418 12-06-2019 10:45:00 14.7 C 93 % 13.58 C
419 12-06-2019 10:50:00 14.6 C 93 % 13.48 C
420 12-06-2019 10:55:00 14.4 C 93 % 13.28 C
421 12-06-2019 11:00:00 14.4 C 94 % 13.45 C
422 12-06-2019 11:05:00 14.3 C 93 % 13.18 C
423 12-06-2019 11:10:00 14.2 C 93 % 13.08 C
424 12-06-2019 11:15:00 14.1 C 93 % 12.99 C
425 12-06-2019 11:20:00 14 C 93 % 12.89 C
Sensor: Nr:Datum:Temp:Feuchte:Taupunkt:
Aussen-T/F 426 12-06-2019 11:25:00 13.8 C 93 % 12.69 C
427 12-06-2019 11:30:00 13.8 C 93 % 12.69 C
428 12-06-2019 11:35:00 13.8 C 93 % 12.69 C
429 12-06-2019 11:40:00 13.8 C 94 % 12.85 C
430 12-06-2019 11:45:00 13.8 C 94 % 12.85 C
431 12-06-2019 11:50:00 13.8 C 94 % 12.85 C
432 12-06-2019 11:55:00 13.9 C 94 % 12.95 C
433 12-06-2019 12:00:00 13.9 C 95 % 13.11 C
434 12-06-2019 12:05:00 14.2 C 95 % 13.41 C
435 12-06-2019 12:10:00 14.2 C 95 % 13.41 C
436 12-06-2019 12:15:00 14.3 C 95 % 13.51 C
437 12-06-2019 12:20:00 14.4 C 95 % 13.61 C
438 12-06-2019 12:25:00 14.4 C 95 % 13.61 C
439 12-06-2019 12:30:00 14.4 C 95 % 13.61 C
440 12-06-2019 12:35:00 14.4 C 95 % 13.61 C
441 12-06-2019 12:40:00 14.6 C 95 % 13.81 C
442 12-06-2019 12:45:00 14.7 C 95 % 13.91 C
443 12-06-2019 12:50:00 14.7 C 95 % 13.91 C
444 12-06-2019 12:55:00 14.7 C 95 % 13.91 C
445 12-06-2019 13:00:00 14.7 C 94 % 13.74 C
446 12-06-2019 13:05:00 14.7 C 95 % 13.91 C
447 12-06-2019 13:10:00 14.8 C 94 % 13.84 C
448 12-06-2019 13:15:00 14.9 C 95 % 14.11 C
449 12-06-2019 13:20:00 14.8 C 94 % 13.84 C
450 12-06-2019 13:25:00 14.9 C 93 % 13.78 C
Sensor: Nr:Datum:Temp:Feuchte:Taupunkt:
Aussen-T/F 451 12-06-2019 13:30:00 15.3 C 94 % 14.34 C
452 12-06-2019 13:35:00 15.5 C 93 % 14.37 C
453 12-06-2019 13:40:00 15.8 C 93 % 14.67 C
454 12-06-2019 13:45:00 16 C 91 % 14.53 C
455 12-06-2019 13:50:00 16.2 C 92 % 14.9 C
456 12-06-2019 13:55:00 16.3 C 88 % 14.31 C
457 12-06-2019 14:00:00 16.4 C 89 % 14.58 C
458 12-06-2019 14:05:00 16.7 C 89 % 14.88 C
459 12-06-2019 14:10:00 16.8 C 87 % 14.62 C
460 12-06-2019 14:15:00 16.8 C 86 % 14.45 C
461 12-06-2019 14:20:00 17.1 C 88 % 15.1 C
462 12-06-2019 14:25:00 17.2 C 86 % 14.84 C
463 12-06-2019 14:30:00 17.4 C 83 % 14.48 C
464 12-06-2019 14:35:00 17.6 C 79 % 13.92 C
465 12-06-2019 14:40:00 17.7 C 80 % 14.21 C
466 12-06-2019 14:45:00 17.7 C 80 % 14.21 C
467 12-06-2019 14:50:00 17.5 C 79 % 13.82 C
468 12-06-2019 14:55:00 17.2 C 81 % 13.91 C
469 12-06-2019 15:00:00 17.1 C 82 % 14 C
470 12-06-2019 15:05:00 17.1 C 83 % 14.19 C
471 12-06-2019 15:10:00 17.3 C 81 % 14.01 C
472 12-06-2019 15:15:00 17.7 C 80 % 14.21 C
473 12-06-2019 15:20:00 18.1 C 83 % 15.17 C
474 12-06-2019 15:25:00 18.3 C 79 % 14.6 C
475 12-06-2019 15:30:00 18.7 C 77 % 14.59 C
Sensor: Nr:Datum:Temp:Feuchte:Taupunkt:
Aussen-T/F 476 12-06-2019 15:35:00 19 C 77 % 14.88 C
477 12-06-2019 15:40:00 19 C 72 % 13.84 C
478 12-06-2019 15:45:00 18.9 C 72 % 13.74 C
479 12-06-2019 15:50:00 18.6 C 75 % 14.08 C
480 12-06-2019 15:55:00 18.6 C 74 % 13.88 C
481 12-06-2019 16:00:00 19.1 C 70 % 13.5 C
482 12-06-2019 16:05:00 19.5 C 70 % 13.89 C
483 12-06-2019 16:10:00 19.8 C 69 % 13.95 C
484 12-06-2019 16:15:00 20.1 C 67 % 13.78 C
485 12-06-2019 16:20:00 20.1 C 66 % 13.55 C
486 12-06-2019 16:25:00 20.2 C 66 % 13.65 C
487 12-06-2019 16:30:00 20.5 C 64 % 13.46 C
488 12-06-2019 16:35:00 20.3 C 65 % 13.51 C
489 12-06-2019 16:40:00 20.1 C 67 % 13.78 C
490 12-06-2019 16:45:00 20.2 C 66 % 13.65 C
491 12-06-2019 16:50:00 20.7 C 65 % 13.89 C
492 12-06-2019 16:55:00 20.9 C 64 % 13.84 C
493 12-06-2019 17:00:00 21.3 C 61 % 13.48 C
494 12-06-2019 17:05:00 21.4 C 64 % 14.31 C
495 12-06-2019 17:10:00 21.7 C 60 % 13.6 C
496 12-06-2019 17:15:00 21.8 C 62 % 14.2 C
497 12-06-2019 17:20:00 21.9 C 62 % 14.29 C
498 12-06-2019 17:25:00 22.1 C 58 % 13.45 C
499 12-06-2019 17:30:00 22.1 C 57 % 13.19 C
500 12-06-2019 17:35:00 22.1 C 54 % 12.36 C
Sensor: Nr:Datum:Temp:Feuchte:Taupunkt:
Aussen-T/F 501 12-06-2019 17:40:00 22 C 58 % 13.36 C
502 12-06-2019 17:45:00 21.9 C 55 % 12.46 C
503 12-06-2019 17:50:00 21.7 C 58 % 13.08 C
504 12-06-2019 17:55:00 21.8 C 59 % 13.44 C
505 12-06-2019 18:00:00 22 C 58 % 13.36 C
506 12-06-2019 18:05:00 22.3 C 59 % 13.9 C
507 12-06-2019 18:10:00 22.3 C 53 % 12.26 C
508 12-06-2019 18:15:00 22.4 C 56 % 13.2 C
509 12-06-2019 18:20:00 22.7 C 55 % 13.2 C
510 12-06-2019 18:25:00 22.9 C 53 % 12.82 C
511 12-06-2019 18:30:00 23.1 C 54 % 13.29 C
512 12-06-2019 18:35:00 23 C 52 % 12.62 C
513 12-06-2019 18:40:00 22.9 C 52 % 12.53 C
514 12-06-2019 18:45:00 22.8 C 53 % 12.73 C
515 12-06-2019 18:50:00 22.7 C 52 % 12.34 C
516 12-06-2019 18:55:00 22.6 C 50 % 11.66 C
517 12-06-2019 19:00:00 22.4 C 52 % 12.07 C
518 12-06-2019 19:05:00 22.3 C 51 % 11.68 C
519 12-06-2019 19:10:00 22.2 C 52 % 11.88 C
520 12-06-2019 19:15:00 22.3 C 52 % 11.97 C
521 12-06-2019 19:20:00 22.3 C 51 % 11.68 C
522 12-06-2019 19:25:00 22.1 C 54 % 12.36 C
523 12-06-2019 19:30:00 21.9 C 52 % 11.61 C
524 12-06-2019 19:35:00 21.7 C 53 % 11.71 C
525 12-06-2019 19:40:00 21.7 C 54 % 11.99 C
Sensor: Nr:Datum:Temp:Feuchte:Taupunkt:
Aussen-T/F 526 12-06-2019 19:45:00 21.4 C 55 % 11.99 C
527 12-06-2019 19:50:00 21.4 C 55 % 11.99 C
528 12-06-2019 19:55:00 21.4 C 56 % 12.27 C
529 12-06-2019 20:00:00 21.3 C 55 % 11.9 C
530 12-06-2019 20:05:00 21.2 C 55 % 11.81 C
531 12-06-2019 20:10:00 21.3 C 55 % 11.9 C
532 12-06-2019 20:15:00 21.4 C 65 % 14.55 C
533 12-06-2019 20:20:00 21.5 C 60 % 13.41 C
534 12-06-2019 20:25:00 21.6 C 66 % 14.98 C
535 12-06-2019 20:30:00 21.5 C 63 % 14.16 C
536 12-06-2019 20:35:00 21.4 C 65 % 14.55 C
537 12-06-2019 20:40:00 21.3 C 67 % 14.93 C
538 12-06-2019 20:45:00 21.1 C 67 % 14.74 C
539 12-06-2019 20:50:00 20.8 C 67 % 14.45 C
540 12-06-2019 20:55:00 20.4 C 69 % 14.52 C
541 12-06-2019 21:00:00 20 C 69 % 14.14 C
542 12-06-2019 21:05:00 19.6 C 70 % 13.98 C
543 12-06-2019 21:10:00 19.2 C 71 % 13.82 C
544 12-06-2019 21:15:00 18.8 C 72 % 13.65 C
545 12-06-2019 21:20:00 18.3 C 73 % 13.38 C
546 12-06-2019 21:25:00 17.9 C 73 % 12.99 C
547 12-06-2019 21:30:00 17.6 C 74 % 12.91 C
548 12-06-2019 21:35:00 17.2 C 76 % 12.94 C
549 12-06-2019 21:40:00 16.9 C 77 % 12.84 C
550 12-06-2019 21:45:00 16.5 C 79 % 12.85 C
Sensor: Nr:Datum:Temp:Feuchte:Taupunkt:
Aussen-T/F 551 12-06-2019 21:50:00 16.2 C 80 % 12.75 C
552 12-06-2019 21:55:00 15.8 C 80 % 12.36 C
553 12-06-2019 22:00:00 15.5 C 81 % 12.26 C
554 12-06-2019 22:05:00 15.2 C 82 % 12.15 C
555 12-06-2019 22:10:00 14.9 C 83 % 12.04 C
556 12-06-2019 22:15:00 14.7 C 83 % 11.85 C
557 12-06-2019 22:20:00 14.6 C 84 % 11.93 C
558 12-06-2019 22:25:00 14.4 C 85 % 11.91 C
559 12-06-2019 22:30:00 14.2 C 85 % 11.72 C
560 12-06-2019 22:35:00 14.1 C 86 % 11.8 C
561 12-06-2019 22:40:00 13.9 C 86 % 11.6 C
562 12-06-2019 22:45:00 13.8 C 87 % 11.68 C
563 12-06-2019 22:50:00 13.7 C 87 % 11.58 C
564 12-06-2019 22:55:00 13.6 C 88 % 11.65 C
565 12-06-2019 23:00:00 13.6 C 88 % 11.65 C
566 12-06-2019 23:05:00 13.5 C 88 % 11.55 C
567 12-06-2019 23:10:00 13.4 C 88 % 11.45 C
568 12-06-2019 23:15:00 13.3 C 88 % 11.36 C
569 12-06-2019 23:20:00 13.2 C 88 % 11.26 C
570 12-06-2019 23:25:00 13.2 C 88 % 11.26 C
571 12-06-2019 23:30:00 13.1 C 88 % 11.16 C
572 12-06-2019 23:35:00 13.1 C 89 % 11.33 C
573 12-06-2019 23:40:00 13 C 88 % 11.06 C
574 12-06-2019 23:45:00 12.9 C 88 % 10.96 C
575 12-06-2019 23:50:00 12.8 C 89 % 11.03 C
Sensor: Nr:Datum:Temp:Feuchte:Taupunkt:
Aussen-T/F 576 12-06-2019 23:55:00 12.8 C 89 % 11.03 C
577 13-06-2019 00:00:00 12.8 C 89 % 11.03 C
578 13-06-2019 00:05:00 12.7 C 89 % 10.94 C
579 13-06-2019 00:10:00 12.7 C 89 % 10.94 C
580 13-06-2019 00:15:00 12.7 C 89 % 10.94 C
581 13-06-2019 00:20:00 12.6 C 89 % 10.84 C
582 13-06-2019 00:25:00 12.6 C 90 % 11 C
583 13-06-2019 00:30:00 12.6 C 90 % 11 C
584 13-06-2019 00:35:00 12.6 C 90 % 11 C
585 13-06-2019 00:40:00 12.5 C 90 % 10.91 C
586 13-06-2019 00:45:00 12.4 C 90 % 10.81 C
587 13-06-2019 00:50:00 12.3 C 90 % 10.71 C
588 13-06-2019 00:55:00 12.2 C 90 % 10.61 C
589 13-06-2019 01:00:00 12.2 C 90 % 10.61 C
590 13-06-2019 01:05:00 12.1 C 90 % 10.51 C
591 13-06-2019 01:10:00 11.9 C 90 % 10.31 C
592 13-06-2019 01:15:00 11.8 C 90 % 10.21 C
593 13-06-2019 01:20:00 11.8 C 91 % 10.38 C
594 13-06-2019 01:25:00 11.7 C 91 % 10.28 C
595 13-06-2019 01:30:00 11.6 C 91 % 10.18 C
596 13-06-2019 01:35:00 11.6 C 91 % 10.18 C
597 13-06-2019 01:40:00 11.5 C 91 % 10.08 C
598 13-06-2019 01:45:00 11.4 C 91 % 9.98 C
599 13-06-2019 01:50:00 11.3 C 91 % 9.89 C
600 13-06-2019 01:55:00 11.3 C 92 % 10.05 C
Sensor: Nr:Datum:Temp:Feuchte:Taupunkt:
Aussen-T/F 601 13-06-2019 02:00:00 11.2 C 92 % 9.95 C
602 13-06-2019 02:05:00 11.2 C 92 % 9.95 C
603 13-06-2019 02:10:00 11.1 C 92 % 9.85 C
604 13-06-2019 02:15:00 11.1 C 92 % 9.85 C
605 13-06-2019 02:20:00 10.9 C 92 % 9.65 C
606 13-06-2019 02:25:00 10.9 C 92 % 9.65 C
607 13-06-2019 02:30:00 10.8 C 92 % 9.55 C
608 13-06-2019 02:35:00 10.8 C 93 % 9.71 C
609 13-06-2019 02:40:00 10.8 C 93 % 9.71 C
610 13-06-2019 02:45:00 10.7 C 93 % 9.62 C
611 13-06-2019 02:50:00 10.7 C 93 % 9.62 C
612 13-06-2019 02:55:00 10.6 C 93 % 9.52 C
613 13-06-2019 03:00:00 10.6 C 93 % 9.52 C
614 13-06-2019 03:05:00 10.5 C 93 % 9.42 C
615 13-06-2019 03:10:00 10.4 C 93 % 9.32 C
616 13-06-2019 03:15:00 10.4 C 93 % 9.32 C
617 13-06-2019 03:20:00 10.4 C 93 % 9.32 C
618 13-06-2019 03:25:00 10.3 C 94 % 9.38 C
619 13-06-2019 03:30:00 10.3 C 94 % 9.38 C
620 13-06-2019 03:35:00 10.2 C 94 % 9.28 C
621 13-06-2019 03:40:00 10.2 C 94 % 9.28 C
622 13-06-2019 03:45:00 10.1 C 94 % 9.18 C
623 13-06-2019 03:50:00 10.1 C 94 % 9.18 C
624 13-06-2019 03:55:00 10 C 94 % 9.08 C
625 13-06-2019 04:00:00 9.9 C 94 % 8.98 C
Sensor: Nr:Datum:Temp:Feuchte:Taupunkt:
Aussen-T/F 626 13-06-2019 04:05:00 9.9 C 94 % 8.98 C
627 13-06-2019 04:10:00 9.9 C 94 % 8.98 C
628 13-06-2019 04:15:00 9.8 C 94 % 8.88 C
629 13-06-2019 04:20:00 9.8 C 94 % 8.88 C
630 13-06-2019 04:25:00 9.8 C 94 % 8.88 C
631 13-06-2019 04:30:00 9.8 C 94 % 8.88 C
632 13-06-2019 04:35:00 9.8 C 94 % 8.88 C
633 13-06-2019 04:40:00 9.7 C 94 % 8.78 C
634 13-06-2019 04:45:00 9.7 C 94 % 8.78 C
635 13-06-2019 04:50:00 9.6 C 94 % 8.68 C
636 13-06-2019 04:55:00 9.6 C 94 % 8.68 C
637 13-06-2019 05:00:00 9.6 C 94 % 8.68 C
638 13-06-2019 05:05:00 9.5 C 95 % 8.74 C
639 13-06-2019 05:10:00 9.5 C 95 % 8.74 C
640 13-06-2019 05:15:00 9.5 C 95 % 8.74 C
641 13-06-2019 05:20:00 9.5 C 95 % 8.74 C
642 13-06-2019 05:25:00 9.5 C 95 % 8.74 C
643 13-06-2019 05:30:00 9.4 C 95 % 8.64 C
644 13-06-2019 05:35:00 9.4 C 95 % 8.64 C
645 13-06-2019 05:40:00 9.4 C 95 % 8.64 C
646 13-06-2019 05:45:00 9.4 C 95 % 8.64 C
647 13-06-2019 05:50:00 9.4 C 95 % 8.64 C
648 13-06-2019 05:55:00 9.4 C 95 % 8.64 C
649 13-06-2019 06:00:00 9.4 C 95 % 8.64 C
650 13-06-2019 06:05:00 9.4 C 95 % 8.64 C
Sensor: Nr:Datum:Temp:Feuchte:Taupunkt:
Aussen-T/F 651 13-06-2019 06:10:00 9.4 C 95 % 8.64 C
652 13-06-2019 06:15:00 9.4 C 95 % 8.64 C
653 13-06-2019 06:20:00 9.4 C 95 % 8.64 C
654 13-06-2019 06:25:00 9.4 C 95 % 8.64 C
655 13-06-2019 06:30:00 9.5 C 95 % 8.74 C
656 13-06-2019 06:35:00 9.5 C 95 % 8.74 C
657 13-06-2019 06:40:00 9.6 C 96 % 8.99 C
658 13-06-2019 06:45:00 9.6 C 96 % 8.99 C
659 13-06-2019 06:50:00 9.7 C 96 % 9.09 C
660 13-06-2019 06:55:00 9.8 C 96 % 9.19 C
661 13-06-2019 07:00:00 9.8 C 96 % 9.19 C
662 13-06-2019 07:05:00 9.9 C 96 % 9.29 C
663 13-06-2019 07:10:00 10 C 96 % 9.39 C
664 13-06-2019 07:15:00 10.1 C 96 % 9.49 C
665 13-06-2019 07:20:00 10.2 C 96 % 9.59 C
666 13-06-2019 07:25:00 10.3 C 96 % 9.69 C
667 13-06-2019 07:30:00 10.3 C 96 % 9.69 C
668 13-06-2019 07:35:00 10.4 C 96 % 9.79 C
669 13-06-2019 07:40:00 10.6 C 96 % 9.99 C
670 13-06-2019 07:45:00 10.7 C 96 % 10.09 C
671 13-06-2019 07:50:00 10.7 C 96 % 10.09 C
672 13-06-2019 07:55:00 10.8 C 96 % 10.19 C
673 13-06-2019 08:00:00 10.9 C 96 % 10.29 C
674 13-06-2019 08:05:00 11.1 C 96 % 10.49 C
675 13-06-2019 08:10:00 11.2 C 96 % 10.59 C
Sensor: Nr:Datum:Temp:Feuchte:Taupunkt:
Aussen-T/F 676 13-06-2019 08:15:00 11.4 C 96 % 10.79 C
677 13-06-2019 08:20:00 11.6 C 96 % 10.98 C
678 13-06-2019 08:25:00 11.7 C 96 % 11.08 C
679 13-06-2019 08:30:00 11.8 C 96 % 11.18 C
680 13-06-2019 08:35:00 11.9 C 96 % 11.28 C
681 13-06-2019 08:40:00 12.1 C 96 % 11.48 C
682 13-06-2019 08:45:00 12.2 C 95 % 11.42 C
683 13-06-2019 08:50:00 12.4 C 95 % 11.62 C
684 13-06-2019 08:55:00 12.7 C 94 % 11.76 C
685 13-06-2019 09:00:00 12.9 C 93 % 11.8 C
686 13-06-2019 09:05:00 13.2 C 92 % 11.93 C
687 13-06-2019 09:10:00 13.7 C 85 % 11.23 C
688 13-06-2019 09:15:00 14.4 C 82 % 11.37 C
689 13-06-2019 09:20:00 15 C 80 % 11.58 C
690 13-06-2019 09:25:00 15.3 C 80 % 11.87 C
691 13-06-2019 09:30:00 15.6 C 75 % 11.19 C
692 13-06-2019 09:35:00 15.9 C 74 % 11.28 C
693 13-06-2019 09:40:00 16.2 C 73 % 11.36 C
694 13-06-2019 09:45:00 16.4 C 73 % 11.55 C
695 13-06-2019 09:50:00 16.6 C 71 % 11.32 C
696 13-06-2019 09:55:00 16.7 C 71 % 11.42 C
697 13-06-2019 10:00:00 16.8 C 70 % 11.3 C
698 13-06-2019 10:05:00 17.1 C 67 % 10.93 C
699 13-06-2019 10:10:00 17.3 C 67 % 11.12 C
700 13-06-2019 10:15:00 17.4 C 70 % 11.88 C
Sensor: Nr:Datum:Temp:Feuchte:Taupunkt:
Aussen-T/F 701 13-06-2019 10:20:00 17.7 C 67 % 11.5 C
702 13-06-2019 10:25:00 18 C 65 % 11.33 C
703 13-06-2019 10:30:00 18.2 C 62 % 10.81 C
704 13-06-2019 10:35:00 18.3 C 64 % 11.38 C
705 13-06-2019 10:40:00 18.4 C 64 % 11.47 C
706 13-06-2019 10:45:00 18.7 C 62 % 11.28 C
707 13-06-2019 10:50:00 18.6 C 61 % 10.94 C
708 13-06-2019 10:55:00 18.5 C 62 % 11.09 C
709 13-06-2019 11:00:00 18.7 C 62 % 11.28 C
710 13-06-2019 11:05:00 18.8 C 63 % 11.61 C
711 13-06-2019 11:10:00 18.8 C 60 % 10.88 C
712 13-06-2019 11:15:00 18.8 C 61 % 11.13 C
713 13-06-2019 11:20:00 18.8 C 61 % 11.13 C
714 13-06-2019 11:25:00 18.8 C 61 % 11.13 C
715 13-06-2019 11:30:00 19 C 61 % 11.31 C
716 13-06-2019 11:35:00 19.3 C 60 % 11.35 C
717 13-06-2019 11:40:00 19.6 C 61 % 11.88 C
718 13-06-2019 11:45:00 19.7 C 61 % 11.97 C
719 13-06-2019 11:50:00 19.7 C 59 % 11.47 C
720 13-06-2019 11:55:00 19.8 C 60 % 11.82 C
721 13-06-2019 12:00:00 19.8 C 59 % 11.56 C
722 13-06-2019 12:05:00 19.7 C 57 % 10.95 C
723 13-06-2019 12:10:00 19.4 C 58 % 10.93 C
724 13-06-2019 12:15:00 19.3 C 57 % 10.58 C
725 13-06-2019 12:20:00 19.2 C 58 % 10.74 C
Sensor: Nr:Datum:Temp:Feuchte:Taupunkt:
Aussen-T/F 726 13-06-2019 12:25:00 19.2 C 59 % 11 C
727 13-06-2019 12:30:00 19.2 C 56 % 10.22 C
728 13-06-2019 12:35:00 19.3 C 55 % 10.04 C
729 13-06-2019 12:40:00 19.3 C 55 % 10.04 C
730 13-06-2019 12:45:00 19.3 C 57 % 10.58 C
731 13-06-2019 12:50:00 19.5 C 57 % 10.76 C
732 13-06-2019 12:55:00 19.8 C 56 % 10.78 C
733 13-06-2019 13:00:00 20.1 C 54 % 10.51 C
734 13-06-2019 13:05:00 20.3 C 57 % 11.51 C
735 13-06-2019 13:10:00 20.4 C 54 % 10.79 C
736 13-06-2019 13:15:00 20.7 C 53 % 10.78 C
737 13-06-2019 13:20:00 20.9 C 54 % 11.25 C
738 13-06-2019 13:25:00 21.1 C 53 % 11.15 C
739 13-06-2019 13:30:00 21.1 C 53 % 11.15 C
740 13-06-2019 13:35:00 21.2 C 55 % 11.81 C
741 13-06-2019 13:40:00 21.2 C 49 % 10.07 C
742 13-06-2019 13:45:00 21.1 C 50 % 10.28 C
743 13-06-2019 13:50:00 21.2 C 53 % 11.25 C
744 13-06-2019 13:55:00 21.2 C 55 % 11.81 C
745 13-06-2019 14:00:00 21.3 C 50 % 10.46 C
746 13-06-2019 14:05:00 21.5 C 52 % 11.24 C
747 13-06-2019 14:10:00 21.6 C 50 % 10.74 C
748 13-06-2019 14:15:00 21.3 C 50 % 10.46 C
749 13-06-2019 14:20:00 21 C 52 % 10.78 C
750 13-06-2019 14:25:00 20.7 C 53 % 10.78 C
Sensor: Nr:Datum:Temp:Feuchte:Taupunkt:
Aussen-T/F 751 13-06-2019 14:30:00 20.7 C 54 % 11.07 C
752 13-06-2019 14:35:00 21.1 C 52 % 10.87 C
753 13-06-2019 14:40:00 21.4 C 50 % 10.55 C
754 13-06-2019 14:45:00 21.5 C 49 % 10.34 C
755 13-06-2019 14:50:00 21.6 C 52 % 11.33 C
756 13-06-2019 14:55:00 21.5 C 50 % 10.65 C
757 13-06-2019 15:00:00 21.3 C 53 % 11.34 C
758 13-06-2019 15:05:00 21.4 C 53 % 11.43 C
759 13-06-2019 15:10:00 21.7 C 52 % 11.42 C
760 13-06-2019 15:15:00 22 C 48 % 10.49 C
761 13-06-2019 15:20:00 22.1 C 47 % 10.27 C
762 13-06-2019 15:25:00 22.4 C 46 % 10.22 C
763 13-06-2019 15:30:00 22.3 C 47 % 10.45 C
764 13-06-2019 15:35:00 22.2 C 46 % 10.04 C
765 13-06-2019 15:40:00 21.9 C 49 % 10.71 C
766 13-06-2019 15:45:00 22.4 C 48 % 10.86 C
767 13-06-2019 15:50:00 22.8 C 46 % 10.58 C
768 13-06-2019 15:55:00 23.1 C 49 % 11.81 C
769 13-06-2019 16:00:00 23.5 C 45 % 10.89 C
770 13-06-2019 16:05:00 23.7 C 43 % 10.39 C
771 13-06-2019 16:10:00 23.4 C 41 % 9.41 C
772 13-06-2019 16:15:00 23.6 C 44 % 10.64 C
773 13-06-2019 16:20:00 23.7 C 42 % 10.03 C
774 13-06-2019 16:25:00 23.9 C 43 % 10.57 C
775 13-06-2019 16:30:00 24.3 C 42 % 10.57 C
Sensor: Nr:Datum:Temp:Feuchte:Taupunkt:
Aussen-T/F 776 13-06-2019 16:35:00 24.2 C 41 % 10.12 C
777 13-06-2019 16:40:00 24.2 C 40 % 9.75 C
778 13-06-2019 16:45:00 23.9 C 43 % 10.57 C
779 13-06-2019 16:50:00 23.9 C 41 % 9.85 C
780 13-06-2019 16:55:00 24 C 42 % 10.3 C
781 13-06-2019 17:00:00 24.2 C 43 % 10.84 C
782 13-06-2019 17:05:00 24.4 C 43 % 11.02 C
783 13-06-2019 17:10:00 24.6 C 42 % 10.84 C
784 13-06-2019 17:15:00 24.5 C 42 % 10.75 C
785 13-06-2019 17:20:00 24.5 C 42 % 10.75 C
786 13-06-2019 17:25:00 24.4 C 39 % 9.56 C
787 13-06-2019 17:30:00 23.9 C 43 % 10.57 C
788 13-06-2019 17:35:00 23.9 C 42 % 10.21 C
789 13-06-2019 17:40:00 24.3 C 41 % 10.21 C
790 13-06-2019 17:45:00 24.6 C 42 % 10.84 C
791 13-06-2019 17:50:00 24.8 C 40 % 10.29 C
792 13-06-2019 17:55:00 24.9 C 40 % 10.38 C
793 13-06-2019 18:00:00 24.9 C 38 % 9.61 C
794 13-06-2019 18:05:00 24.8 C 42 % 11.02 C
795 13-06-2019 18:10:00 24.9 C 41 % 10.75 C
796 13-06-2019 18:15:00 24.8 C 41 % 10.66 C
797 13-06-2019 18:20:00 24.7 C 41 % 10.57 C
798 13-06-2019 18:25:00 24.7 C 40 % 10.2 C
799 13-06-2019 18:30:00 24.8 C 41 % 10.66 C
800 13-06-2019 18:35:00 24.4 C 42 % 10.66 C
Sensor: Nr:Datum:Temp:Feuchte:Taupunkt:
Aussen-T/F 801 13-06-2019 18:40:00 23.9 C 47 % 11.91 C
802 13-06-2019 18:45:00 23.4 C 48 % 11.77 C
803 13-06-2019 18:50:00 23.3 C 45 % 10.71 C
804 13-06-2019 18:55:00 23.3 C 51 % 12.6 C
805 13-06-2019 19:00:00 23.2 C 50 % 12.21 C
806 13-06-2019 19:05:00 22.9 C 53 % 12.82 C
807 13-06-2019 19:10:00 22.7 C 56 % 13.47 C
808 13-06-2019 19:15:00 22.4 C 60 % 14.26 C
809 13-06-2019 19:20:00 22.2 C 60 % 14.07 C
810 13-06-2019 19:25:00 21.8 C 62 % 14.2 C
811 13-06-2019 19:30:00 21.2 C 59 % 12.87 C
812 13-06-2019 19:35:00 19.8 C 63 % 12.56 C
813 13-06-2019 19:40:00 18.4 C 75 % 13.89 C
814 13-06-2019 19:45:00 17.4 C 79 % 13.72 C
815 13-06-2019 19:50:00 16.7 C 82 % 13.61 C
816 13-06-2019 19:55:00 16.2 C 85 % 13.68 C
817 13-06-2019 20:00:00 15.8 C 86 % 13.46 C
818 13-06-2019 20:05:00 15.6 C 87 % 13.45 C
819 13-06-2019 20:10:00 15.4 C 89 % 13.6 C
820 13-06-2019 20:15:00 15.4 C 89 % 13.6 C
821 13-06-2019 20:20:00 15.6 C 91 % 14.14 C
822 13-06-2019 20:25:00 15.9 C 92 % 14.6 C
823 13-06-2019 20:30:00 16.1 C 91 % 14.63 C
824 13-06-2019 20:35:00 16.3 C 91 % 14.83 C
825 13-06-2019 20:40:00 16.4 C 90 % 14.76 C
Sensor: Nr:Datum:Temp:Feuchte:Taupunkt:
Aussen-T/F 826 13-06-2019 20:45:00 16.4 C 90 % 14.76 C
827 13-06-2019 20:50:00 16.4 C 89 % 14.58 C
828 13-06-2019 20:55:00 16.4 C 89 % 14.58 C
829 13-06-2019 21:00:00 16.3 C 89 % 14.48 C
830 13-06-2019 21:05:00 16.2 C 89 % 14.39 C
831 13-06-2019 21:10:00 15.9 C 88 % 13.92 C
832 13-06-2019 21:15:00 15.7 C 89 % 13.89 C
833 13-06-2019 21:20:00 15.5 C 89 % 13.7 C
834 13-06-2019 21:25:00 15.2 C 89 % 13.4 C
835 13-06-2019 21:30:00 15 C 89 % 13.2 C
836 13-06-2019 21:35:00 14.8 C 89 % 13.01 C
837 13-06-2019 21:40:00 14.5 C 89 % 12.71 C
838 13-06-2019 21:45:00 14.3 C 89 % 12.51 C
839 13-06-2019 21:50:00 14.1 C 89 % 12.32 C
840 13-06-2019 21:55:00 13.9 C 90 % 12.29 C
841 13-06-2019 22:00:00 13.7 C 90 % 12.09 C
842 13-06-2019 22:05:00 13.7 C 91 % 12.26 C
843 13-06-2019 22:10:00 13.5 C 91 % 12.06 C
844 13-06-2019 22:15:00 13.4 C 91 % 11.96 C
845 13-06-2019 22:20:00 13.3 C 91 % 11.86 C
846 13-06-2019 22:25:00 13.2 C 92 % 11.93 C
847 13-06-2019 22:30:00 13.2 C 92 % 11.93 C
848 13-06-2019 22:35:00 13.1 C 92 % 11.83 C
849 13-06-2019 22:40:00 13 C 92 % 11.73 C
850 13-06-2019 22:45:00 12.9 C 92 % 11.63 C
Sensor: Nr:Datum:Temp:Feuchte:Taupunkt:
Aussen-T/F 851 13-06-2019 22:50:00 12.8 C 93 % 11.7 C
852 13-06-2019 22:55:00 12.8 C 93 % 11.7 C
853 13-06-2019 23:00:00 12.8 C 93 % 11.7 C
854 13-06-2019 23:05:00 12.8 C 93 % 11.7 C
855 13-06-2019 23:10:00 12.8 C 94 % 11.86 C
856 13-06-2019 23:15:00 12.8 C 94 % 11.86 C
857 13-06-2019 23:20:00 12.9 C 94 % 11.96 C
858 13-06-2019 23:25:00 12.9 C 94 % 11.96 C
859 13-06-2019 23:30:00 12.9 C 94 % 11.96 C
860 13-06-2019 23:35:00 12.9 C 94 % 11.96 C
861 13-06-2019 23:40:00 12.8 C 94 % 11.86 C
862 13-06-2019 23:45:00 12.7 C 94 % 11.76 C
863 13-06-2019 23:50:00 12.6 C 94 % 11.66 C
864 13-06-2019 23:55:00 12.5 C 94 % 11.56 C
865 14-06-2019 00:00:00 12.4 C 94 % 11.46 C
866 14-06-2019 00:05:00 12.4 C 94 % 11.46 C
867 14-06-2019 00:10:00 12.3 C 94 % 11.36 C
868 14-06-2019 00:15:00 12.2 C 94 % 11.26 C
869 14-06-2019 00:20:00 12.2 C 94 % 11.26 C
870 14-06-2019 00:25:00 12.1 C 94 % 11.16 C
871 14-06-2019 00:30:00 12 C 94 % 11.07 C
872 14-06-2019 00:35:00 11.9 C 94 % 10.97 C
873 14-06-2019 00:40:00 11.9 C 94 % 10.97 C
874 14-06-2019 00:45:00 11.8 C 94 % 10.87 C
875 14-06-2019 00:50:00 11.8 C 95 % 11.03 C
Sensor: Nr:Datum:Temp:Feuchte:Taupunkt:
Aussen-T/F 876 14-06-2019 00:55:00 11.8 C 95 % 11.03 C
877 14-06-2019 01:00:00 11.7 C 95 % 10.93 C
878 14-06-2019 01:05:00 11.7 C 95 % 10.93 C
879 14-06-2019 01:10:00 11.7 C 95 % 10.93 C
880 14-06-2019 01:15:00 11.7 C 95 % 10.93 C
881 14-06-2019 01:20:00 11.7 C 95 % 10.93 C
882 14-06-2019 01:25:00 11.7 C 95 % 10.93 C
883 14-06-2019 01:30:00 11.8 C 95 % 11.03 C
884 14-06-2019 01:35:00 11.8 C 95 % 11.03 C
885 14-06-2019 01:40:00 11.7 C 95 % 10.93 C
886 14-06-2019 01:45:00 11.7 C 95 % 10.93 C
887 14-06-2019 01:50:00 11.8 C 96 % 11.18 C
888 14-06-2019 01:55:00 11.8 C 96 % 11.18 C
889 14-06-2019 02:00:00 11.9 C 96 % 11.28 C
890 14-06-2019 02:05:00 11.9 C 96 % 11.28 C
891 14-06-2019 02:10:00 12 C 96 % 11.38 C
892 14-06-2019 02:15:00 12.1 C 96 % 11.48 C
893 14-06-2019 02:20:00 12.2 C 96 % 11.58 C
894 14-06-2019 02:25:00 12.2 C 96 % 11.58 C
895 14-06-2019 02:30:00 12.3 C 96 % 11.68 C
896 14-06-2019 02:35:00 12.3 C 96 % 11.68 C
897 14-06-2019 02:40:00 12.3 C 96 % 11.68 C
898 14-06-2019 02:45:00 12.3 C 96 % 11.68 C
899 14-06-2019 02:50:00 12.3 C 96 % 11.68 C
900 14-06-2019 02:55:00 12.2 C 96 % 11.58 C
Sensor: Nr:Datum:Temp:Feuchte:Taupunkt:
Aussen-T/F 901 14-06-2019 03:00:00 12.1 C 96 % 11.48 C
902 14-06-2019 03:05:00 12.1 C 96 % 11.48 C
903 14-06-2019 03:10:00 12 C 96 % 11.38 C
904 14-06-2019 03:15:00 12.1 C 96 % 11.48 C
905 14-06-2019 03:20:00 12.1 C 96 % 11.48 C
906 14-06-2019 03:25:00 12.1 C 96 % 11.48 C
907 14-06-2019 03:30:00 12.1 C 96 % 11.48 C
908 14-06-2019 03:35:00 12 C 96 % 11.38 C
909 14-06-2019 03:40:00 12 C 96 % 11.38 C
910 14-06-2019 03:45:00 11.9 C 96 % 11.28 C
911 14-06-2019 03:50:00 11.8 C 96 % 11.18 C
912 14-06-2019 03:55:00 11.8 C 96 % 11.18 C
913 14-06-2019 04:00:00 11.7 C 96 % 11.08 C
914 14-06-2019 04:05:00 11.6 C 96 % 10.98 C
915 14-06-2019 04:10:00 11.6 C 96 % 10.98 C
916 14-06-2019 04:15:00 11.5 C 96 % 10.88 C
917 14-06-2019 04:20:00 11.5 C 96 % 10.88 C
918 14-06-2019 04:25:00 11.6 C 96 % 10.98 C
919 14-06-2019 04:30:00 11.6 C 96 % 10.98 C
920 14-06-2019 04:35:00 11.6 C 96 % 10.98 C
921 14-06-2019 04:40:00 11.6 C 96 % 10.98 C
922 14-06-2019 04:45:00 11.6 C 96 % 10.98 C
923 14-06-2019 04:50:00 11.6 C 96 % 10.98 C
924 14-06-2019 04:55:00 11.6 C 96 % 10.98 C
925 14-06-2019 05:00:00 11.6 C 96 % 10.98 C
Sensor: Nr:Datum:Temp:Feuchte:Taupunkt:
Aussen-T/F 926 14-06-2019 05:05:00 11.6 C 96 % 10.98 C
927 14-06-2019 05:10:00 11.5 C 96 % 10.88 C
928 14-06-2019 05:15:00 11.4 C 96 % 10.79 C
929 14-06-2019 05:20:00 11.4 C 96 % 10.79 C
930 14-06-2019 05:25:00 11.4 C 96 % 10.79 C
931 14-06-2019 05:30:00 11.3 C 96 % 10.69 C
932 14-06-2019 05:35:00 11.4 C 97 % 10.94 C
933 14-06-2019 05:40:00 11.4 C 97 % 10.94 C
934 14-06-2019 05:45:00 11.4 C 97 % 10.94 C
935 14-06-2019 05:50:00 11.3 C 97 % 10.84 C
936 14-06-2019 05:55:00 11.3 C 97 % 10.84 C
937 14-06-2019 06:00:00 11.3 C 96 % 10.69 C
938 14-06-2019 06:05:00 11.4 C 96 % 10.79 C
939 14-06-2019 06:10:00 11.3 C 97 % 10.84 C
940 14-06-2019 06:15:00 11.3 C 96 % 10.69 C
941 14-06-2019 06:20:00 11.3 C 97 % 10.84 C
942 14-06-2019 06:25:00 11.3 C 97 % 10.84 C
943 14-06-2019 06:30:00 11.3 C 97 % 10.84 C
944 14-06-2019 06:35:00 11.4 C 97 % 10.94 C
945 14-06-2019 06:40:00 11.4 C 97 % 10.94 C
946 14-06-2019 06:45:00 11.4 C 97 % 10.94 C
947 14-06-2019 06:50:00 11.3 C 97 % 10.84 C
948 14-06-2019 06:55:00 11.3 C 97 % 10.84 C
949 14-06-2019 07:00:00 11.3 C 97 % 10.84 C
950 14-06-2019 07:05:00 11.3 C 97 % 10.84 C
Sensor: Nr:Datum:Temp:Feuchte:Taupunkt:
Aussen-T/F 951 14-06-2019 07:10:00 11.3 C 97 % 10.84 C
952 14-06-2019 07:15:00 11.3 C 97 % 10.84 C
953 14-06-2019 07:20:00 11.4 C 97 % 10.94 C
954 14-06-2019 07:25:00 11.4 C 97 % 10.94 C
955 14-06-2019 07:30:00 11.4 C 97 % 10.94 C
956 14-06-2019 07:35:00 11.4 C 97 % 10.94 C
957 14-06-2019 07:40:00 11.5 C 97 % 11.04 C
958 14-06-2019 07:45:00 11.6 C 97 % 11.14 C
959 14-06-2019 07:50:00 11.6 C 97 % 11.14 C
960 14-06-2019 07:55:00 11.7 C 97 % 11.24 C
961 14-06-2019 08:00:00 11.7 C 97 % 11.24 C
962 14-06-2019 08:05:00 11.7 C 97 % 11.24 C
963 14-06-2019 08:10:00 11.8 C 97 % 11.34 C
964 14-06-2019 08:15:00 11.8 C 97 % 11.34 C
965 14-06-2019 08:20:00 11.9 C 97 % 11.44 C
966 14-06-2019 08:25:00 12 C 97 % 11.54 C
967 14-06-2019 08:30:00 12.1 C 97 % 11.64 C
968 14-06-2019 08:35:00 12.3 C 97 % 11.84 C
969 14-06-2019 08:40:00 12.4 C 97 % 11.94 C
970 14-06-2019 08:45:00 12.6 C 97 % 12.14 C
971 14-06-2019 08:50:00 12.7 C 97 % 12.24 C
972 14-06-2019 08:55:00 12.8 C 97 % 12.34 C
973 14-06-2019 09:00:00 13.1 C 97 % 12.63 C
974 14-06-2019 09:05:00 13.2 C 98 % 12.89 C
975 14-06-2019 09:10:00 13.4 C 98 % 13.09 C
Sensor: Nr:Datum:Temp:Feuchte:Taupunkt:
Aussen-T/F 976 14-06-2019 09:15:00 13.6 C 97 % 13.13 C
977 14-06-2019 09:20:00 13.8 C 98 % 13.49 C
978 14-06-2019 09:25:00 14.1 C 98 % 13.79 C
979 14-06-2019 09:30:00 14.4 C 98 % 14.09 C
980 14-06-2019 09:35:00 14.7 C 98 % 14.39 C
981 14-06-2019 09:40:00 15 C 98 % 14.69 C
982 14-06-2019 09:45:00 15.2 C 98 % 14.89 C
983 14-06-2019 09:50:00 15.4 C 98 % 15.09 C
984 14-06-2019 09:55:00 15.6 C 98 % 15.29 C
985 14-06-2019 10:00:00 15.8 C 98 % 15.48 C
986 14-06-2019 10:05:00 16.2 C 98 % 15.88 C
987 14-06-2019 10:10:00 16.4 C 98 % 16.08 C
988 14-06-2019 10:15:00 16.7 C 98 % 16.38 C
989 14-06-2019 10:20:00 16.9 C 98 % 16.58 C
990 14-06-2019 10:25:00 17.2 C 98 % 16.88 C
991 14-06-2019 10:30:00 17.4 C 98 % 17.08 C
992 14-06-2019 10:35:00 17.6 C 98 % 17.28 C
993 14-06-2019 10:40:00 17.7 C 98 % 17.38 C
994 14-06-2019 10:45:00 17.9 C 98 % 17.58 C
995 14-06-2019 10:50:00 18 C 98 % 17.68 C
996 14-06-2019 10:55:00 18.2 C 98 % 17.88 C
997 14-06-2019 11:00:00 18.1 C 97 % 17.62 C
998 14-06-2019 11:05:00 18.1 C 97 % 17.62 C
999 14-06-2019 11:10:00 18.2 C 97 % 17.72 C
1000 14-06-2019 11:15:00 18.3 C 97 % 17.82 C
Sensor: Nr:Datum:Temp:Feuchte:Taupunkt:
Aussen-T/F 1001 14-06-2019 11:20:00 18.3 C 97 % 17.82 C
1002 14-06-2019 11:25:00 18.3 C 96 % 17.65 C
1003 14-06-2019 11:30:00 18.5 C 97 % 18.01 C
1004 14-06-2019 11:35:00 18.7 C 96 % 18.05 C
1005 14-06-2019 11:40:00 18.8 C 96 % 18.15 C
1006 14-06-2019 11:45:00 18.9 C 94 % 17.91 C
1007 14-06-2019 11:50:00 19.4 C 94 % 18.41 C
1008 14-06-2019 11:55:00 19.8 C 94 % 18.81 C
1009 14-06-2019 12:00:00 20 C 92 % 18.66 C
1010 14-06-2019 12:05:00 20.1 C 78 % 16.14 C
1011 14-06-2019 12:10:00 20.7 C 82 % 17.52 C
1012 14-06-2019 12:15:00 21.1 C 73 % 16.07 C
1013 14-06-2019 12:20:00 21.5 C 72 % 16.24 C
1014 14-06-2019 12:25:00 21.7 C 64 % 14.6 C
1015 14-06-2019 12:30:00 22.1 C 74 % 17.25 C
1016 14-06-2019 12:35:00 22.3 C 72 % 17.01 C
1017 14-06-2019 12:40:00 22.3 C 59 % 13.9 C
1018 14-06-2019 12:45:00 22.6 C 66 % 15.93 C
1019 14-06-2019 12:50:00 22.7 C 61 % 14.79 C
1020 14-06-2019 12:55:00 22.8 C 63 % 15.39 C
1021 14-06-2019 13:00:00 23.1 C 69 % 17.1 C
1022 14-06-2019 13:05:00 23.3 C 63 % 15.86 C
1023 14-06-2019 13:10:00 23.8 C 65 % 16.83 C
1024 14-06-2019 13:15:00 24 C 60 % 15.76 C
1025 14-06-2019 13:20:00 24.1 C 66 % 17.35 C
Sensor: Nr:Datum:Temp:Feuchte:Taupunkt:
Aussen-T/F 1026 14-06-2019 13:25:00 24.1 C 52 % 13.63 C
1027 14-06-2019 13:30:00 24.4 C 56 % 15.06 C
1028 14-06-2019 13:35:00 24.7 C 56 % 15.33 C
1029 14-06-2019 13:40:00 24.8 C 48 % 13.05 C
1030 14-06-2019 13:45:00 24.9 C 54 % 14.95 C
1031 14-06-2019 13:50:00 24.9 C 54 % 14.95 C
1032 14-06-2019 13:55:00 25.1 C 48 % 13.32 C
1033 14-06-2019 14:00:00 25.3 C 49 % 13.82 C
1034 14-06-2019 14:05:00 25.6 C 50 % 14.41 C
1035 14-06-2019 14:10:00 25.7 C 50 % 14.5 C
1036 14-06-2019 14:15:00 25.9 C 50 % 14.68 C
1037 14-06-2019 14:20:00 26.1 C 47 % 13.91 C
1038 14-06-2019 14:25:00 26.2 C 48 % 14.32 C
1039 14-06-2019 14:30:00 26.2 C 47 % 14 C
1040 14-06-2019 14:35:00 26.2 C 54 % 16.16 C
1041 14-06-2019 14:40:00 26.2 C 52 % 15.57 C
1042 14-06-2019 14:45:00 26.2 C 50 % 14.96 C
1043 14-06-2019 14:50:00 26.2 C 52 % 15.57 C
1044 14-06-2019 14:55:00 26.2 C 54 % 16.16 C
1045 14-06-2019 15:00:00 26.3 C 57 % 17.1 C
1046 14-06-2019 15:05:00 26.2 C 50 % 14.96 C
1047 14-06-2019 15:10:00 26.2 C 57 % 17.01 C
1048 14-06-2019 15:15:00 26.3 C 49 % 14.74 C
1049 14-06-2019 15:20:00 26.4 C 53 % 16.05 C
1050 14-06-2019 15:25:00 26.5 C 49 % 14.92 C
Sensor: Nr:Datum:Temp:Feuchte:Taupunkt:
Aussen-T/F 1051 14-06-2019 15:30:00 26.4 C 49 % 14.83 C
1052 14-06-2019 15:35:00 26.4 C 45 % 13.51 C
1053 14-06-2019 15:40:00 26.4 C 43 % 12.82 C
1054 14-06-2019 15:45:00 26.4 C 55 % 16.63 C
1055 14-06-2019 15:50:00 26.3 C 46 % 13.76 C
1056 14-06-2019 15:55:00 26.4 C 55 % 16.63 C
1057 14-06-2019 16:00:00 26.3 C 53 % 15.96 C
1058 14-06-2019 16:05:00 26.3 C 56 % 16.82 C
1059 14-06-2019 16:10:00 26.2 C 53 % 15.87 C
1060 14-06-2019 16:15:00 26.1 C 60 % 17.73 C
1061 14-06-2019 16:20:00 26.1 C 64 % 18.76 C
1062 14-06-2019 16:25:00 26 C 59 % 17.37 C
1063 14-06-2019 16:30:00 25.9 C 64 % 18.57 C
1064 14-06-2019 16:35:00 25.8 C 56 % 16.36 C
1065 14-06-2019 16:40:00 25.8 C 54 % 15.79 C
1066 14-06-2019 16:45:00 25.8 C 63 % 18.22 C
1067 14-06-2019 16:50:00 25.6 C 52 % 15.02 C
1068 14-06-2019 16:55:00 25.5 C 56 % 16.08 C
1069 14-06-2019 17:00:00 25.4 C 66 % 18.58 C
1070 14-06-2019 17:05:00 25.4 C 68 % 19.06 C
1071 14-06-2019 17:10:00 25.3 C 65 % 18.25 C
1072 14-06-2019 17:15:00 25.3 C 65 % 18.25 C
1073 14-06-2019 17:20:00 25.4 C 63 % 17.84 C
1074 14-06-2019 17:25:00 25.3 C 60 % 16.98 C
1075 14-06-2019 17:30:00 25.4 C 69 % 19.3 C
Sensor: Nr:Datum:Temp:Feuchte:Taupunkt:
Aussen-T/F 1076 14-06-2019 17:35:00 25.3 C 69 % 19.2 C
1077 14-06-2019 17:40:00 25.1 C 57 % 15.98 C
1078 14-06-2019 17:45:00 25.1 C 67 % 18.54 C
1079 14-06-2019 17:50:00 25 C 71 % 19.37 C
1080 14-06-2019 17:55:00 24.8 C 69 % 18.72 C
1081 14-06-2019 18:00:00 24.6 C 63 % 17.09 C
1082 14-06-2019 18:05:00 24.4 C 70 % 18.57 C
1083 14-06-2019 18:10:00 24.4 C 64 % 17.15 C
1084 14-06-2019 18:15:00 24.6 C 68 % 18.3 C
1085 14-06-2019 18:20:00 24.8 C 66 % 18.01 C
1086 14-06-2019 18:25:00 24.8 C 69 % 18.72 C
1087 14-06-2019 18:30:00 24.7 C 68 % 18.4 C
1088 14-06-2019 18:35:00 24.7 C 73 % 19.53 C
1089 14-06-2019 18:40:00 24.6 C 73 % 19.44 C
1090 14-06-2019 18:45:00 24.3 C 68 % 18.01 C
1091 14-06-2019 18:50:00 24.1 C 69 % 18.06 C
1092 14-06-2019 18:55:00 23.9 C 74 % 18.98 C
1093 14-06-2019 19:00:00 23.7 C 74 % 18.79 C
1094 14-06-2019 19:05:00 23.4 C 72 % 18.06 C
1095 14-06-2019 19:10:00 23.2 C 74 % 18.31 C
1096 14-06-2019 19:15:00 22.8 C 72 % 17.49 C
1097 14-06-2019 19:20:00 22.7 C 72 % 17.39 C
1098 14-06-2019 19:25:00 22.6 C 75 % 17.94 C
1099 14-06-2019 19:30:00 22.6 C 75 % 17.94 C
1100 14-06-2019 19:35:00 22.4 C 75 % 17.75 C
Sensor: Nr:Datum:Temp:Feuchte:Taupunkt:
Aussen-T/F 1101 14-06-2019 19:40:00 22.2 C 75 % 17.56 C
1102 14-06-2019 19:45:00 21.9 C 75 % 17.27 C
1103 14-06-2019 19:50:00 21.7 C 76 % 17.28 C
1104 14-06-2019 19:55:00 21.4 C 76 % 16.99 C
1105 14-06-2019 20:00:00 21.2 C 77 % 17.01 C
1106 14-06-2019 20:05:00 21 C 76 % 16.61 C
1107 14-06-2019 20:10:00 20.8 C 77 % 16.62 C
1108 14-06-2019 20:15:00 20.6 C 77 % 16.43 C
1109 14-06-2019 20:20:00 20.4 C 78 % 16.44 C
1110 14-06-2019 20:25:00 20.3 C 78 % 16.34 C
1111 14-06-2019 20:30:00 20.2 C 79 % 16.44 C
1112 14-06-2019 20:35:00 20.1 C 79 % 16.34 C
1113 14-06-2019 20:40:00 19.9 C 79 % 16.15 C
1114 14-06-2019 20:45:00 19.8 C 79 % 16.05 C
1115 14-06-2019 20:50:00 19.6 C 80 % 16.06 C
1116 14-06-2019 20:55:00 19.6 C 81 % 16.25 C
1117 14-06-2019 21:00:00 19.4 C 81 % 16.06 C
1118 14-06-2019 21:05:00 19.3 C 81 % 15.96 C
1119 14-06-2019 21:10:00 19.3 C 82 % 16.15 C
1120 14-06-2019 21:15:00 19.3 C 83 % 16.34 C
1121 14-06-2019 21:20:00 19.3 C 83 % 16.34 C
1122 14-06-2019 21:25:00 19.2 C 83 % 16.24 C
1123 14-06-2019 21:30:00 19.1 C 84 % 16.33 C
1124 14-06-2019 21:35:00 19 C 85 % 16.42 C
1125 14-06-2019 21:40:00 18.9 C 85 % 16.32 C
Sensor: Nr:Datum:Temp:Feuchte:Taupunkt:
Aussen-T/F 1126 14-06-2019 21:45:00 18.8 C 85 % 16.23 C
1127 14-06-2019 21:50:00 18.7 C 85 % 16.13 C
1128 14-06-2019 21:55:00 18.7 C 85 % 16.13 C
1129 14-06-2019 22:00:00 18.6 C 84 % 15.84 C
1130 14-06-2019 22:05:00 18.5 C 84 % 15.75 C
1131 14-06-2019 22:10:00 18.6 C 84 % 15.84 C
1132 14-06-2019 22:15:00 18.7 C 84 % 15.94 C
1133 14-06-2019 22:20:00 18.7 C 83 % 15.75 C
1134 14-06-2019 22:25:00 18.8 C 83 % 15.85 C
1135 14-06-2019 22:30:00 18.9 C 83 % 15.95 C
1136 14-06-2019 22:35:00 18.9 C 84 % 16.14 C
1137 14-06-2019 22:40:00 19 C 84 % 16.24 C
1138 14-06-2019 22:45:00 19 C 84 % 16.24 C
1139 14-06-2019 22:50:00 18.9 C 84 % 16.14 C
1140 14-06-2019 22:55:00 18.9 C 84 % 16.14 C
1141 14-06-2019 23:00:00 18.9 C 84 % 16.14 C
1142 14-06-2019 23:05:00 18.8 C 85 % 16.23 C
1143 14-06-2019 23:10:00 18.8 C 85 % 16.23 C
1144 14-06-2019 23:15:00 18.7 C 86 % 16.31 C
1145 14-06-2019 23:20:00 18.7 C 86 % 16.31 C
1146 14-06-2019 23:25:00 18.7 C 86 % 16.31 C
1147 14-06-2019 23:30:00 18.6 C 87 % 16.39 C
1148 14-06-2019 23:35:00 18.5 C 87 % 16.3 C
1149 14-06-2019 23:40:00 18.4 C 87 % 16.2 C
1150 14-06-2019 23:45:00 18.4 C 88 % 16.38 C
Sensor: Nr:Datum:Temp:Feuchte:Taupunkt:
Aussen-T/F 1151 14-06-2019 23:50:00 18.4 C 88 % 16.38 C
1152 14-06-2019 23:55:00 18.3 C 89 % 16.46 C
1153 15-06-2019 00:00:00 18.2 C 90 % 16.53 C
1154 15-06-2019 00:05:00 18.1 C 90 % 16.43 C
1155 15-06-2019 00:10:00 18 C 91 % 16.51 C
1156 15-06-2019 00:15:00 17.9 C 91 % 16.41 C
1157 15-06-2019 00:20:00 17.8 C 91 % 16.31 C
1158 15-06-2019 00:25:00 17.6 C 92 % 16.28 C
1159 15-06-2019 00:30:00 17.5 C 92 % 16.19 C
1160 15-06-2019 00:35:00 17.4 C 92 % 16.09 C
1161 15-06-2019 00:40:00 17.3 C 92 % 15.99 C
1162 15-06-2019 00:45:00 17.2 C 92 % 15.89 C
1163 15-06-2019 00:50:00 17.1 C 93 % 15.96 C
1164 15-06-2019 00:55:00 17 C 93 % 15.86 C
1165 15-06-2019 01:00:00 16.9 C 93 % 15.76 C
1166 15-06-2019 01:05:00 16.8 C 93 % 15.66 C
1167 15-06-2019 01:10:00 16.8 C 93 % 15.66 C
1168 15-06-2019 01:15:00 16.7 C 93 % 15.56 C
1169 15-06-2019 01:20:00 16.6 C 93 % 15.46 C
1170 15-06-2019 01:25:00 16.5 C 93 % 15.36 C
1171 15-06-2019 01:30:00 16.4 C 93 % 15.27 C
1172 15-06-2019 01:35:00 16.4 C 93 % 15.27 C
1173 15-06-2019 01:40:00 16.3 C 93 % 15.17 C
1174 15-06-2019 01:45:00 16.2 C 94 % 15.23 C
1175 15-06-2019 01:50:00 16.2 C 93 % 15.07 C
Sensor: Nr:Datum:Temp:Feuchte:Taupunkt:
Aussen-T/F 1176 15-06-2019 01:55:00 16.1 C 94 % 15.13 C
1177 15-06-2019 02:00:00 16 C 94 % 15.03 C
1178 15-06-2019 02:05:00 15.9 C 94 % 14.94 C
1179 15-06-2019 02:10:00 15.9 C 94 % 14.94 C
1180 15-06-2019 02:15:00 15.8 C 94 % 14.84 C
1181 15-06-2019 02:20:00 15.8 C 94 % 14.84 C
1182 15-06-2019 02:25:00 15.7 C 94 % 14.74 C
1183 15-06-2019 02:30:00 15.7 C 94 % 14.74 C
1184 15-06-2019 02:35:00 15.6 C 94 % 14.64 C
1185 15-06-2019 02:40:00 15.5 C 94 % 14.54 C
1186 15-06-2019 02:45:00 15.4 C 94 % 14.44 C
1187 15-06-2019 02:50:00 15.5 C 95 % 14.7 C
1188 15-06-2019 02:55:00 15.4 C 95 % 14.6 C
1189 15-06-2019 03:00:00 15.4 C 95 % 14.6 C
1190 15-06-2019 03:05:00 15.3 C 95 % 14.5 C
1191 15-06-2019 03:10:00 15.2 C 94 % 14.24 C
1192 15-06-2019 03:15:00 15.1 C 94 % 14.14 C
1193 15-06-2019 03:20:00 15.1 C 95 % 14.31 C
1194 15-06-2019 03:25:00 15.1 C 95 % 14.31 C
1195 15-06-2019 03:30:00 15 C 95 % 14.21 C
1196 15-06-2019 03:35:00 15.1 C 95 % 14.31 C
1197 15-06-2019 03:40:00 15.1 C 96 % 14.47 C
1198 15-06-2019 03:45:00 15.2 C 96 % 14.57 C
1199 15-06-2019 03:50:00 15.2 C 96 % 14.57 C
1200 15-06-2019 03:55:00 15.2 C 95 % 14.4 C
Sensor: Nr:Datum:Temp:Feuchte:Taupunkt:
Aussen-T/F 1201 15-06-2019 04:00:00 15.2 C 95 % 14.4 C
1202 15-06-2019 04:05:00 15.2 C 95 % 14.4 C
1203 15-06-2019 04:10:00 15.2 C 96 % 14.57 C
1204 15-06-2019 04:15:00 15.1 C 96 % 14.47 C
1205 15-06-2019 04:20:00 15.1 C 95 % 14.31 C
1206 15-06-2019 04:25:00 15 C 95 % 14.21 C
1207 15-06-2019 04:30:00 15.2 C 96 % 14.57 C
1208 15-06-2019 04:35:00 15.2 C 96 % 14.57 C
1209 15-06-2019 04:40:00 15.2 C 96 % 14.57 C
1210 15-06-2019 04:45:00 15.1 C 96 % 14.47 C
1211 15-06-2019 04:50:00 15.1 C 96 % 14.47 C
1212 15-06-2019 04:55:00 15.1 C 96 % 14.47 C
1213 15-06-2019 05:00:00 15.1 C 96 % 14.47 C
1214 15-06-2019 05:05:00 15 C 96 % 14.37 C
1215 15-06-2019 05:10:00 14.9 C 96 % 14.27 C
1216 15-06-2019 05:15:00 14.8 C 96 % 14.17 C
1217 15-06-2019 05:20:00 14.7 C 96 % 14.07 C
1218 15-06-2019 05:25:00 14.6 C 95 % 13.81 C
1219 15-06-2019 05:30:00 14.8 C 96 % 14.17 C
1220 15-06-2019 05:35:00 15.1 C 96 % 14.47 C
1221 15-06-2019 05:40:00 15.2 C 97 % 14.73 C
1222 15-06-2019 05:45:00 15.3 C 97 % 14.83 C
1223 15-06-2019 05:50:00 15.3 C 96 % 14.67 C
1224 15-06-2019 05:55:00 15.4 C 96 % 14.77 C
1225 15-06-2019 06:00:00 15.4 C 96 % 14.77 C
Sensor: Nr:Datum:Temp:Feuchte:Taupunkt:
Aussen-T/F 1226 15-06-2019 06:05:00 15.4 C 96 % 14.77 C
1227 15-06-2019 06:10:00 15.4 C 96 % 14.77 C
1228 15-06-2019 06:15:00 15.4 C 96 % 14.77 C
1229 15-06-2019 06:20:00 15.4 C 96 % 14.77 C
1230 15-06-2019 06:25:00 15.4 C 96 % 14.77 C
1231 15-06-2019 06:30:00 15.5 C 96 % 14.86 C
1232 15-06-2019 06:35:00 15.6 C 97 % 15.13 C
1233 15-06-2019 06:40:00 15.7 C 97 % 15.23 C
1234 15-06-2019 06:45:00 15.7 C 97 % 15.23 C
1235 15-06-2019 06:50:00 15.8 C 97 % 15.32 C
1236 15-06-2019 06:55:00 15.8 C 97 % 15.32 C
1237 15-06-2019 07:00:00 15.8 C 97 % 15.32 C
1238 15-06-2019 07:05:00 15.9 C 97 % 15.42 C
1239 15-06-2019 07:10:00 15.9 C 97 % 15.42 C
1240 15-06-2019 07:15:00 16 C 97 % 15.52 C
1241 15-06-2019 07:20:00 16 C 97 % 15.52 C
1242 15-06-2019 07:25:00 16.1 C 97 % 15.62 C
1243 15-06-2019 07:30:00 16.2 C 97 % 15.72 C
1244 15-06-2019 07:35:00 16.2 C 97 % 15.72 C
1245 15-06-2019 07:40:00 16.3 C 97 % 15.82 C
1246 15-06-2019 07:45:00 16.4 C 97 % 15.92 C
1247 15-06-2019 07:50:00 16.6 C 97 % 16.12 C
1248 15-06-2019 07:55:00 16.7 C 97 % 16.22 C
1249 15-06-2019 08:00:00 16.7 C 97 % 16.22 C
1250 15-06-2019 08:05:00 16.8 C 97 % 16.32 C
Sensor: Nr:Datum:Temp:Feuchte:Taupunkt:
Aussen-T/F 1251 15-06-2019 08:10:00 16.7 C 97 % 16.22 C
1252 15-06-2019 08:15:00 16.7 C 97 % 16.22 C
1253 15-06-2019 08:20:00 16.8 C 97 % 16.32 C
1254 15-06-2019 08:25:00 17 C 97 % 16.52 C
1255 15-06-2019 08:30:00 17.1 C 97 % 16.62 C
1256 15-06-2019 08:35:00 17.1 C 97 % 16.62 C
1257 15-06-2019 08:40:00 17 C 96 % 16.36 C
1258 15-06-2019 08:45:00 17 C 96 % 16.36 C
1259 15-06-2019 08:50:00 17.1 C 95 % 16.29 C
1260 15-06-2019 08:55:00 17.3 C 94 % 16.33 C
1261 15-06-2019 09:00:00 17.6 C 94 % 16.62 C
1262 15-06-2019 09:05:00 17.8 C 93 % 16.65 C
1263 15-06-2019 09:10:00 17.9 C 92 % 16.58 C
1264 15-06-2019 09:15:00 18.1 C 92 % 16.78 C
1265 15-06-2019 09:20:00 18.2 C 91 % 16.71 C
1266 15-06-2019 09:25:00 18.4 C 90 % 16.73 C
1267 15-06-2019 09:30:00 18.5 C 89 % 16.65 C
1268 15-06-2019 09:35:00 18.6 C 90 % 16.93 C
1269 15-06-2019 09:40:00 18.8 C 88 % 16.77 C
1270 15-06-2019 09:45:00 19.1 C 87 % 16.89 C
1271 15-06-2019 09:50:00 19.2 C 87 % 16.98 C
1272 15-06-2019 09:55:00 19.3 C 86 % 16.9 C
1273 15-06-2019 10:00:00 19.4 C 85 % 16.81 C
1274 15-06-2019 10:05:00 19.4 C 85 % 16.81 C
1275 15-06-2019 10:10:00 19.6 C 83 % 16.63 C
Sensor: Nr:Datum:Temp:Feuchte:Taupunkt:
Aussen-T/F 1276 15-06-2019 10:15:00 19.7 C 84 % 16.92 C
1277 15-06-2019 10:20:00 19.8 C 82 % 16.64 C
1278 15-06-2019 10:25:00 19.8 C 82 % 16.64 C
1279 15-06-2019 10:30:00 19.9 C 81 % 16.54 C
1280 15-06-2019 10:35:00 20.1 C 82 % 16.93 C
1281 15-06-2019 10:40:00 20.3 C 81 % 16.93 C
1282 15-06-2019 10:45:00 20.5 C 79 % 16.73 C
1283 15-06-2019 10:50:00 20.4 C 78 % 16.44 C
1284 15-06-2019 10:55:00 20.3 C 80 % 16.74 C
1285 15-06-2019 11:00:00 20.3 C 79 % 16.54 C
1286 15-06-2019 11:05:00 20.3 C 75 % 15.72 C
1287 15-06-2019 11:10:00 20.4 C 75 % 15.82 C
1288 15-06-2019 11:15:00 20.4 C 73 % 15.4 C
1289 15-06-2019 11:20:00 20.6 C 73 % 15.59 C
1290 15-06-2019 11:25:00 20.7 C 73 % 15.69 C
1291 15-06-2019 11:30:00 20.8 C 71 % 15.35 C
1292 15-06-2019 11:35:00 21 C 71 % 15.54 C
1293 15-06-2019 11:40:00 21.1 C 71 % 15.64 C
1294 15-06-2019 11:45:00 21.2 C 69 % 15.29 C
1295 15-06-2019 11:50:00 21.4 C 69 % 15.48 C
1296 15-06-2019 11:55:00 21.4 C 70 % 15.7 C
1297 15-06-2019 12:00:00 21.5 C 69 % 15.57 C
1298 15-06-2019 12:05:00 21.6 C 69 % 15.67 C
1299 15-06-2019 12:10:00 21.7 C 68 % 15.54 C
1300 15-06-2019 12:15:00 21.7 C 67 % 15.31 C
Sensor: Nr:Datum:Temp:Feuchte:Taupunkt:
Aussen-T/F 1301 15-06-2019 12:20:00 21.7 C 68 % 15.54 C
1302 15-06-2019 12:25:00 21.5 C 67 % 15.12 C
1303 15-06-2019 12:30:00 21.5 C 70 % 15.8 C
1304 15-06-2019 12:35:00 21.7 C 69 % 15.77 C
1305 15-06-2019 12:40:00 21.7 C 70 % 15.99 C
1306 15-06-2019 12:45:00 21.7 C 74 % 16.86 C
1307 15-06-2019 12:50:00 21.6 C 72 % 16.34 C
1308 15-06-2019 12:55:00 21.4 C 72 % 16.14 C
1309 15-06-2019 13:00:00 21.3 C 72 % 16.05 C
1310 15-06-2019 13:05:00 21 C 72 % 15.76 C
1311 15-06-2019 13:10:00 20.9 C 74 % 16.09 C
1312 15-06-2019 13:15:00 20.8 C 75 % 16.21 C
1313 15-06-2019 13:20:00 20.7 C 76 % 16.32 C
1314 15-06-2019 13:25:00 20.8 C 75 % 16.21 C
1315 15-06-2019 13:30:00 21.1 C 76 % 16.7 C
1316 15-06-2019 13:35:00 21.3 C 73 % 16.26 C
1317 15-06-2019 13:40:00 21.7 C 73 % 16.65 C
1318 15-06-2019 13:45:00 21.9 C 72 % 16.62 C
1319 15-06-2019 13:50:00 22 C 74 % 17.15 C
1320 15-06-2019 13:55:00 21.9 C 75 % 17.27 C
1321 15-06-2019 14:00:00 21.8 C 77 % 17.59 C
1322 15-06-2019 14:05:00 21.8 C 78 % 17.79 C
1323 15-06-2019 14:10:00 21.7 C 79 % 17.9 C
1324 15-06-2019 14:15:00 21.8 C 71 % 16.31 C
1325 15-06-2019 14:20:00 21.9 C 70 % 16.18 C
Sensor: Nr:Datum:Temp:Feuchte:Taupunkt:
Aussen-T/F 1326 15-06-2019 14:25:00 21.9 C 72 % 16.62 C
1327 15-06-2019 14:30:00 21.9 C 74 % 17.06 C
1328 15-06-2019 14:35:00 21.8 C 73 % 16.75 C
1329 15-06-2019 14:40:00 21.7 C 71 % 16.21 C
1330 15-06-2019 14:45:00 21.4 C 71 % 15.93 C
1331 15-06-2019 14:50:00 21.1 C 72 % 15.86 C
1332 15-06-2019 14:55:00 21.1 C 74 % 16.29 C
1333 15-06-2019 15:00:00 21.1 C 73 % 16.07 C
1334 15-06-2019 15:05:00 21.1 C 73 % 16.07 C
1335 15-06-2019 15:10:00 21.3 C 73 % 16.26 C
1336 15-06-2019 15:15:00 21.7 C 72 % 16.43 C
1337 15-06-2019 15:20:00 22.1 C 71 % 16.6 C
1338 15-06-2019 15:25:00 22.2 C 69 % 16.24 C
1339 15-06-2019 15:30:00 22.2 C 70 % 16.47 C
1340 15-06-2019 15:35:00 22.5 C 68 % 16.3 C
1341 15-06-2019 15:40:00 22.8 C 68 % 16.59 C
1342 15-06-2019 15:45:00 22.9 C 66 % 16.21 C
1343 15-06-2019 15:50:00 22.8 C 66 % 16.12 C
1344 15-06-2019 15:55:00 22.7 C 67 % 16.26 C
1345 15-06-2019 16:00:00 22.7 C 66 % 16.02 C
1346 15-06-2019 16:05:00 22.8 C 69 % 16.82 C
1347 15-06-2019 16:10:00 23.2 C 67 % 16.73 C
1348 15-06-2019 16:15:00 23.6 C 64 % 16.39 C
1349 15-06-2019 16:20:00 23.7 C 62 % 15.99 C
1350 15-06-2019 16:25:00 23.6 C 68 % 17.35 C
Sensor: Nr:Datum:Temp:Feuchte:Taupunkt:
Aussen-T/F 1351 15-06-2019 16:30:00 23.7 C 69 % 17.67 C
1352 15-06-2019 16:35:00 23.9 C 65 % 16.92 C
1353 15-06-2019 16:40:00 24.3 C 62 % 16.55 C
1354 15-06-2019 16:45:00 24.6 C 58 % 15.79 C
1355 15-06-2019 16:50:00 24.5 C 58 % 15.7 C
1356 15-06-2019 16:55:00 24.7 C 56 % 15.33 C
1357 15-06-2019 17:00:00 25 C 55 % 15.33 C
1358 15-06-2019 17:05:00 25.4 C 57 % 16.26 C
1359 15-06-2019 17:10:00 25.5 C 56 % 16.08 C
1360 15-06-2019 17:15:00 25.5 C 54 % 15.51 C
1361 15-06-2019 17:20:00 25.3 C 56 % 15.89 C
1362 15-06-2019 17:25:00 25.5 C 55 % 15.8 C
1363 15-06-2019 17:30:00 25.4 C 55 % 15.7 C
1364 15-06-2019 17:35:00 25.3 C 53 % 15.03 C
1365 15-06-2019 17:40:00 25.2 C 54 % 15.23 C
1366 15-06-2019 17:45:00 25.2 C 54 % 15.23 C
1367 15-06-2019 17:50:00 25.3 C 54 % 15.33 C
1368 15-06-2019 17:55:00 25.7 C 54 % 15.7 C
1369 15-06-2019 18:00:00 25.8 C 54 % 15.79 C
1370 15-06-2019 18:05:00 26 C 56 % 16.54 C
1371 15-06-2019 18:10:00 26.3 C 52 % 15.66 C
1372 15-06-2019 18:15:00 26.4 C 52 % 15.75 C
1373 15-06-2019 18:20:00 26.3 C 45 % 13.42 C
1374 15-06-2019 18:25:00 26.5 C 54 % 16.44 C
1375 15-06-2019 18:30:00 26.7 C 43 % 13.09 C
Sensor: Nr:Datum:Temp:Feuchte:Taupunkt:
Aussen-T/F 1376 15-06-2019 18:35:00 26.8 C 44 % 13.53 C
1377 15-06-2019 18:40:00 26.4 C 45 % 13.51 C
1378 15-06-2019 18:45:00 25.9 C 49 % 14.37 C
1379 15-06-2019 18:50:00 25.7 C 45 % 12.88 C
1380 15-06-2019 18:55:00 26.1 C 47 % 13.91 C
1381 15-06-2019 19:00:00 26.5 C 44 % 13.26 C
1382 15-06-2019 19:05:00 26.4 C 44 % 13.17 C
1383 15-06-2019 19:10:00 26.1 C 46 % 13.58 C
1384 15-06-2019 19:15:00 25.8 C 47 % 13.64 C
1385 15-06-2019 19:20:00 25.8 C 56 % 16.36 C
1386 15-06-2019 19:25:00 25.7 C 51 % 14.81 C
1387 15-06-2019 19:30:00 25.4 C 54 % 15.42 C
1388 15-06-2019 19:35:00 25.2 C 59 % 16.62 C
1389 15-06-2019 19:40:00 24.8 C 60 % 16.51 C
1390 15-06-2019 19:45:00 24.4 C 61 % 16.39 C
1391 15-06-2019 19:50:00 24.2 C 62 % 16.46 C
1392 15-06-2019 19:55:00 24 C 65 % 17.01 C
1393 15-06-2019 20:00:00 23.9 C 65 % 16.92 C
1394 15-06-2019 20:05:00 23.9 C 64 % 16.68 C
1395 15-06-2019 20:10:00 23.8 C 64 % 16.58 C
1396 15-06-2019 20:15:00 23.6 C 65 % 16.64 C
1397 15-06-2019 20:20:00 23.5 C 65 % 16.54 C
1398 15-06-2019 20:25:00 23.4 C 62 % 15.71 C
1399 15-06-2019 20:30:00 23.3 C 66 % 16.59 C
1400 15-06-2019 20:35:00 23.3 C 66 % 16.59 C
Sensor: Nr:Datum:Temp:Feuchte:Taupunkt:
Aussen-T/F 1401 15-06-2019 20:40:00 23.2 C 66 % 16.5 C
1402 15-06-2019 20:45:00 23.2 C 67 % 16.73 C
1403 15-06-2019 20:50:00 23.2 C 68 % 16.97 C
1404 15-06-2019 20:55:00 22.9 C 68 % 16.68 C
1405 15-06-2019 21:00:00 22.8 C 69 % 16.82 C
1406 15-06-2019 21:05:00 22.4 C 69 % 16.43 C
1407 15-06-2019 21:10:00 22.1 C 69 % 16.15 C
1408 15-06-2019 21:15:00 21.7 C 70 % 15.99 C
1409 15-06-2019 21:20:00 21.3 C 71 % 15.83 C
1410 15-06-2019 21:25:00 21.1 C 71 % 15.64 C
1411 15-06-2019 21:30:00 20.7 C 71 % 15.25 C
1412 15-06-2019 21:35:00 20.4 C 71 % 14.97 C
1413 15-06-2019 21:40:00 20.2 C 71 % 14.78 C
1414 15-06-2019 21:45:00 20.1 C 72 % 14.9 C
1415 15-06-2019 21:50:00 19.8 C 74 % 15.03 C
1416 15-06-2019 21:55:00 19.6 C 75 % 15.05 C
1417 15-06-2019 22:00:00 19.3 C 75 % 14.76 C
1418 15-06-2019 22:05:00 19.1 C 76 % 14.77 C
1419 15-06-2019 22:10:00 18.9 C 77 % 14.78 C
1420 15-06-2019 22:15:00 18.7 C 78 % 14.79 C
1421 15-06-2019 22:20:00 18.6 C 79 % 14.89 C
1422 15-06-2019 22:25:00 18.4 C 79 % 14.69 C
1423 15-06-2019 22:30:00 18.3 C 79 % 14.6 C
1424 15-06-2019 22:35:00 18.2 C 80 % 14.69 C
1425 15-06-2019 22:40:00 18.1 C 80 % 14.6 C
Sensor: Nr:Datum:Temp:Feuchte:Taupunkt:
Aussen-T/F 1426 15-06-2019 22:45:00 18.1 C 80 % 14.6 C
1427 15-06-2019 22:50:00 18.1 C 80 % 14.6 C
1428 15-06-2019 22:55:00 18 C 81 % 14.69 C
1429 15-06-2019 23:00:00 17.9 C 81 % 14.59 C
1430 15-06-2019 23:05:00 17.9 C 80 % 14.4 C
1431 15-06-2019 23:10:00 17.9 C 81 % 14.59 C
1432 15-06-2019 23:15:00 17.8 C 81 % 14.5 C
1433 15-06-2019 23:20:00 17.7 C 82 % 14.59 C
1434 15-06-2019 23:25:00 17.7 C 82 % 14.59 C
1435 15-06-2019 23:30:00 17.6 C 82 % 14.49 C
1436 15-06-2019 23:35:00 17.5 C 82 % 14.39 C
1437 15-06-2019 23:40:00 17.5 C 83 % 14.58 C
1438 15-06-2019 23:45:00 17.4 C 82 % 14.3 C
1439 15-06-2019 23:50:00 17.3 C 83 % 14.39 C
1440 15-06-2019 23:55:00 17.3 C 82 % 14.2 C
1441 16-06-2019 00:00:00 17.2 C 83 % 14.29 C
1442 16-06-2019 00:05:00 17.2 C 84 % 14.47 C
1443 16-06-2019 00:10:00 17.2 C 84 % 14.47 C
1444 16-06-2019 00:15:00 17.3 C 84 % 14.57 C
1445 16-06-2019 00:20:00 17.3 C 84 % 14.57 C
1446 16-06-2019 00:25:00 17.3 C 84 % 14.57 C
1447 16-06-2019 00:30:00 17.3 C 83 % 14.39 C
1448 16-06-2019 00:35:00 17.3 C 83 % 14.39 C
1449 16-06-2019 00:40:00 17.4 C 82 % 14.3 C
1450 16-06-2019 00:45:00 17.3 C 82 % 14.2 C
Sensor: Nr:Datum:Temp:Feuchte:Taupunkt:
Aussen-T/F 1451 16-06-2019 00:50:00 17.4 C 83 % 14.48 C
1452 16-06-2019 00:55:00 17.4 C 83 % 14.48 C
1453 16-06-2019 01:00:00 17.4 C 83 % 14.48 C
1454 16-06-2019 01:05:00 17.4 C 83 % 14.48 C
1455 16-06-2019 01:10:00 17.4 C 83 % 14.48 C
1456 16-06-2019 01:15:00 17.4 C 84 % 14.67 C
1457 16-06-2019 01:20:00 17.4 C 83 % 14.48 C
1458 16-06-2019 01:25:00 17.4 C 83 % 14.48 C
1459 16-06-2019 01:30:00 17.4 C 83 % 14.48 C
1460 16-06-2019 01:35:00 17.4 C 83 % 14.48 C
1461 16-06-2019 01:40:00 17.4 C 83 % 14.48 C
1462 16-06-2019 01:45:00 17.4 C 83 % 14.48 C
1463 16-06-2019 01:50:00 17.4 C 83 % 14.48 C
1464 16-06-2019 01:55:00 17.4 C 83 % 14.48 C
1465 16-06-2019 02:00:00 17.4 C 83 % 14.48 C
1466 16-06-2019 02:05:00 17.3 C 83 % 14.39 C
1467 16-06-2019 02:10:00 17.3 C 84 % 14.57 C
1468 16-06-2019 02:15:00 17.2 C 84 % 14.47 C
1469 16-06-2019 02:20:00 17.2 C 83 % 14.29 C
1470 16-06-2019 02:25:00 17.2 C 84 % 14.47 C
1471 16-06-2019 02:30:00 17.2 C 84 % 14.47 C
1472 16-06-2019 02:35:00 17.1 C 84 % 14.38 C
1473 16-06-2019 02:40:00 17.1 C 84 % 14.38 C
1474 16-06-2019 02:45:00 17.1 C 84 % 14.38 C
1475 16-06-2019 02:50:00 17.1 C 85 % 14.56 C
Sensor: Nr:Datum:Temp:Feuchte:Taupunkt:
Aussen-T/F 1476 16-06-2019 02:55:00 17.1 C 85 % 14.56 C
1477 16-06-2019 03:00:00 17 C 85 % 14.46 C
1478 16-06-2019 03:05:00 17 C 85 % 14.46 C
1479 16-06-2019 03:10:00 16.9 C 85 % 14.36 C
1480 16-06-2019 03:15:00 16.9 C 85 % 14.36 C
1481 16-06-2019 03:20:00 16.9 C 85 % 14.36 C
1482 16-06-2019 03:25:00 16.9 C 85 % 14.36 C
1483 16-06-2019 03:30:00 16.9 C 85 % 14.36 C
1484 16-06-2019 03:35:00 16.8 C 85 % 14.26 C
1485 16-06-2019 03:40:00 16.8 C 84 % 14.08 C
1486 16-06-2019 03:45:00 16.9 C 84 % 14.18 C
1487 16-06-2019 03:50:00 16.9 C 83 % 14 C
1488 16-06-2019 03:55:00 16.9 C 83 % 14 C
1489 16-06-2019 04:00:00 17.1 C 82 % 14 C
1490 16-06-2019 04:05:00 17.2 C 82 % 14.1 C
1491 16-06-2019 04:10:00 17.2 C 81 % 13.91 C
1492 16-06-2019 04:15:00 17.3 C 81 % 14.01 C
1493 16-06-2019 04:20:00 17.3 C 82 % 14.2 C
1494 16-06-2019 04:25:00 17.2 C 82 % 14.1 C
1495 16-06-2019 04:30:00 17.2 C 82 % 14.1 C
1496 16-06-2019 04:35:00 17.1 C 83 % 14.19 C
1497 16-06-2019 04:40:00 17 C 83 % 14.09 C
1498 16-06-2019 04:45:00 16.9 C 83 % 14 C
1499 16-06-2019 04:50:00 16.8 C 84 % 14.08 C
1500 16-06-2019 04:55:00 16.7 C 84 % 13.98 C
Sensor: Nr:Datum:Temp:Feuchte:Taupunkt:
Aussen-T/F 1501 16-06-2019 05:00:00 16.7 C 84 % 13.98 C
1502 16-06-2019 05:05:00 16.6 C 84 % 13.89 C
1503 16-06-2019 05:10:00 16.5 C 84 % 13.79 C
1504 16-06-2019 05:15:00 16.4 C 85 % 13.87 C
1505 16-06-2019 05:20:00 16.3 C 85 % 13.77 C
1506 16-06-2019 05:25:00 16.3 C 85 % 13.77 C
1507 16-06-2019 05:30:00 16.3 C 85 % 13.77 C
1508 16-06-2019 05:35:00 16.2 C 84 % 13.5 C
1509 16-06-2019 05:40:00 16.2 C 86 % 13.86 C
1510 16-06-2019 05:45:00 16.1 C 86 % 13.76 C
1511 16-06-2019 05:50:00 16.1 C 87 % 13.94 C
1512 16-06-2019 05:55:00 15.9 C 87 % 13.74 C
1513 16-06-2019 06:00:00 15.8 C 87 % 13.64 C
1514 16-06-2019 06:05:00 15.7 C 88 % 13.72 C
1515 16-06-2019 06:10:00 15.7 C 88 % 13.72 C
1516 16-06-2019 06:15:00 15.6 C 88 % 13.62 C
1517 16-06-2019 06:20:00 15.4 C 89 % 13.6 C
1518 16-06-2019 06:25:00 15.4 C 89 % 13.6 C
1519 16-06-2019 06:30:00 15.4 C 90 % 13.77 C
1520 16-06-2019 06:35:00 15.4 C 90 % 13.77 C
1521 16-06-2019 06:40:00 15.3 C 91 % 13.84 C
1522 16-06-2019 06:45:00 15.3 C 91 % 13.84 C
1523 16-06-2019 06:50:00 15.3 C 91 % 13.84 C
1524 16-06-2019 06:55:00 15.3 C 91 % 13.84 C
1525 16-06-2019 07:00:00 15.3 C 91 % 13.84 C
Sensor: Nr:Datum:Temp:Feuchte:Taupunkt:
Aussen-T/F 1526 16-06-2019 07:05:00 15.3 C 92 % 14.01 C
1527 16-06-2019 07:10:00 15.3 C 92 % 14.01 C
1528 16-06-2019 07:15:00 15.4 C 92 % 14.11 C
1529 16-06-2019 07:20:00 15.5 C 92 % 14.21 C
1530 16-06-2019 07:25:00 15.5 C 92 % 14.21 C
1531 16-06-2019 07:30:00 15.6 C 92 % 14.31 C
1532 16-06-2019 07:35:00 15.6 C 91 % 14.14 C
1533 16-06-2019 07:40:00 15.6 C 91 % 14.14 C
1534 16-06-2019 07:45:00 15.7 C 90 % 14.06 C
1535 16-06-2019 07:50:00 15.8 C 90 % 14.16 C
1536 16-06-2019 07:55:00 16 C 91 % 14.53 C
1537 16-06-2019 08:00:00 16.1 C 91 % 14.63 C
1538 16-06-2019 08:05:00 16.2 C 91 % 14.73 C
1539 16-06-2019 08:10:00 16.2 C 91 % 14.73 C
1540 16-06-2019 08:15:00 16.1 C 89 % 14.29 C
1541 16-06-2019 08:20:00 16.1 C 90 % 14.46 C
1542 16-06-2019 08:25:00 16.1 C 90 % 14.46 C
1543 16-06-2019 08:30:00 16.1 C 90 % 14.46 C
1544 16-06-2019 08:35:00 16.1 C 90 % 14.46 C
1545 16-06-2019 08:40:00 15.9 C 89 % 14.09 C
1546 16-06-2019 08:45:00 15.9 C 89 % 14.09 C
1547 16-06-2019 08:50:00 15.8 C 88 % 13.82 C
1548 16-06-2019 08:55:00 15.9 C 89 % 14.09 C
1549 16-06-2019 09:00:00 16.1 C 89 % 14.29 C
1550 16-06-2019 09:05:00 16.2 C 87 % 14.03 C
Sensor: Nr:Datum:Temp:Feuchte:Taupunkt:
Aussen-T/F 1551 16-06-2019 09:10:00 16.3 C 84 % 13.59 C
1552 16-06-2019 09:15:00 16.6 C 85 % 14.07 C
1553 16-06-2019 09:20:00 16.6 C 83 % 13.7 C
1554 16-06-2019 09:25:00 16.9 C 80 % 13.43 C
1555 16-06-2019 09:30:00 17.2 C 79 % 13.53 C
1556 16-06-2019 09:35:00 17.4 C 78 % 13.53 C
1557 16-06-2019 09:40:00 17.6 C 77 % 13.52 C
1558 16-06-2019 09:45:00 17.8 C 79 % 14.11 C
1559 16-06-2019 09:50:00 17.8 C 77 % 13.72 C
1560 16-06-2019 09:55:00 18 C 77 % 13.91 C
1561 16-06-2019 10:00:00 18.1 C 77 % 14.01 C
1562 16-06-2019 10:05:00 18.2 C 74 % 13.49 C
1563 16-06-2019 10:10:00 18.4 C 73 % 13.48 C
1564 16-06-2019 10:15:00 18.7 C 73 % 13.76 C
1565 16-06-2019 10:20:00 19.1 C 71 % 13.72 C
1566 16-06-2019 10:25:00 19.4 C 71 % 14.01 C
1567 16-06-2019 10:30:00 19.7 C 67 % 13.4 C
1568 16-06-2019 10:35:00 19.8 C 72 % 14.61 C
1569 16-06-2019 10:40:00 19.9 C 67 % 13.59 C
1570 16-06-2019 10:45:00 19.9 C 64 % 12.89 C
1571 16-06-2019 10:50:00 20.1 C 64 % 13.08 C
1572 16-06-2019 10:55:00 20.3 C 64 % 13.27 C
1573 16-06-2019 11:00:00 20.6 C 63 % 13.31 C
1574 16-06-2019 11:05:00 20.7 C 61 % 12.91 C
1575 16-06-2019 11:10:00 20.7 C 63 % 13.41 C
Sensor: Nr:Datum:Temp:Feuchte:Taupunkt:
Aussen-T/F 1576 16-06-2019 11:15:00 20.7 C 64 % 13.65 C
1577 16-06-2019 11:20:00 20.8 C 57 % 11.97 C
1578 16-06-2019 11:25:00 21.1 C 57 % 12.25 C
1579 16-06-2019 11:30:00 21.2 C 59 % 12.87 C
1580 16-06-2019 11:35:00 21.1 C 58 % 12.52 C
1581 16-06-2019 11:40:00 21 C 61 % 13.2 C
1582 16-06-2019 11:45:00 20.8 C 62 % 13.26 C
1583 16-06-2019 11:50:00 20.7 C 62 % 13.16 C
1584 16-06-2019 11:55:00 20.7 C 61 % 12.91 C
1585 16-06-2019 12:00:00 20.7 C 61 % 12.91 C
1586 16-06-2019 12:05:00 20.8 C 61 % 13.01 C
1587 16-06-2019 12:10:00 20.9 C 61 % 13.1 C
1588 16-06-2019 12:15:00 21.1 C 61 % 13.29 C
1589 16-06-2019 12:20:00 21.3 C 57 % 12.44 C
1590 16-06-2019 12:25:00 21.6 C 59 % 13.25 C
1591 16-06-2019 12:30:00 21.7 C 56 % 12.54 C
1592 16-06-2019 12:35:00 21.5 C 59 % 13.15 C
1593 16-06-2019 12:40:00 21.6 C 60 % 13.51 C
1594 16-06-2019 12:45:00 21.6 C 59 % 13.25 C
1595 16-06-2019 12:50:00 21.6 C 58 % 12.99 C
1596 16-06-2019 12:55:00 21.7 C 58 % 13.08 C
1597 16-06-2019 13:00:00 21.8 C 54 % 12.08 C
1598 16-06-2019 13:05:00 22.1 C 55 % 12.64 C
1599 16-06-2019 13:10:00 22.2 C 51 % 11.59 C
1600 16-06-2019 13:15:00 22.2 C 55 % 12.73 C
Sensor: Nr:Datum:Temp:Feuchte:Taupunkt:
Aussen-T/F 1601 16-06-2019 13:20:00 22.4 C 56 % 13.2 C
1602 16-06-2019 13:25:00 22.6 C 55 % 13.11 C
1603 16-06-2019 13:30:00 22.5 C 54 % 12.73 C
1604 16-06-2019 13:35:00 22.6 C 57 % 13.65 C
1605 16-06-2019 13:40:00 22.5 C 56 % 13.29 C
1606 16-06-2019 13:45:00 22.5 C 53 % 12.45 C
1607 16-06-2019 13:50:00 22.4 C 57 % 13.47 C
1608 16-06-2019 13:55:00 22.4 C 54 % 12.64 C
1609 16-06-2019 14:00:00 22.4 C 57 % 13.47 C
1610 16-06-2019 14:05:00 22.3 C 55 % 12.83 C
1611 16-06-2019 14:10:00 22.3 C 55 % 12.83 C
1612 16-06-2019 14:15:00 22.4 C 58 % 13.73 C
1613 16-06-2019 14:20:00 22.5 C 57 % 13.56 C
1614 16-06-2019 14:25:00 22.7 C 56 % 13.47 C
1615 16-06-2019 14:30:00 22.9 C 54 % 13.1 C
1616 16-06-2019 14:35:00 22.9 C 55 % 13.38 C
1617 16-06-2019 14:40:00 22.8 C 57 % 13.84 C
1618 16-06-2019 14:45:00 22.7 C 55 % 13.2 C
1619 16-06-2019 14:50:00 22.6 C 55 % 13.11 C
1620 16-06-2019 14:55:00 22.3 C 57 % 13.37 C
1621 16-06-2019 15:00:00 22.1 C 59 % 13.72 C
1622 16-06-2019 15:05:00 22 C 57 % 13.09 C
1623 16-06-2019 15:10:00 22.1 C 57 % 13.19 C
1624 16-06-2019 15:15:00 22.4 C 58 % 13.73 C
1625 16-06-2019 15:20:00 22.6 C 55 % 13.11 C
Sensor: Nr:Datum:Temp:Feuchte:Taupunkt:
Aussen-T/F 1626 16-06-2019 15:25:00 22.8 C 56 % 13.57 C
1627 16-06-2019 15:30:00 23.2 C 55 % 13.66 C
1628 16-06-2019 15:35:00 23.3 C 52 % 12.9 C
1629 16-06-2019 15:40:00 23.8 C 53 % 13.65 C
1630 16-06-2019 15:45:00 24.1 C 53 % 13.93 C
1631 16-06-2019 15:50:00 24.1 C 52 % 13.63 C
1632 16-06-2019 15:55:00 23.9 C 52 % 13.45 C
1633 16-06-2019 16:00:00 23.7 C 53 % 13.56 C
1634 16-06-2019 16:05:00 23.4 C 55 % 13.85 C
1635 16-06-2019 16:10:00 23.5 C 54 % 13.66 C
1636 16-06-2019 16:15:00 23.6 C 53 % 13.46 C
1637 16-06-2019 16:20:00 23.3 C 54 % 13.47 C
1638 16-06-2019 16:25:00 23.3 C 55 % 13.76 C
1639 16-06-2019 16:30:00 23.2 C 56 % 13.94 C
1640 16-06-2019 16:35:00 23.1 C 55 % 13.57 C
1641 16-06-2019 16:40:00 23 C 55 % 13.48 C
1642 16-06-2019 16:45:00 22.9 C 58 % 14.2 C
1643 16-06-2019 16:50:00 22.9 C 56 % 13.66 C
1644 16-06-2019 16:55:00 22.8 C 57 % 13.84 C
1645 16-06-2019 17:00:00 22.7 C 59 % 14.28 C
1646 16-06-2019 17:05:00 22.5 C 57 % 13.56 C
1647 16-06-2019 17:10:00 22.3 C 58 % 13.64 C
1648 16-06-2019 17:15:00 22.2 C 59 % 13.81 C
1649 16-06-2019 17:20:00 22.1 C 59 % 13.72 C
1650 16-06-2019 17:25:00 22.1 C 61 % 14.23 C
Sensor: Nr:Datum:Temp:Feuchte:Taupunkt:
Aussen-T/F 1651 16-06-2019 17:30:00 22.1 C 59 % 13.72 C
1652 16-06-2019 17:35:00 22.1 C 60 % 13.98 C
1653 16-06-2019 17:40:00 22.1 C 59 % 13.72 C
1654 16-06-2019 17:45:00 22.2 C 60 % 14.07 C
1655 16-06-2019 17:50:00 22.3 C 56 % 13.1 C
1656 16-06-2019 17:55:00 22.6 C 56 % 13.38 C
1657 16-06-2019 18:00:00 22.8 C 54 % 13.01 C
1658 16-06-2019 18:05:00 23 C 56 % 13.75 C
1659 16-06-2019 18:10:00 22.9 C 54 % 13.1 C
1660 16-06-2019 18:15:00 23.2 C 54 % 13.38 C
1661 16-06-2019 18:20:00 23.6 C 53 % 13.46 C
1662 16-06-2019 18:25:00 24.1 C 53 % 13.93 C
1663 16-06-2019 18:30:00 24.6 C 51 % 13.79 C
1664 16-06-2019 18:35:00 24.6 C 50 % 13.49 C
1665 16-06-2019 18:40:00 24.7 C 50 % 13.58 C
1666 16-06-2019 18:45:00 24.9 C 49 % 13.46 C
1667 16-06-2019 18:50:00 25 C 49 % 13.55 C
1668 16-06-2019 18:55:00 25.1 C 48 % 13.32 C
1669 16-06-2019 19:00:00 25.1 C 49 % 13.64 C
1670 16-06-2019 19:05:00 25.1 C 49 % 13.64 C
1671 16-06-2019 19:10:00 25.1 C 47 % 13 C
1672 16-06-2019 19:15:00 25.1 C 48 % 13.32 C
1673 16-06-2019 19:20:00 24.7 C 48 % 12.96 C
1674 16-06-2019 19:25:00 23.8 C 50 % 12.76 C
1675 16-06-2019 19:30:00 23.1 C 53 % 13 C
Sensor: Nr:Datum:Temp:Feuchte:Taupunkt:
Aussen-T/F 1676 16-06-2019 19:35:00 22.6 C 59 % 14.18 C
1677 16-06-2019 19:40:00 22.3 C 60 % 14.16 C
1678 16-06-2019 19:45:00 22.1 C 63 % 14.73 C
1679 16-06-2019 19:50:00 21.8 C 65 % 14.93 C
1680 16-06-2019 19:55:00 21.8 C 65 % 14.93 C
1681 16-06-2019 20:00:00 21.9 C 65 % 15.02 C
1682 16-06-2019 20:05:00 22 C 65 % 15.12 C
1683 16-06-2019 20:10:00 22.2 C 65 % 15.31 C
1684 16-06-2019 20:15:00 22.6 C 54 % 12.83 C
1685 16-06-2019 20:20:00 22.9 C 55 % 13.38 C
1686 16-06-2019 20:25:00 23.1 C 54 % 13.29 C
1687 16-06-2019 20:30:00 23.1 C 53 % 13 C
1688 16-06-2019 20:35:00 22.9 C 54 % 13.1 C
1689 16-06-2019 20:40:00 22.8 C 54 % 13.01 C
1690 16-06-2019 20:45:00 22.7 C 56 % 13.47 C
1691 16-06-2019 20:50:00 22.7 C 57 % 13.75 C
1692 16-06-2019 20:55:00 22.5 C 62 % 14.86 C
1693 16-06-2019 21:00:00 22.3 C 64 % 15.16 C
1694 16-06-2019 21:05:00 21.9 C 65 % 15.02 C
1695 16-06-2019 21:10:00 21.6 C 65 % 14.74 C
1696 16-06-2019 21:15:00 21.2 C 65 % 14.36 C
1697 16-06-2019 21:20:00 20.8 C 67 % 14.45 C
1698 16-06-2019 21:25:00 20.4 C 67 % 14.07 C
1699 16-06-2019 21:30:00 20 C 68 % 13.92 C
1700 16-06-2019 21:35:00 19.6 C 69 % 13.76 C
Sensor: Nr:Datum:Temp:Feuchte:Taupunkt:
Aussen-T/F 1701 16-06-2019 21:40:00 19.3 C 70 % 13.69 C
1702 16-06-2019 21:45:00 19.1 C 70 % 13.5 C
1703 16-06-2019 21:50:00 18.8 C 71 % 13.43 C
1704 16-06-2019 21:55:00 18.5 C 72 % 13.36 C
1705 16-06-2019 22:00:00 18.3 C 72 % 13.17 C
1706 16-06-2019 22:05:00 18.1 C 73 % 13.19 C
1707 16-06-2019 22:10:00 17.8 C 74 % 13.11 C
1708 16-06-2019 22:15:00 17.7 C 75 % 13.22 C
1709 16-06-2019 22:20:00 17.5 C 76 % 13.23 C
1710 16-06-2019 22:25:00 17.3 C 76 % 13.03 C
1711 16-06-2019 22:30:00 17.2 C 77 % 13.14 C
1712 16-06-2019 22:35:00 17 C 78 % 13.14 C
1713 16-06-2019 22:40:00 16.8 C 78 % 12.94 C
1714 16-06-2019 22:45:00 16.5 C 79 % 12.85 C
1715 16-06-2019 22:50:00 16.3 C 80 % 12.85 C
1716 16-06-2019 22:55:00 16.1 C 81 % 12.84 C
1717 16-06-2019 23:00:00 15.9 C 81 % 12.65 C
1718 16-06-2019 23:05:00 15.8 C 82 % 12.74 C
1719 16-06-2019 23:10:00 15.7 C 82 % 12.64 C
1720 16-06-2019 23:15:00 15.6 C 83 % 12.72 C
1721 16-06-2019 23:20:00 15.4 C 83 % 12.53 C
1722 16-06-2019 23:25:00 15.3 C 83 % 12.43 C
1723 16-06-2019 23:30:00 15.3 C 83 % 12.43 C
1724 16-06-2019 23:35:00 15.2 C 83 % 12.33 C
1725 16-06-2019 23:40:00 15.1 C 84 % 12.42 C
Sensor: Nr:Datum:Temp:Feuchte:Taupunkt:
Aussen-T/F 1726 16-06-2019 23:45:00 15 C 83 % 12.14 C
1727 16-06-2019 23:50:00 15 C 83 % 12.14 C
1728 16-06-2019 23:55:00 14.9 C 83 % 12.04 C
1729 17-06-2019 00:00:00 14.7 C 84 % 12.03 C
1730 17-06-2019 00:05:00 14.6 C 84 % 11.93 C
1731 17-06-2019 00:10:00 14.4 C 85 % 11.91 C
1732 17-06-2019 00:15:00 14.3 C 85 % 11.81 C
1733 17-06-2019 00:20:00 14.2 C 85 % 11.72 C
1734 17-06-2019 00:25:00 14.2 C 86 % 11.89 C
1735 17-06-2019 00:30:00 14.1 C 86 % 11.8 C
1736 17-06-2019 00:35:00 14 C 86 % 11.7 C
1737 17-06-2019 00:40:00 13.9 C 86 % 11.6 C
1738 17-06-2019 00:45:00 13.8 C 87 % 11.68 C
1739 17-06-2019 00:50:00 13.8 C 87 % 11.68 C
1740 17-06-2019 00:55:00 13.7 C 87 % 11.58 C
1741 17-06-2019 01:00:00 13.7 C 87 % 11.58 C
1742 17-06-2019 01:05:00 13.7 C 88 % 11.75 C
1743 17-06-2019 01:10:00 13.6 C 88 % 11.65 C
1744 17-06-2019 01:15:00 13.5 C 88 % 11.55 C
1745 17-06-2019 01:20:00 13.4 C 88 % 11.45 C
1746 17-06-2019 01:25:00 13.4 C 88 % 11.45 C
1747 17-06-2019 01:30:00 13.3 C 88 % 11.36 C
1748 17-06-2019 01:35:00 13.2 C 88 % 11.26 C
1749 17-06-2019 01:40:00 13.1 C 89 % 11.33 C
1750 17-06-2019 01:45:00 13.1 C 89 % 11.33 C
Sensor: Nr:Datum:Temp:Feuchte:Taupunkt:
Aussen-T/F 1751 17-06-2019 01:50:00 12.9 C 89 % 11.13 C
1752 17-06-2019 01:55:00 12.9 C 89 % 11.13 C
1753 17-06-2019 02:00:00 12.8 C 90 % 11.2 C
1754 17-06-2019 02:05:00 12.8 C 90 % 11.2 C
1755 17-06-2019 02:10:00 12.8 C 90 % 11.2 C
1756 17-06-2019 02:15:00 12.8 C 90 % 11.2 C
1757 17-06-2019 02:20:00 12.7 C 90 % 11.1 C
1758 17-06-2019 02:25:00 12.7 C 90 % 11.1 C
1759 17-06-2019 02:30:00 12.7 C 90 % 11.1 C
1760 17-06-2019 02:35:00 12.6 C 91 % 11.17 C
1761 17-06-2019 02:40:00 12.5 C 91 % 11.07 C
1762 17-06-2019 02:45:00 12.4 C 91 % 10.97 C
1763 17-06-2019 02:50:00 12.4 C 91 % 10.97 C
1764 17-06-2019 02:55:00 12.3 C 91 % 10.87 C
1765 17-06-2019 03:00:00 12.3 C 91 % 10.87 C
1766 17-06-2019 03:05:00 12.2 C 91 % 10.78 C
1767 17-06-2019 03:10:00 12.1 C 91 % 10.68 C
1768 17-06-2019 03:15:00 12.1 C 92 % 10.84 C
1769 17-06-2019 03:20:00 12.1 C 92 % 10.84 C
1770 17-06-2019 03:25:00 11.9 C 92 % 10.64 C
1771 17-06-2019 03:30:00 11.9 C 92 % 10.64 C
1772 17-06-2019 03:35:00 11.9 C 92 % 10.64 C
1773 17-06-2019 03:40:00 11.8 C 92 % 10.54 C
1774 17-06-2019 03:45:00 11.8 C 92 % 10.54 C
1775 17-06-2019 03:50:00 11.7 C 92 % 10.44 C
Sensor: Nr:Datum:Temp:Feuchte:Taupunkt:
Aussen-T/F 1776 17-06-2019 03:55:00 11.7 C 93 % 10.61 C
1777 17-06-2019 04:00:00 11.7 C 93 % 10.61 C
1778 17-06-2019 04:05:00 11.6 C 93 % 10.51 C
1779 17-06-2019 04:10:00 11.6 C 93 % 10.51 C
1780 17-06-2019 04:15:00 11.6 C 93 % 10.51 C
1781 17-06-2019 04:20:00 11.5 C 93 % 10.41 C
1782 17-06-2019 04:25:00 11.4 C 93 % 10.31 C
1783 17-06-2019 04:30:00 11.4 C 93 % 10.31 C
1784 17-06-2019 04:35:00 11.3 C 93 % 10.21 C
1785 17-06-2019 04:40:00 11.3 C 93 % 10.21 C
1786 17-06-2019 04:45:00 11.3 C 93 % 10.21 C
1787 17-06-2019 04:50:00 11.3 C 93 % 10.21 C
1788 17-06-2019 04:55:00 11.2 C 93 % 10.11 C
1789 17-06-2019 05:00:00 11.1 C 94 % 10.17 C
1790 17-06-2019 05:05:00 11.1 C 93 % 10.01 C
1791 17-06-2019 05:10:00 11.1 C 94 % 10.17 C
1792 17-06-2019 05:15:00 11.1 C 94 % 10.17 C
1793 17-06-2019 05:20:00 11.1 C 94 % 10.17 C
1794 17-06-2019 05:25:00 11.1 C 94 % 10.17 C
1795 17-06-2019 05:30:00 11.1 C 94 % 10.17 C
1796 17-06-2019 05:35:00 11.1 C 94 % 10.17 C
1797 17-06-2019 05:40:00 11.1 C 94 % 10.17 C
1798 17-06-2019 05:45:00 11.1 C 94 % 10.17 C
1799 17-06-2019 05:50:00 11 C 94 % 10.07 C
1800 17-06-2019 05:55:00 10.9 C 94 % 9.97 C
Sensor: Nr:Datum:Temp:Feuchte:Taupunkt:
Aussen-T/F 1801 17-06-2019 06:00:00 10.9 C 95 % 10.13 C
1802 17-06-2019 06:05:00 11 C 95 % 10.23 C
1803 17-06-2019 06:10:00 11.1 C 95 % 10.33 C
1804 17-06-2019 06:15:00 11.1 C 95 % 10.33 C
1805 17-06-2019 06:20:00 11 C 95 % 10.23 C
1806 17-06-2019 06:25:00 11.1 C 95 % 10.33 C
1807 17-06-2019 06:30:00 11.1 C 95 % 10.33 C
1808 17-06-2019 06:35:00 11.1 C 95 % 10.33 C
1809 17-06-2019 06:40:00 11.1 C 95 % 10.33 C
1810 17-06-2019 06:45:00 11.1 C 95 % 10.33 C
1811 17-06-2019 06:50:00 11.2 C 95 % 10.43 C
1812 17-06-2019 06:55:00 11.2 C 95 % 10.43 C
1813 17-06-2019 07:00:00 11.2 C 95 % 10.43 C
1814 17-06-2019 07:05:00 11.3 C 95 % 10.53 C
1815 17-06-2019 07:10:00 11.3 C 95 % 10.53 C
1816 17-06-2019 07:15:00 11.4 C 95 % 10.63 C
1817 17-06-2019 07:20:00 11.4 C 95 % 10.63 C
1818 17-06-2019 07:25:00 11.6 C 95 % 10.83 C
1819 17-06-2019 07:30:00 11.6 C 95 % 10.83 C
1820 17-06-2019 07:35:00 11.7 C 96 % 11.08 C
1821 17-06-2019 07:40:00 11.7 C 95 % 10.93 C
1822 17-06-2019 07:45:00 11.8 C 95 % 11.03 C
1823 17-06-2019 07:50:00 11.9 C 96 % 11.28 C
1824 17-06-2019 07:55:00 12 C 96 % 11.38 C
1825 17-06-2019 08:00:00 12.1 C 96 % 11.48 C
Sensor: Nr:Datum:Temp:Feuchte:Taupunkt:
Aussen-T/F 1826 17-06-2019 08:05:00 12.2 C 96 % 11.58 C
1827 17-06-2019 08:10:00 12.3 C 96 % 11.68 C
1828 17-06-2019 08:15:00 12.3 C 96 % 11.68 C
1829 17-06-2019 08:20:00 12.4 C 96 % 11.78 C
1830 17-06-2019 08:25:00 12.6 C 96 % 11.98 C
1831 17-06-2019 08:30:00 12.7 C 96 % 12.08 C
1832 17-06-2019 08:35:00 12.8 C 96 % 12.18 C
1833 17-06-2019 08:40:00 12.9 C 96 % 12.28 C
1834 17-06-2019 08:45:00 13.1 C 96 % 12.48 C
1835 17-06-2019 08:50:00 13.2 C 96 % 12.58 C
1836 17-06-2019 08:55:00 13.4 C 96 % 12.78 C
1837 17-06-2019 09:00:00 13.5 C 96 % 12.87 C
1838 17-06-2019 09:05:00 13.7 C 96 % 13.07 C
1839 17-06-2019 09:10:00 13.8 C 96 % 13.17 C
1840 17-06-2019 09:15:00 14 C 96 % 13.37 C
1841 17-06-2019 09:20:00 14.2 C 95 % 13.41 C
1842 17-06-2019 09:25:00 14.3 C 95 % 13.51 C
1843 17-06-2019 09:30:00 14.4 C 95 % 13.61 C
1844 17-06-2019 09:35:00 14.7 C 95 % 13.91 C
1845 17-06-2019 09:40:00 14.9 C 94 % 13.94 C
1846 17-06-2019 09:45:00 15.1 C 94 % 14.14 C
1847 17-06-2019 09:50:00 15.4 C 93 % 14.27 C
1848 17-06-2019 09:55:00 15.6 C 93 % 14.47 C
1849 17-06-2019 10:00:00 15.8 C 93 % 14.67 C
1850 17-06-2019 10:05:00 16.1 C 92 % 14.8 C
Sensor: Nr:Datum:Temp:Feuchte:Taupunkt:
Aussen-T/F 1851 17-06-2019 10:10:00 16.4 C 91 % 14.93 C
1852 17-06-2019 10:15:00 16.9 C 90 % 15.25 C
1853 17-06-2019 10:20:00 17.4 C 87 % 15.21 C
1854 17-06-2019 10:25:00 18.1 C 84 % 15.35 C
1855 17-06-2019 10:30:00 18.9 C 82 % 15.76 C
1856 17-06-2019 10:35:00 19.6 C 79 % 15.86 C
1857 17-06-2019 10:40:00 20.2 C 75 % 15.63 C
1858 17-06-2019 10:45:00 20.9 C 75 % 16.3 C
1859 17-06-2019 10:50:00 21.3 C 70 % 15.61 C
1860 17-06-2019 10:55:00 21.5 C 67 % 15.12 C
1861 17-06-2019 11:00:00 21.7 C 65 % 14.84 C
1862 17-06-2019 11:05:00 21.7 C 65 % 14.84 C
1863 17-06-2019 11:10:00 21.9 C 69 % 15.96 C
1864 17-06-2019 11:15:00 22.1 C 64 % 14.97 C
1865 17-06-2019 11:20:00 22.2 C 63 % 14.82 C
1866 17-06-2019 11:25:00 22.4 C 62 % 14.76 C
1867 17-06-2019 11:30:00 22.4 C 61 % 14.51 C
1868 17-06-2019 11:35:00 22.5 C 64 % 15.35 C
1869 17-06-2019 11:40:00 22.6 C 62 % 14.95 C
1870 17-06-2019 11:45:00 22.7 C 61 % 14.79 C
1871 17-06-2019 11:50:00 22.8 C 60 % 14.63 C
1872 17-06-2019 11:55:00 22.8 C 60 % 14.63 C
1873 17-06-2019 12:00:00 23 C 58 % 14.29 C
1874 17-06-2019 12:05:00 23.2 C 59 % 14.75 C
1875 17-06-2019 12:10:00 23.3 C 59 % 14.84 C
Sensor: Nr:Datum:Temp:Feuchte:Taupunkt:
Aussen-T/F 1876 17-06-2019 12:15:00 23.4 C 59 % 14.93 C
1877 17-06-2019 12:20:00 23.4 C 61 % 15.45 C
1878 17-06-2019 12:25:00 23.5 C 57 % 14.49 C
1879 17-06-2019 12:30:00 23.4 C 57 % 14.4 C
1880 17-06-2019 12:35:00 23.4 C 58 % 14.67 C
1881 17-06-2019 12:40:00 23.6 C 59 % 15.12 C
1882 17-06-2019 12:45:00 23.7 C 57 % 14.68 C
1883 17-06-2019 12:50:00 23.8 C 57 % 14.77 C
1884 17-06-2019 12:55:00 24 C 57 % 14.96 C
1885 17-06-2019 13:00:00 24 C 57 % 14.96 C
1886 17-06-2019 13:05:00 24.1 C 56 % 14.78 C
1887 17-06-2019 13:10:00 24.2 C 55 % 14.59 C
1888 17-06-2019 13:15:00 24.4 C 55 % 14.78 C
1889 17-06-2019 13:20:00 24.5 C 55 % 14.87 C
1890 17-06-2019 13:25:00 24.6 C 54 % 14.68 C
1891 17-06-2019 13:30:00 24.6 C 54 % 14.68 C
1892 17-06-2019 13:35:00 24.6 C 59 % 16.06 C
1893 17-06-2019 13:40:00 24.4 C 56 % 15.06 C
1894 17-06-2019 13:45:00 24.4 C 53 % 14.2 C
1895 17-06-2019 13:50:00 24.7 C 52 % 14.19 C
1896 17-06-2019 13:55:00 25 C 51 % 14.16 C
1897 17-06-2019 14:00:00 25.2 C 54 % 15.23 C
1898 17-06-2019 14:05:00 25.1 C 52 % 14.55 C
1899 17-06-2019 14:10:00 25 C 55 % 15.33 C
1900 17-06-2019 14:15:00 25.1 C 51 % 14.25 C
Sensor: Nr:Datum:Temp:Feuchte:Taupunkt:
Aussen-T/F 1901 17-06-2019 14:20:00 25.2 C 49 % 13.73 C
1902 17-06-2019 14:25:00 25.4 C 50 % 14.22 C
1903 17-06-2019 14:30:00 25.3 C 50 % 14.13 C
1904 17-06-2019 14:35:00 25.2 C 49 % 13.73 C
1905 17-06-2019 14:40:00 25.1 C 49 % 13.64 C
1906 17-06-2019 14:45:00 25 C 49 % 13.55 C
1907 17-06-2019 14:50:00 25.1 C 51 % 14.25 C
1908 17-06-2019 14:55:00 25.2 C 50 % 14.04 C
1909 17-06-2019 15:00:00 25.3 C 49 % 13.82 C
1910 17-06-2019 15:05:00 25.2 C 51 % 14.35 C
1911 17-06-2019 15:10:00 25.1 C 51 % 14.25 C
1912 17-06-2019 15:15:00 25.2 C 50 % 14.04 C
1913 17-06-2019 15:20:00 25.4 C 49 % 13.91 C
1914 17-06-2019 15:25:00 25.4 C 52 % 14.83 C
1915 17-06-2019 15:30:00 25.3 C 48 % 13.5 C
1916 17-06-2019 15:35:00 25.3 C 51 % 14.44 C
1917 17-06-2019 15:40:00 25.2 C 51 % 14.35 C
1918 17-06-2019 15:45:00 25.1 C 57 % 15.98 C
1919 17-06-2019 15:50:00 25.3 C 49 % 13.82 C
1920 17-06-2019 15:55:00 25.4 C 50 % 14.22 C
1921 17-06-2019 16:00:00 25.7 C 48 % 13.87 C
1922 17-06-2019 16:05:00 26.4 C 51 % 15.45 C
1923 17-06-2019 16:10:00 27.2 C 46 % 14.58 C
1924 17-06-2019 16:15:00 27.3 C 44 % 13.98 C
1925 17-06-2019 16:20:00 27.1 C 42 % 13.09 C
Sensor: Nr:Datum:Temp:Feuchte:Taupunkt:
Aussen-T/F 1926 17-06-2019 16:25:00 26.8 C 46 % 14.21 C
1927 17-06-2019 16:30:00 26.5 C 49 % 14.92 C
1928 17-06-2019 16:35:00 26.3 C 58 % 17.38 C
1929 17-06-2019 16:40:00 26.4 C 46 % 13.85 C
1930 17-06-2019 16:45:00 26.6 C 59 % 17.93 C
1931 17-06-2019 16:50:00 27 C 59 % 18.3 C
1932 17-06-2019 16:55:00 27.3 C 48 % 15.33 C
1933 17-06-2019 17:00:00 27.6 C 54 % 17.45 C
1934 17-06-2019 17:05:00 27.9 C 46 % 15.21 C
1935 17-06-2019 17:10:00 28.2 C 42 % 14.07 C
1936 17-06-2019 17:15:00 28.4 C 42 % 14.25 C
1937 17-06-2019 17:20:00 28.8 C 44 % 15.33 C
1938 17-06-2019 17:25:00 29.1 C 39 % 13.73 C
1939 17-06-2019 17:30:00 29.1 C 38 % 13.34 C
1940 17-06-2019 17:35:00 28.9 C 40 % 13.95 C
1941 17-06-2019 17:40:00 28.9 C 40 % 13.95 C
1942 17-06-2019 17:45:00 28.6 C 39 % 13.29 C
1943 17-06-2019 17:50:00 28.1 C 40 % 13.23 C
1944 17-06-2019 17:55:00 27.6 C 42 % 13.53 C
1945 17-06-2019 18:00:00 27.1 C 43 % 13.45 C
1946 17-06-2019 18:05:00 26.8 C 45 % 13.87 C
1947 17-06-2019 18:10:00 26.5 C 55 % 16.72 C
1948 17-06-2019 18:15:00 26.4 C 57 % 17.19 C
1949 17-06-2019 18:20:00 26.8 C 48 % 14.87 C
1950 17-06-2019 18:25:00 27.4 C 51 % 16.37 C
Sensor: Nr:Datum:Temp:Feuchte:Taupunkt:
Aussen-T/F 1951 17-06-2019 18:30:00 28 C 43 % 14.26 C
1952 17-06-2019 18:35:00 28.6 C 50 % 17.16 C
1953 17-06-2019 18:40:00 29.1 C 45 % 15.95 C
1954 17-06-2019 18:45:00 29.3 C 40 % 14.3 C
1955 17-06-2019 18:50:00 29.5 C 39 % 14.09 C
1956 17-06-2019 18:55:00 29.4 C 40 % 14.39 C
1957 17-06-2019 19:00:00 29.5 C 41 % 14.86 C
1958 17-06-2019 19:05:00 29.4 C 39 % 14 C
1959 17-06-2019 19:10:00 28.9 C 39 % 13.56 C
1960 17-06-2019 19:15:00 28.6 C 39 % 13.29 C
1961 17-06-2019 19:20:00 28.2 C 40 % 13.32 C
1962 17-06-2019 19:25:00 27.8 C 47 % 15.45 C
1963 17-06-2019 19:30:00 27.4 C 52 % 16.67 C
1964 17-06-2019 19:35:00 27.1 C 53 % 16.7 C
1965 17-06-2019 19:40:00 26.7 C 55 % 16.91 C
1966 17-06-2019 19:45:00 26.4 C 55 % 16.63 C
1967 17-06-2019 19:50:00 26.1 C 56 % 16.64 C
1968 17-06-2019 19:55:00 25.6 C 55 % 15.89 C
1969 17-06-2019 20:00:00 25.1 C 57 % 15.98 C
1970 17-06-2019 20:05:00 24.7 C 58 % 15.88 C
1971 17-06-2019 20:10:00 24.4 C 58 % 15.6 C
1972 17-06-2019 20:15:00 24.2 C 60 % 15.95 C
1973 17-06-2019 20:20:00 24.1 C 61 % 16.11 C
1974 17-06-2019 20:25:00 23.8 C 61 % 15.83 C
1975 17-06-2019 20:30:00 23.6 C 61 % 15.64 C
Sensor: Nr:Datum:Temp:Feuchte:Taupunkt:
Aussen-T/F 1976 17-06-2019 20:35:00 23.2 C 63 % 15.77 C
1977 17-06-2019 20:40:00 22.9 C 63 % 15.48 C
1978 17-06-2019 20:45:00 22.6 C 63 % 15.2 C
1979 17-06-2019 20:50:00 22.3 C 64 % 15.16 C
1980 17-06-2019 20:55:00 22.1 C 65 % 15.21 C
1981 17-06-2019 21:00:00 21.8 C 66 % 15.17 C
1982 17-06-2019 21:05:00 21.6 C 67 % 15.21 C
1983 17-06-2019 21:10:00 21.3 C 66 % 14.69 C
1984 17-06-2019 21:15:00 21.2 C 67 % 14.83 C
1985 17-06-2019 21:20:00 21 C 67 % 14.64 C
1986 17-06-2019 21:25:00 20.8 C 68 % 14.68 C
1987 17-06-2019 21:30:00 20.7 C 68 % 14.58 C
1988 17-06-2019 21:35:00 20.5 C 69 % 14.62 C
1989 17-06-2019 21:40:00 20.3 C 69 % 14.43 C
1990 17-06-2019 21:45:00 20.2 C 70 % 14.56 C
1991 17-06-2019 21:50:00 20.1 C 70 % 14.46 C
1992 17-06-2019 21:55:00 19.9 C 70 % 14.27 C
1993 17-06-2019 22:00:00 19.8 C 72 % 14.61 C
1994 17-06-2019 22:05:00 19.7 C 73 % 14.73 C
1995 17-06-2019 22:10:00 19.3 C 73 % 14.34 C
1996 17-06-2019 22:15:00 19.1 C 74 % 14.36 C
1997 17-06-2019 22:20:00 18.9 C 74 % 14.17 C
1998 17-06-2019 22:25:00 18.7 C 75 % 14.18 C
1999 17-06-2019 22:30:00 18.6 C 76 % 14.29 C
2000 17-06-2019 22:35:00 18.4 C 76 % 14.1 C
Sensor: Nr:Datum:Temp:Feuchte:Taupunkt:
Aussen-T/F 2001 17-06-2019 22:40:00 18.3 C 77 % 14.2 C
2002 17-06-2019 22:45:00 18.2 C 77 % 14.1 C
2003 17-06-2019 22:50:00 18 C 78 % 14.11 C
2004 17-06-2019 22:55:00 17.8 C 78 % 13.91 C
2005 17-06-2019 23:00:00 17.7 C 79 % 14.01 C
2006 17-06-2019 23:05:00 17.5 C 79 % 13.82 C
2007 17-06-2019 23:10:00 17.4 C 79 % 13.72 C
2008 17-06-2019 23:15:00 17.3 C 80 % 13.82 C
2009 17-06-2019 23:20:00 17.2 C 81 % 13.91 C
2010 17-06-2019 23:25:00 17.1 C 81 % 13.82 C
2011 17-06-2019 23:30:00 17 C 81 % 13.72 C
2012 17-06-2019 23:35:00 16.9 C 82 % 13.81 C
2013 17-06-2019 23:40:00 16.8 C 82 % 13.71 C
2014 17-06-2019 23:45:00 16.7 C 82 % 13.61 C
2015 17-06-2019 23:50:00 16.6 C 82 % 13.52 C
2016 17-06-2019 23:55:00 16.6 C 82 % 13.52 C
2017 18-06-2019 00:00:00 16.4 C 83 % 13.51 C
2018 18-06-2019 00:05:00 16.3 C 83 % 13.41 C
2019 18-06-2019 00:10:00 16.2 C 83 % 13.31 C
2020 18-06-2019 00:15:00 16.1 C 84 % 13.4 C
2021 18-06-2019 00:20:00 16 C 84 % 13.3 C
2022 18-06-2019 00:25:00 15.9 C 85 % 13.38 C
2023 18-06-2019 00:30:00 15.8 C 85 % 13.28 C
2024 18-06-2019 00:35:00 15.7 C 85 % 13.19 C
2025 18-06-2019 00:40:00 15.6 C 85 % 13.09 C
Sensor: Nr:Datum:Temp:Feuchte:Taupunkt:
Aussen-T/F 2026 18-06-2019 00:45:00 15.6 C 85 % 13.09 C
2027 18-06-2019 00:50:00 15.4 C 86 % 13.07 C
2028 18-06-2019 00:55:00 15.4 C 86 % 13.07 C
2029 18-06-2019 01:00:00 15.3 C 86 % 12.97 C
2030 18-06-2019 01:05:00 15.3 C 86 % 12.97 C
2031 18-06-2019 01:10:00 15.3 C 87 % 13.15 C
2032 18-06-2019 01:15:00 15.2 C 87 % 13.05 C
2033 18-06-2019 01:20:00 15.2 C 87 % 13.05 C
2034 18-06-2019 01:25:00 15.2 C 87 % 13.05 C
2035 18-06-2019 01:30:00 15.1 C 87 % 12.95 C
2036 18-06-2019 01:35:00 15.1 C 87 % 12.95 C
2037 18-06-2019 01:40:00 14.9 C 88 % 12.93 C
2038 18-06-2019 01:45:00 14.9 C 88 % 12.93 C
2039 18-06-2019 01:50:00 14.8 C 88 % 12.83 C
2040 18-06-2019 01:55:00 14.8 C 89 % 13.01 C
2041 18-06-2019 02:00:00 14.8 C 89 % 13.01 C
2042 18-06-2019 02:05:00 14.8 C 88 % 12.83 C
2043 18-06-2019 02:10:00 14.7 C 88 % 12.73 C
2044 18-06-2019 02:15:00 14.6 C 89 % 12.81 C
2045 18-06-2019 02:20:00 14.6 C 89 % 12.81 C
2046 18-06-2019 02:25:00 14.4 C 89 % 12.61 C
2047 18-06-2019 02:30:00 14.3 C 89 % 12.51 C
2048 18-06-2019 02:35:00 14.3 C 89 % 12.51 C
2049 18-06-2019 02:40:00 14.3 C 90 % 12.68 C
2050 18-06-2019 02:45:00 14.2 C 90 % 12.58 C
Sensor: Nr:Datum:Temp:Feuchte:Taupunkt:
Aussen-T/F 2051 18-06-2019 02:50:00 14.1 C 90 % 12.49 C
2052 18-06-2019 02:55:00 14.1 C 90 % 12.49 C
2053 18-06-2019 03:00:00 14 C 90 % 12.39 C
2054 18-06-2019 03:05:00 13.9 C 91 % 12.46 C
2055 18-06-2019 03:10:00 13.9 C 90 % 12.29 C
2056 18-06-2019 03:15:00 13.8 C 91 % 12.36 C
2057 18-06-2019 03:20:00 13.8 C 91 % 12.36 C
2058 18-06-2019 03:25:00 13.7 C 91 % 12.26 C
2059 18-06-2019 03:30:00 13.7 C 92 % 12.42 C
2060 18-06-2019 03:35:00 13.7 C 92 % 12.42 C
2061 18-06-2019 03:40:00 13.7 C 92 % 12.42 C
2062 18-06-2019 03:45:00 13.8 C 92 % 12.52 C
2063 18-06-2019 03:50:00 13.8 C 92 % 12.52 C
2064 18-06-2019 03:55:00 13.8 C 92 % 12.52 C
2065 18-06-2019 04:00:00 13.8 C 92 % 12.52 C
2066 18-06-2019 04:05:00 13.8 C 92 % 12.52 C
2067 18-06-2019 04:10:00 13.8 C 92 % 12.52 C
2068 18-06-2019 04:15:00 13.8 C 92 % 12.52 C
2069 18-06-2019 04:20:00 13.8 C 92 % 12.52 C
2070 18-06-2019 04:25:00 13.8 C 92 % 12.52 C
2071 18-06-2019 04:30:00 13.8 C 93 % 12.69 C
2072 18-06-2019 04:35:00 13.8 C 92 % 12.52 C
2073 18-06-2019 04:40:00 13.8 C 92 % 12.52 C
2074 18-06-2019 04:45:00 13.8 C 92 % 12.52 C
2075 18-06-2019 04:50:00 13.8 C 93 % 12.69 C
Sensor: Nr:Datum:Temp:Feuchte:Taupunkt:
Aussen-T/F 2076 18-06-2019 04:55:00 13.8 C 93 % 12.69 C
2077 18-06-2019 05:00:00 13.8 C 92 % 12.52 C
2078 18-06-2019 05:05:00 13.8 C 93 % 12.69 C
2079 18-06-2019 05:10:00 13.8 C 93 % 12.69 C
2080 18-06-2019 05:15:00 13.8 C 93 % 12.69 C
2081 18-06-2019 05:20:00 13.8 C 92 % 12.52 C
2082 18-06-2019 05:25:00 13.7 C 92 % 12.42 C
2083 18-06-2019 05:30:00 13.6 C 92 % 12.33 C
2084 18-06-2019 05:35:00 13.6 C 92 % 12.33 C
2085 18-06-2019 05:40:00 13.5 C 92 % 12.23 C
2086 18-06-2019 05:45:00 13.4 C 92 % 12.13 C
2087 18-06-2019 05:50:00 13.4 C 93 % 12.29 C
2088 18-06-2019 05:55:00 13.3 C 93 % 12.19 C
2089 18-06-2019 06:00:00 13.3 C 93 % 12.19 C
2090 18-06-2019 06:05:00 13.3 C 93 % 12.19 C
2091 18-06-2019 06:10:00 13.3 C 93 % 12.19 C
2092 18-06-2019 06:15:00 13.3 C 94 % 12.36 C
2093 18-06-2019 06:20:00 13.4 C 94 % 12.45 C
2094 18-06-2019 06:25:00 13.6 C 94 % 12.65 C
2095 18-06-2019 06:30:00 13.7 C 94 % 12.75 C
2096 18-06-2019 06:35:00 13.8 C 94 % 12.85 C
2097 18-06-2019 06:40:00 13.9 C 94 % 12.95 C
2098 18-06-2019 06:45:00 14 C 94 % 13.05 C
2099 18-06-2019 06:50:00 14.1 C 94 % 13.15 C
2100 18-06-2019 06:55:00 14.1 C 94 % 13.15 C
Sensor: Nr:Datum:Temp:Feuchte:Taupunkt:
Aussen-T/F 2101 18-06-2019 07:00:00 14.2 C 94 % 13.25 C
2102 18-06-2019 07:05:00 14.3 C 94 % 13.35 C
2103 18-06-2019 07:10:00 14.3 C 93 % 13.18 C
2104 18-06-2019 07:15:00 14.5 C 94 % 13.55 C
2105 18-06-2019 07:20:00 14.6 C 93 % 13.48 C
2106 18-06-2019 07:25:00 14.7 C 92 % 13.41 C
2107 18-06-2019 07:30:00 14.8 C 92 % 13.51 C
2108 18-06-2019 07:35:00 14.9 C 91 % 13.44 C
2109 18-06-2019 07:40:00 15 C 91 % 13.54 C
2110 18-06-2019 07:45:00 15.1 C 91 % 13.64 C
2111 18-06-2019 07:50:00 15.3 C 91 % 13.84 C
2112 18-06-2019 07:55:00 15.3 C 90 % 13.67 C
2113 18-06-2019 08:00:00 15.4 C 89 % 13.6 C
2114 18-06-2019 08:05:00 15.6 C 89 % 13.79 C
2115 18-06-2019 08:10:00 15.7 C 90 % 14.06 C
2116 18-06-2019 08:15:00 15.8 C 90 % 14.16 C
2117 18-06-2019 08:20:00 15.9 C 90 % 14.26 C
2118 18-06-2019 08:25:00 16.1 C 91 % 14.63 C
2119 18-06-2019 08:30:00 16.1 C 90 % 14.46 C
2120 18-06-2019 08:35:00 16.2 C 90 % 14.56 C
2121 18-06-2019 08:40:00 16.2 C 90 % 14.56 C
2122 18-06-2019 08:45:00 16.3 C 91 % 14.83 C
2123 18-06-2019 08:50:00 16.4 C 90 % 14.76 C
2124 18-06-2019 08:55:00 16.5 C 90 % 14.85 C
2125 18-06-2019 09:00:00 16.6 C 90 % 14.95 C
Sensor: Nr:Datum:Temp:Feuchte:Taupunkt:
Aussen-T/F 2126 18-06-2019 09:05:00 16.7 C 91 % 15.22 C
2127 18-06-2019 09:10:00 16.8 C 90 % 15.15 C
2128 18-06-2019 09:15:00 17 C 90 % 15.35 C
2129 18-06-2019 09:20:00 17.2 C 89 % 15.37 C
2130 18-06-2019 09:25:00 17.4 C 89 % 15.57 C
2131 18-06-2019 09:30:00 17.8 C 88 % 15.79 C
2132 18-06-2019 09:35:00 18.1 C 87 % 15.9 C
2133 18-06-2019 09:40:00 18.2 C 87 % 16 C
2134 18-06-2019 09:45:00 18.4 C 86 % 16.02 C
2135 18-06-2019 09:50:00 18.7 C 86 % 16.31 C
2136 18-06-2019 09:55:00 18.9 C 86 % 16.51 C
2137 18-06-2019 10:00:00 19.1 C 86 % 16.7 C
2138 18-06-2019 10:05:00 19.2 C 86 % 16.8 C
2139 18-06-2019 10:10:00 19.3 C 86 % 16.9 C
2140 18-06-2019 10:15:00 19.6 C 85 % 17.01 C
2141 18-06-2019 10:20:00 19.9 C 85 % 17.3 C
2142 18-06-2019 10:25:00 20.3 C 84 % 17.51 C
2143 18-06-2019 10:30:00 20.9 C 82 % 17.71 C
2144 18-06-2019 10:35:00 21.4 C 82 % 18.2 C
2145 18-06-2019 10:40:00 21.8 C 79 % 18 C
2146 18-06-2019 10:45:00 22.4 C 79 % 18.58 C
2147 18-06-2019 10:50:00 22.8 C 78 % 18.76 C
2148 18-06-2019 10:55:00 23 C 76 % 18.54 C
2149 18-06-2019 11:00:00 23.1 C 74 % 18.21 C
2150 18-06-2019 11:05:00 23.1 C 73 % 17.99 C
Sensor: Nr:Datum:Temp:Feuchte:Taupunkt:
Aussen-T/F 2151 18-06-2019 11:10:00 23.3 C 72 % 17.97 C
2152 18-06-2019 11:15:00 23.7 C 70 % 17.9 C
2153 18-06-2019 11:20:00 24.1 C 67 % 17.59 C
2154 18-06-2019 11:25:00 24.3 C 66 % 17.54 C
2155 18-06-2019 11:30:00 24.6 C 71 % 18.99 C
2156 18-06-2019 11:35:00 24.6 C 70 % 18.76 C
2157 18-06-2019 11:40:00 24.7 C 65 % 17.68 C
2158 18-06-2019 11:45:00 24.9 C 64 % 17.62 C
2159 18-06-2019 11:50:00 25.2 C 63 % 17.65 C
2160 18-06-2019 11:55:00 25.6 C 59 % 16.99 C
2161 18-06-2019 12:00:00 25.9 C 58 % 17 C
2162 18-06-2019 12:05:00 26.3 C 62 % 18.44 C
2163 18-06-2019 12:10:00 26.4 C 65 % 19.29 C
2164 18-06-2019 12:15:00 26.4 C 61 % 18.27 C
2165 18-06-2019 12:20:00 26.4 C 56 % 16.92 C
2166 18-06-2019 12:25:00 26.4 C 61 % 18.27 C
2167 18-06-2019 12:30:00 26.5 C 56 % 17.01 C
2168 18-06-2019 12:35:00 26.8 C 47 % 14.55 C
2169 18-06-2019 12:40:00 27.2 C 45 % 14.24 C
2170 18-06-2019 12:45:00 27.5 C 46 % 14.85 C
2171 18-06-2019 12:50:00 27.8 C 46 % 15.12 C
2172 18-06-2019 12:55:00 27.8 C 44 % 14.43 C
2173 18-06-2019 13:00:00 27.9 C 46 % 15.21 C
2174 18-06-2019 13:05:00 28 C 45 % 14.96 C
2175 18-06-2019 13:10:00 28.1 C 48 % 16.06 C
Sensor: Nr:Datum:Temp:Feuchte:Taupunkt:
Aussen-T/F 2176 18-06-2019 13:15:00 28.2 C 50 % 16.79 C
2177 18-06-2019 13:20:00 28.1 C 45 % 15.05 C
2178 18-06-2019 13:25:00 28.1 C 51 % 17.01 C
2179 18-06-2019 13:30:00 28.1 C 51 % 17.01 C
2180 18-06-2019 13:35:00 28 C 47 % 15.64 C
2181 18-06-2019 13:40:00 28 C 46 % 15.3 C
2182 18-06-2019 13:45:00 28.2 C 46 % 15.48 C
2183 18-06-2019 13:50:00 28.3 C 45 % 15.23 C
2184 18-06-2019 13:55:00 28.5 C 44 % 15.06 C
2185 18-06-2019 14:00:00 28.6 C 44 % 15.15 C
2186 18-06-2019 14:05:00 28.6 C 46 % 15.85 C
2187 18-06-2019 14:10:00 28.6 C 47 % 16.18 C
2188 18-06-2019 14:15:00 28.6 C 45 % 15.5 C
2189 18-06-2019 14:20:00 28.6 C 45 % 15.5 C
2190 18-06-2019 14:25:00 28.7 C 47 % 16.27 C
2191 18-06-2019 14:30:00 28.8 C 44 % 15.33 C
2192 18-06-2019 14:35:00 28.9 C 46 % 16.12 C
2193 18-06-2019 14:40:00 28.9 C 45 % 15.77 C
2194 18-06-2019 14:45:00 29.1 C 44 % 15.6 C
2195 18-06-2019 14:50:00 29.2 C 43 % 15.33 C
2196 18-06-2019 14:55:00 29.3 C 48 % 17.15 C
2197 18-06-2019 15:00:00 29.4 C 44 % 15.87 C
2198 18-06-2019 15:05:00 29.4 C 47 % 16.91 C
2199 18-06-2019 15:10:00 29.6 C 43 % 15.69 C
2200 18-06-2019 15:15:00 29.7 C 42 % 15.42 C
Sensor: Nr:Datum:Temp:Feuchte:Taupunkt:
Aussen-T/F 2201 18-06-2019 15:20:00 29.7 C 45 % 16.5 C
2202 18-06-2019 15:25:00 29.9 C 46 % 17.02 C
2203 18-06-2019 15:30:00 30.1 C 44 % 16.5 C
2204 18-06-2019 15:35:00 30.3 C 42 % 15.95 C
2205 18-06-2019 15:40:00 30.3 C 43 % 16.32 C
2206 18-06-2019 15:45:00 30.1 C 42 % 15.77 C
2207 18-06-2019 15:50:00 29.8 C 42 % 15.51 C
2208 18-06-2019 15:55:00 29.6 C 42 % 15.33 C
2209 18-06-2019 16:00:00 29.3 C 45 % 16.13 C
2210 18-06-2019 16:05:00 29.2 C 43 % 15.33 C
2211 18-06-2019 16:10:00 29.1 C 47 % 16.64 C
2212 18-06-2019 16:15:00 29.1 C 52 % 18.24 C
2213 18-06-2019 16:20:00 29.2 C 46 % 16.39 C
2214 18-06-2019 16:25:00 29.4 C 48 % 17.24 C
2215 18-06-2019 16:30:00 29.6 C 49 % 17.75 C
2216 18-06-2019 16:35:00 29.8 C 44 % 16.23 C
2217 18-06-2019 16:40:00 30.1 C 43 % 16.14 C
2218 18-06-2019 16:45:00 30.2 C 51 % 18.94 C
2219 18-06-2019 16:50:00 30.1 C 43 % 16.14 C
2220 18-06-2019 16:55:00 29.8 C 42 % 15.51 C
2221 18-06-2019 17:00:00 29.7 C 55 % 19.69 C
2222 18-06-2019 17:05:00 29.5 C 56 % 19.79 C
2223 18-06-2019 17:10:00 29.4 C 51 % 18.2 C
2224 18-06-2019 17:15:00 29.4 C 54 % 19.12 C
2225 18-06-2019 17:20:00 29.6 C 57 % 20.17 C
Sensor: Nr:Datum:Temp:Feuchte:Taupunkt:
Aussen-T/F 2226 18-06-2019 17:25:00 29.6 C 50 % 18.07 C
2227 18-06-2019 17:30:00 29.6 C 54 % 19.3 C
2228 18-06-2019 17:35:00 29.6 C 59 % 20.73 C
2229 18-06-2019 17:40:00 29.4 C 54 % 19.12 C
2230 18-06-2019 17:45:00 29.4 C 61 % 21.09 C
2231 18-06-2019 17:50:00 29.3 C 62 % 21.26 C
2232 18-06-2019 17:55:00 29.3 C 64 % 21.78 C
2233 18-06-2019 18:00:00 29.2 C 60 % 20.63 C
2234 18-06-2019 18:05:00 29.2 C 63 % 21.43 C
2235 18-06-2019 18:10:00 29.1 C 50 % 17.61 C
2236 18-06-2019 18:15:00 29.3 C 57 % 19.89 C
2237 18-06-2019 18:20:00 29.4 C 55 % 19.41 C
2238 18-06-2019 18:25:00 29.6 C 59 % 20.73 C
2239 18-06-2019 18:30:00 29.7 C 58 % 20.55 C
2240 18-06-2019 18:35:00 29.8 C 49 % 17.93 C
2241 18-06-2019 18:40:00 30.2 C 55 % 20.15 C
2242 18-06-2019 18:45:00 30.5 C 53 % 19.83 C
2243 18-06-2019 18:50:00 30.4 C 48 % 18.15 C
2244 18-06-2019 18:55:00 30.3 C 55 % 20.25 C
2245 18-06-2019 19:00:00 29.9 C 56 % 20.17 C
2246 18-06-2019 19:05:00 29.6 C 58 % 20.46 C
2247 18-06-2019 19:10:00 29.2 C 58 % 20.08 C
2248 18-06-2019 19:15:00 28.8 C 59 % 19.99 C
2249 18-06-2019 19:20:00 28.4 C 60 % 19.88 C
2250 18-06-2019 19:25:00 28 C 60 % 19.51 C
Sensor: Nr:Datum:Temp:Feuchte:Taupunkt:
Aussen-T/F 2251 18-06-2019 19:30:00 27.7 C 61 % 19.49 C
2252 18-06-2019 19:35:00 27.3 C 61 % 19.12 C
2253 18-06-2019 19:40:00 26.9 C 62 % 19 C
2254 18-06-2019 19:45:00 26.7 C 63 % 19.07 C
2255 18-06-2019 19:50:00 26.5 C 64 % 19.13 C
2256 18-06-2019 19:55:00 26.4 C 65 % 19.29 C
2257 18-06-2019 20:00:00 26.3 C 64 % 18.94 C
2258 18-06-2019 20:05:00 26.3 C 65 % 19.19 C
2259 18-06-2019 20:10:00 26.3 C 64 % 18.94 C
2260 18-06-2019 20:15:00 26.2 C 64 % 18.85 C
2261 18-06-2019 20:20:00 26.1 C 64 % 18.76 C
2262 18-06-2019 20:25:00 26.1 C 64 % 18.76 C
2263 18-06-2019 20:30:00 26.2 C 64 % 18.85 C
2264 18-06-2019 20:35:00 26.2 C 63 % 18.6 C
2265 18-06-2019 20:40:00 26.1 C 63 % 18.5 C
2266 18-06-2019 20:45:00 25.8 C 63 % 18.22 C
2267 18-06-2019 20:50:00 25.6 C 63 % 18.03 C
2268 18-06-2019 20:55:00 25.2 C 64 % 17.9 C
2269 18-06-2019 21:00:00 24.9 C 65 % 17.87 C
2270 18-06-2019 21:05:00 24.7 C 66 % 17.92 C
2271 18-06-2019 21:10:00 24.4 C 67 % 17.87 C
2272 18-06-2019 21:15:00 24.3 C 67 % 17.78 C
2273 18-06-2019 21:20:00 24.1 C 67 % 17.59 C
2274 18-06-2019 21:25:00 23.8 C 68 % 17.54 C
2275 18-06-2019 21:30:00 23.6 C 69 % 17.58 C
Sensor: Nr:Datum:Temp:Feuchte:Taupunkt:
Aussen-T/F 2276 18-06-2019 21:35:00 23.3 C 69 % 17.29 C
2277 18-06-2019 21:40:00 23.2 C 69 % 17.2 C
2278 18-06-2019 21:45:00 23 C 70 % 17.23 C
2279 18-06-2019 21:50:00 22.8 C 70 % 17.04 C
2280 18-06-2019 21:55:00 22.7 C 70 % 16.95 C
2281 18-06-2019 22:00:00 22.5 C 71 % 16.98 C
2282 18-06-2019 22:05:00 22.3 C 72 % 17.01 C
2283 18-06-2019 22:10:00 22.1 C 72 % 16.82 C
2284 18-06-2019 22:15:00 21.9 C 73 % 16.84 C
2285 18-06-2019 22:20:00 21.7 C 74 % 16.86 C
2286 18-06-2019 22:25:00 21.5 C 75 % 16.88 C
2287 18-06-2019 22:30:00 21.3 C 75 % 16.69 C
2288 18-06-2019 22:35:00 21.1 C 76 % 16.7 C
2289 18-06-2019 22:40:00 20.9 C 76 % 16.51 C
2290 18-06-2019 22:45:00 20.8 C 77 % 16.62 C
2291 18-06-2019 22:50:00 20.7 C 77 % 16.52 C
2292 18-06-2019 22:55:00 20.6 C 77 % 16.43 C
2293 18-06-2019 23:00:00 20.6 C 77 % 16.43 C
2294 18-06-2019 23:05:00 20.4 C 78 % 16.44 C
2295 18-06-2019 23:10:00 20.3 C 78 % 16.34 C
2296 18-06-2019 23:15:00 20.2 C 79 % 16.44 C
2297 18-06-2019 23:20:00 20 C 79 % 16.25 C
2298 18-06-2019 23:25:00 19.8 C 79 % 16.05 C
2299 18-06-2019 23:30:00 19.7 C 80 % 16.15 C
2300 18-06-2019 23:35:00 19.6 C 80 % 16.06 C
Sensor: Nr:Datum:Temp:Feuchte:Taupunkt:
Aussen-T/F 2301 18-06-2019 23:40:00 19.5 C 81 % 16.15 C
2302 18-06-2019 23:45:00 19.4 C 81 % 16.06 C
2303 18-06-2019 23:50:00 19.3 C 81 % 15.96 C
2304 18-06-2019 23:55:00 19.2 C 82 % 16.05 C
2305 19-06-2019 00:00:00 19.1 C 82 % 15.96 C
2306 19-06-2019 00:05:00 18.9 C 82 % 15.76 C
2307 19-06-2019 00:10:00 18.8 C 83 % 15.85 C
2308 19-06-2019 00:15:00 18.8 C 83 % 15.85 C
2309 19-06-2019 00:20:00 18.6 C 83 % 15.66 C
2310 19-06-2019 00:25:00 18.6 C 83 % 15.66 C
2311 19-06-2019 00:30:00 18.4 C 84 % 15.65 C
2312 19-06-2019 00:35:00 18.3 C 84 % 15.55 C
2313 19-06-2019 00:40:00 18.2 C 84 % 15.45 C
2314 19-06-2019 00:45:00 18.1 C 85 % 15.54 C
2315 19-06-2019 00:50:00 18.1 C 85 % 15.54 C
2316 19-06-2019 00:55:00 17.9 C 85 % 15.34 C
2317 19-06-2019 01:00:00 17.9 C 86 % 15.53 C
2318 19-06-2019 01:05:00 17.8 C 86 % 15.43 C
2319 19-06-2019 01:10:00 17.8 C 86 % 15.43 C
2320 19-06-2019 01:15:00 17.7 C 86 % 15.33 C
2321 19-06-2019 01:20:00 17.7 C 86 % 15.33 C
2322 19-06-2019 01:25:00 17.6 C 87 % 15.41 C
2323 19-06-2019 01:30:00 17.6 C 87 % 15.41 C
2324 19-06-2019 01:35:00 17.5 C 87 % 15.31 C
2325 19-06-2019 01:40:00 17.5 C 87 % 15.31 C
Sensor: Nr:Datum:Temp:Feuchte:Taupunkt:
Aussen-T/F 2326 19-06-2019 01:45:00 17.5 C 87 % 15.31 C
2327 19-06-2019 01:50:00 17.4 C 87 % 15.21 C
2328 19-06-2019 01:55:00 17.4 C 87 % 15.21 C
2329 19-06-2019 02:00:00 17.4 C 88 % 15.39 C
2330 19-06-2019 02:05:00 17.4 C 88 % 15.39 C
2331 19-06-2019 02:10:00 17.5 C 88 % 15.49 C
2332 19-06-2019 02:15:00 17.5 C 88 % 15.49 C
2333 19-06-2019 02:20:00 17.5 C 88 % 15.49 C
2334 19-06-2019 02:25:00 17.4 C 88 % 15.39 C
2335 19-06-2019 02:30:00 17.5 C 88 % 15.49 C
2336 19-06-2019 02:35:00 17.4 C 88 % 15.39 C
2337 19-06-2019 02:40:00 17.4 C 89 % 15.57 C
2338 19-06-2019 02:45:00 17.3 C 89 % 15.47 C
2339 19-06-2019 02:50:00 17.2 C 89 % 15.37 C
2340 19-06-2019 02:55:00 17.2 C 89 % 15.37 C
2341 19-06-2019 03:00:00 17.1 C 89 % 15.27 C
2342 19-06-2019 03:05:00 16.9 C 89 % 15.08 C
2343 19-06-2019 03:10:00 16.8 C 89 % 14.98 C
2344 19-06-2019 03:15:00 16.7 C 89 % 14.88 C
2345 19-06-2019 03:20:00 16.6 C 89 % 14.78 C
2346 19-06-2019 03:25:00 16.5 C 89 % 14.68 C
2347 19-06-2019 03:30:00 16.4 C 90 % 14.76 C
2348 19-06-2019 03:35:00 16.3 C 90 % 14.66 C
2349 19-06-2019 03:40:00 16.3 C 91 % 14.83 C
2350 19-06-2019 03:45:00 16.3 C 91 % 14.83 C
Sensor: Nr:Datum:Temp:Feuchte:Taupunkt:
Aussen-T/F 2351 19-06-2019 03:50:00 16.3 C 91 % 14.83 C
2352 19-06-2019 03:55:00 16.2 C 91 % 14.73 C
2353 19-06-2019 04:00:00 16.2 C 91 % 14.73 C
2354 19-06-2019 04:05:00 16.1 C 91 % 14.63 C
2355 19-06-2019 04:10:00 16.1 C 91 % 14.63 C
2356 19-06-2019 04:15:00 16 C 91 % 14.53 C
2357 19-06-2019 04:20:00 15.9 C 91 % 14.43 C
2358 19-06-2019 04:25:00 15.8 C 91 % 14.33 C
2359 19-06-2019 04:30:00 15.7 C 91 % 14.24 C
2360 19-06-2019 04:35:00 15.7 C 91 % 14.24 C
2361 19-06-2019 04:40:00 15.6 C 91 % 14.14 C
2362 19-06-2019 04:45:00 15.5 C 91 % 14.04 C
2363 19-06-2019 04:50:00 15.4 C 91 % 13.94 C
2364 19-06-2019 04:55:00 15.3 C 91 % 13.84 C
2365 19-06-2019 05:00:00 15.3 C 92 % 14.01 C
2366 19-06-2019 05:05:00 15.2 C 92 % 13.91 C
2367 19-06-2019 05:10:00 15.1 C 92 % 13.81 C
2368 19-06-2019 05:15:00 15.2 C 93 % 14.08 C
2369 19-06-2019 05:20:00 15.3 C 93 % 14.18 C
2370 19-06-2019 05:25:00 15.2 C 93 % 14.08 C
2371 19-06-2019 05:30:00 15.2 C 93 % 14.08 C
2372 19-06-2019 05:35:00 15.3 C 94 % 14.34 C
2373 19-06-2019 05:40:00 15.3 C 93 % 14.18 C
2374 19-06-2019 05:45:00 15.2 C 93 % 14.08 C
2375 19-06-2019 05:50:00 15 C 93 % 13.88 C
Sensor: Nr:Datum:Temp:Feuchte:Taupunkt:
Aussen-T/F 2376 19-06-2019 05:55:00 15 C 93 % 13.88 C
2377 19-06-2019 06:00:00 15 C 93 % 13.88 C
2378 19-06-2019 06:05:00 14.9 C 93 % 13.78 C
2379 19-06-2019 06:10:00 14.9 C 93 % 13.78 C
2380 19-06-2019 06:15:00 14.9 C 93 % 13.78 C
2381 19-06-2019 06:20:00 14.9 C 94 % 13.94 C
2382 19-06-2019 06:25:00 14.9 C 94 % 13.94 C
2383 19-06-2019 06:30:00 14.9 C 94 % 13.94 C
2384 19-06-2019 06:35:00 15 C 94 % 14.04 C
2385 19-06-2019 06:40:00 15 C 94 % 14.04 C
2386 19-06-2019 06:45:00 15.1 C 94 % 14.14 C
2387 19-06-2019 06:50:00 15.2 C 94 % 14.24 C
2388 19-06-2019 06:55:00 15.2 C 94 % 14.24 C
2389 19-06-2019 07:00:00 15.2 C 94 % 14.24 C
2390 19-06-2019 07:05:00 15.2 C 94 % 14.24 C
2391 19-06-2019 07:10:00 15.2 C 95 % 14.4 C
2392 19-06-2019 07:15:00 15.3 C 95 % 14.5 C
2393 19-06-2019 07:20:00 15.3 C 95 % 14.5 C
2394 19-06-2019 07:25:00 15.3 C 95 % 14.5 C
2395 19-06-2019 07:30:00 15.4 C 95 % 14.6 C
2396 19-06-2019 07:35:00 15.4 C 95 % 14.6 C
2397 19-06-2019 07:40:00 15.6 C 95 % 14.8 C
2398 19-06-2019 07:45:00 15.7 C 95 % 14.9 C
2399 19-06-2019 07:50:00 15.7 C 95 % 14.9 C
2400 19-06-2019 07:55:00 15.8 C 95 % 15 C
Sensor: Nr:Datum:Temp:Feuchte:Taupunkt:
Aussen-T/F 2401 19-06-2019 08:00:00 15.9 C 95 % 15.1 C
2402 19-06-2019 08:05:00 16 C 95 % 15.2 C
2403 19-06-2019 08:10:00 16.1 C 95 % 15.3 C
2404 19-06-2019 08:15:00 16.2 C 95 % 15.4 C
2405 19-06-2019 08:20:00 16.4 C 95 % 15.6 C
2406 19-06-2019 08:25:00 16.5 C 95 % 15.7 C
2407 19-06-2019 08:30:00 16.6 C 95 % 15.8 C
2408 19-06-2019 08:35:00 16.7 C 95 % 15.9 C
2409 19-06-2019 08:40:00 16.8 C 95 % 15.99 C
2410 19-06-2019 08:45:00 16.9 C 95 % 16.09 C
2411 19-06-2019 08:50:00 17.1 C 95 % 16.29 C
2412 19-06-2019 08:55:00 17.3 C 95 % 16.49 C
2413 19-06-2019 09:00:00 17.4 C 95 % 16.59 C
2414 19-06-2019 09:05:00 17.6 C 95 % 16.79 C
2415 19-06-2019 09:10:00 17.7 C 95 % 16.89 C
2416 19-06-2019 09:15:00 17.9 C 95 % 17.09 C
2417 19-06-2019 09:20:00 18.1 C 94 % 17.12 C
2418 19-06-2019 09:25:00 18.2 C 94 % 17.22 C
2419 19-06-2019 09:30:00 18.4 C 94 % 17.42 C
2420 19-06-2019 09:35:00 18.7 C 94 % 17.71 C
2421 19-06-2019 09:40:00 18.9 C 93 % 17.74 C
2422 19-06-2019 09:45:00 19.2 C 93 % 18.04 C
2423 19-06-2019 09:50:00 19.6 C 92 % 18.26 C
2424 19-06-2019 09:55:00 19.9 C 92 % 18.56 C
2425 19-06-2019 10:00:00 20.3 C 91 % 18.78 C
Sensor: Nr:Datum:Temp:Feuchte:Taupunkt:
Aussen-T/F 2426 19-06-2019 10:05:00 20.8 C 89 % 18.92 C
2427 19-06-2019 10:10:00 21.2 C 86 % 18.76 C
2428 19-06-2019 10:15:00 21.6 C 85 % 18.97 C
2429 19-06-2019 10:20:00 22.2 C 81 % 18.78 C
2430 19-06-2019 10:25:00 22.8 C 80 % 19.17 C
2431 19-06-2019 10:30:00 23.8 C 68 % 17.54 C
2432 19-06-2019 10:35:00 24.7 C 64 % 17.43 C
2433 19-06-2019 10:40:00 25.4 C 62 % 17.59 C
2434 19-06-2019 10:45:00 25.9 C 62 % 18.06 C
2435 19-06-2019 10:50:00 26.2 C 57 % 17.01 C
2436 19-06-2019 10:55:00 26.4 C 56 % 16.92 C
2437 19-06-2019 11:00:00 26.5 C 57 % 17.29 C
2438 19-06-2019 11:05:00 26.6 C 55 % 16.82 C
2439 19-06-2019 11:10:00 26.6 C 55 % 16.82 C
2440 19-06-2019 11:15:00 26.7 C 54 % 16.62 C
2441 19-06-2019 11:20:00 26.8 C 52 % 16.12 C
2442 19-06-2019 11:25:00 26.9 C 53 % 16.51 C
2443 19-06-2019 11:30:00 27 C 51 % 16 C
2444 19-06-2019 11:35:00 26.9 C 53 % 16.51 C
2445 19-06-2019 11:40:00 26.8 C 55 % 17 C
2446 19-06-2019 11:45:00 26.8 C 54 % 16.71 C
2447 19-06-2019 11:50:00 26.9 C 55 % 17.09 C
2448 19-06-2019 11:55:00 26.8 C 55 % 17 C
2449 19-06-2019 12:00:00 26.9 C 55 % 17.09 C
2450 19-06-2019 12:05:00 26.9 C 57 % 17.66 C
Sensor: Nr:Datum:Temp:Feuchte:Taupunkt:
Aussen-T/F 2451 19-06-2019 12:10:00 27 C 59 % 18.3 C
2452 19-06-2019 12:15:00 27 C 54 % 16.9 C
2453 19-06-2019 12:20:00 26.9 C 54 % 16.81 C
2454 19-06-2019 12:25:00 26.8 C 56 % 17.29 C
2455 19-06-2019 12:30:00 26.5 C 54 % 16.44 C
2456 19-06-2019 12:35:00 26.4 C 61 % 18.27 C
2457 19-06-2019 12:40:00 26.2 C 63 % 18.6 C
2458 19-06-2019 12:45:00 25.9 C 66 % 19.06 C
2459 19-06-2019 12:50:00 25.7 C 68 % 19.35 C
2460 19-06-2019 12:55:00 25.5 C 68 % 19.16 C
2461 19-06-2019 13:00:00 25.3 C 69 % 19.2 C
2462 19-06-2019 13:05:00 25.2 C 70 % 19.34 C
2463 19-06-2019 13:10:00 25.1 C 72 % 19.69 C
2464 19-06-2019 13:15:00 25.1 C 71 % 19.47 C
2465 19-06-2019 13:20:00 25.2 C 72 % 19.79 C
2466 19-06-2019 13:25:00 25.3 C 60 % 16.98 C
2467 19-06-2019 13:30:00 25.8 C 58 % 16.91 C
2468 19-06-2019 13:35:00 26.4 C 62 % 18.53 C
2469 19-06-2019 13:40:00 26.7 C 60 % 18.29 C
2470 19-06-2019 13:45:00 27 C 55 % 17.19 C
2471 19-06-2019 13:50:00 27.3 C 57 % 18.03 C
2472 19-06-2019 13:55:00 27.6 C 50 % 16.24 C
2473 19-06-2019 14:00:00 27.8 C 49 % 16.11 C
2474 19-06-2019 14:05:00 27.7 C 52 % 16.95 C
2475 19-06-2019 14:10:00 27.6 C 55 % 17.74 C
Sensor: Nr:Datum:Temp:Feuchte:Taupunkt:
Aussen-T/F 2476 19-06-2019 14:15:00 27.4 C 53 % 16.97 C
2477 19-06-2019 14:20:00 27.1 C 52 % 16.4 C
2478 19-06-2019 14:25:00 26.8 C 52 % 16.12 C
2479 19-06-2019 14:30:00 26.7 C 55 % 16.91 C
2480 19-06-2019 14:35:00 26.7 C 53 % 16.33 C
2481 19-06-2019 14:40:00 26.5 C 55 % 16.72 C
2482 19-06-2019 14:45:00 26.6 C 57 % 17.38 C
2483 19-06-2019 14:50:00 26.7 C 54 % 16.62 C
2484 19-06-2019 14:55:00 26.5 C 55 % 16.72 C
2485 19-06-2019 15:00:00 26.2 C 56 % 16.73 C
2486 19-06-2019 15:05:00 26.1 C 57 % 16.92 C
2487 19-06-2019 15:10:00 26.2 C 61 % 18.08 C
2488 19-06-2019 15:15:00 26.5 C 61 % 18.36 C
2489 19-06-2019 15:20:00 27.1 C 57 % 17.85 C
2490 19-06-2019 15:25:00 27.1 C 56 % 17.57 C
2491 19-06-2019 15:30:00 26.9 C 56 % 17.38 C
2492 19-06-2019 15:35:00 27 C 59 % 18.3 C
2493 19-06-2019 15:40:00 27.7 C 58 % 18.68 C
2494 19-06-2019 15:45:00 28.6 C 56 % 18.96 C
2495 19-06-2019 15:50:00 28.9 C 53 % 18.36 C
2496 19-06-2019 15:55:00 28.7 C 52 % 17.87 C
2497 19-06-2019 16:00:00 28.4 C 53 % 17.9 C
2498 19-06-2019 16:05:00 28.7 C 51 % 17.56 C
2499 19-06-2019 16:10:00 29.1 C 52 % 18.24 C
2500 19-06-2019 16:15:00 29.3 C 50 % 17.8 C
Sensor: Nr:Datum:Temp:Feuchte:Taupunkt:
Aussen-T/F 2501 19-06-2019 16:20:00 29.6 C 50 % 18.07 C
2502 19-06-2019 16:25:00 29.9 C 46 % 17.02 C
2503 19-06-2019 16:30:00 29.9 C 51 % 18.66 C
2504 19-06-2019 16:35:00 30.2 C 51 % 18.94 C
2505 19-06-2019 16:40:00 30.6 C 48 % 18.33 C
2506 19-06-2019 16:45:00 31.1 C 45 % 17.76 C
2507 19-06-2019 16:50:00 31.2 C 43 % 17.13 C
2508 19-06-2019 16:55:00 31.1 C 44 % 17.4 C
2509 19-06-2019 17:00:00 31.1 C 44 % 17.4 C
2510 19-06-2019 17:05:00 30.9 C 44 % 17.22 C
2511 19-06-2019 17:10:00 31 C 42 % 16.58 C
2512 19-06-2019 17:15:00 31.3 C 41 % 16.47 C
2513 19-06-2019 17:20:00 31.3 C 42 % 16.85 C
2514 19-06-2019 17:25:00 31.4 C 39 % 15.78 C
2515 19-06-2019 17:30:00 31.4 C 40 % 16.17 C
2516 19-06-2019 17:35:00 31.6 C 41 % 16.74 C
2517 19-06-2019 17:40:00 31.6 C 41 % 16.74 C
2518 19-06-2019 17:45:00 31.4 C 40 % 16.17 C
2519 19-06-2019 17:50:00 31.3 C 40 % 16.08 C
2520 19-06-2019 17:55:00 30.8 C 41 % 16.02 C
2521 19-06-2019 18:00:00 30.6 C 48 % 18.33 C
2522 19-06-2019 18:05:00 30.3 C 50 % 18.71 C
2523 19-06-2019 18:10:00 29.8 C 53 % 19.19 C
2524 19-06-2019 18:15:00 29.3 C 53 % 18.73 C
2525 19-06-2019 18:20:00 28.8 C 56 % 19.14 C
Sensor: Nr:Datum:Temp:Feuchte:Taupunkt:
Aussen-T/F 2526 19-06-2019 18:25:00 28.3 C 57 % 18.96 C
2527 19-06-2019 18:30:00 27.8 C 57 % 18.5 C
2528 19-06-2019 18:35:00 27.4 C 58 % 18.4 C
2529 19-06-2019 18:40:00 27.1 C 60 % 18.66 C
2530 19-06-2019 18:45:00 27 C 64 % 19.61 C
2531 19-06-2019 18:50:00 27.1 C 62 % 19.19 C
2532 19-06-2019 18:55:00 27.3 C 61 % 19.12 C
2533 19-06-2019 19:00:00 28.2 C 55 % 18.3 C
2534 19-06-2019 19:05:00 29.2 C 51 % 18.02 C
2535 19-06-2019 19:10:00 29.8 C 47 % 17.27 C
2536 19-06-2019 19:15:00 30 C 47 % 17.45 C
2537 19-06-2019 19:20:00 30.1 C 46 % 17.2 C
2538 19-06-2019 19:25:00 29.8 C 47 % 17.27 C
2539 19-06-2019 19:30:00 29.3 C 54 % 19.02 C
2540 19-06-2019 19:35:00 28.9 C 54 % 18.66 C
2541 19-06-2019 19:40:00 28.6 C 58 % 19.52 C
2542 19-06-2019 19:45:00 28.2 C 58 % 19.15 C
2543 19-06-2019 19:50:00 27.8 C 59 % 19.05 C
2544 19-06-2019 19:55:00 27.4 C 61 % 19.21 C
2545 19-06-2019 20:00:00 27 C 61 % 18.83 C
2546 19-06-2019 20:05:00 26.6 C 61 % 18.46 C
2547 19-06-2019 20:10:00 26.1 C 63 % 18.5 C
2548 19-06-2019 20:15:00 25.8 C 64 % 18.47 C
2549 19-06-2019 20:20:00 25.4 C 65 % 18.34 C
2550 19-06-2019 20:25:00 25.2 C 66 % 18.39 C
Sensor: Nr:Datum:Temp:Feuchte:Taupunkt:
Aussen-T/F 2551 19-06-2019 20:30:00 24.9 C 65 % 17.87 C
2552 19-06-2019 20:35:00 24.8 C 67 % 18.25 C
2553 19-06-2019 20:40:00 24.7 C 67 % 18.16 C
2554 19-06-2019 20:45:00 24.6 C 68 % 18.3 C
2555 19-06-2019 20:50:00 24.4 C 68 % 18.11 C
2556 19-06-2019 20:55:00 24.3 C 69 % 18.25 C
2557 19-06-2019 21:00:00 24.1 C 69 % 18.06 C
2558 19-06-2019 21:05:00 23.9 C 69 % 17.87 C
2559 19-06-2019 21:10:00 23.8 C 70 % 18 C
2560 19-06-2019 21:15:00 23.7 C 70 % 17.9 C
2561 19-06-2019 21:20:00 23.5 C 70 % 17.71 C
2562 19-06-2019 21:25:00 23.3 C 71 % 17.75 C
2563 19-06-2019 21:30:00 23.2 C 71 % 17.65 C
2564 19-06-2019 21:35:00 23.1 C 71 % 17.55 C
2565 19-06-2019 21:40:00 22.9 C 72 % 17.58 C
2566 19-06-2019 21:45:00 22.8 C 72 % 17.49 C
2567 19-06-2019 21:50:00 22.6 C 72 % 17.3 C
2568 19-06-2019 21:55:00 22.4 C 73 % 17.32 C
2569 19-06-2019 22:00:00 22.2 C 73 % 17.13 C
2570 19-06-2019 22:05:00 22.1 C 74 % 17.25 C
2571 19-06-2019 22:10:00 22.2 C 72 % 16.91 C
2572 19-06-2019 22:15:00 22.3 C 73 % 17.23 C
2573 19-06-2019 22:20:00 22.3 C 73 % 17.23 C
2574 19-06-2019 22:25:00 22.1 C 73 % 17.03 C
2575 19-06-2019 22:30:00 21.9 C 73 % 16.84 C
Sensor: Nr:Datum:Temp:Feuchte:Taupunkt:
Aussen-T/F 2576 19-06-2019 22:35:00 21.6 C 74 % 16.77 C
2577 19-06-2019 22:40:00 21.3 C 75 % 16.69 C
2578 19-06-2019 22:45:00 20.9 C 75 % 16.3 C
2579 19-06-2019 22:50:00 20.7 C 76 % 16.32 C
2580 19-06-2019 22:55:00 20.6 C 77 % 16.43 C
2581 19-06-2019 23:00:00 20.4 C 78 % 16.44 C
2582 19-06-2019 23:05:00 20.2 C 78 % 16.24 C
2583 19-06-2019 23:10:00 20.1 C 79 % 16.34 C
2584 19-06-2019 23:15:00 20.1 C 80 % 16.54 C
2585 19-06-2019 23:20:00 20 C 80 % 16.44 C
2586 19-06-2019 23:25:00 20 C 80 % 16.44 C
2587 19-06-2019 23:30:00 19.9 C 81 % 16.54 C
2588 19-06-2019 23:35:00 19.9 C 81 % 16.54 C
2589 19-06-2019 23:40:00 19.8 C 80 % 16.25 C
2590 19-06-2019 23:45:00 19.7 C 80 % 16.15 C
2591 19-06-2019 23:50:00 19.6 C 80 % 16.06 C
2592 19-06-2019 23:55:00 19.4 C 81 % 16.06 C
2593 20-06-2019 00:00:00 19.3 C 81 % 15.96 C
2594 20-06-2019 00:05:00 19.2 C 82 % 16.05 C
2595 20-06-2019 00:10:00 19.1 C 82 % 15.96 C
2596 20-06-2019 00:15:00 18.9 C 82 % 15.76 C
2597 20-06-2019 00:20:00 18.8 C 83 % 15.85 C
2598 20-06-2019 00:25:00 18.7 C 83 % 15.75 C
2599 20-06-2019 00:30:00 18.7 C 84 % 15.94 C
2600 20-06-2019 00:35:00 18.6 C 84 % 15.84 C
Sensor: Nr:Datum:Temp:Feuchte:Taupunkt:
Aussen-T/F 2601 20-06-2019 00:40:00 18.5 C 84 % 15.75 C
2602 20-06-2019 00:45:00 18.4 C 85 % 15.83 C
2603 20-06-2019 00:50:00 18.4 C 85 % 15.83 C
2604 20-06-2019 00:55:00 18.4 C 85 % 15.83 C
2605 20-06-2019 01:00:00 18.3 C 85 % 15.74 C
2606 20-06-2019 01:05:00 18.3 C 85 % 15.74 C
2607 20-06-2019 01:10:00 18.2 C 85 % 15.64 C
2608 20-06-2019 01:15:00 18.1 C 86 % 15.72 C
2609 20-06-2019 01:20:00 18.1 C 86 % 15.72 C
2610 20-06-2019 01:25:00 18 C 86 % 15.62 C
2611 20-06-2019 01:30:00 17.9 C 86 % 15.53 C
2612 20-06-2019 01:35:00 17.9 C 87 % 15.71 C
2613 20-06-2019 01:40:00 17.8 C 87 % 15.61 C
2614 20-06-2019 01:45:00 17.8 C 87 % 15.61 C
2615 20-06-2019 01:50:00 17.7 C 87 % 15.51 C
2616 20-06-2019 01:55:00 17.7 C 88 % 15.69 C
2617 20-06-2019 02:00:00 17.6 C 88 % 15.59 C
2618 20-06-2019 02:05:00 17.6 C 88 % 15.59 C
2619 20-06-2019 02:10:00 17.5 C 88 % 15.49 C
2620 20-06-2019 02:15:00 17.5 C 88 % 15.49 C
2621 20-06-2019 02:20:00 17.4 C 88 % 15.39 C
2622 20-06-2019 02:25:00 17.4 C 89 % 15.57 C
2623 20-06-2019 02:30:00 17.4 C 89 % 15.57 C
2624 20-06-2019 02:35:00 17.4 C 89 % 15.57 C
2625 20-06-2019 02:40:00 17.4 C 89 % 15.57 C
Sensor: Nr:Datum:Temp:Feuchte:Taupunkt:
Aussen-T/F 2626 20-06-2019 02:45:00 17.4 C 89 % 15.57 C
2627 20-06-2019 02:50:00 17.4 C 90 % 15.74 C
2628 20-06-2019 02:55:00 17.5 C 90 % 15.84 C
2629 20-06-2019 03:00:00 17.5 C 90 % 15.84 C
2630 20-06-2019 03:05:00 17.6 C 90 % 15.94 C
2631 20-06-2019 03:10:00 17.6 C 90 % 15.94 C
2632 20-06-2019 03:15:00 17.7 C 90 % 16.04 C
2633 20-06-2019 03:20:00 17.8 C 90 % 16.14 C
2634 20-06-2019 03:25:00 17.8 C 90 % 16.14 C
2635 20-06-2019 03:30:00 17.8 C 89 % 15.96 C
2636 20-06-2019 03:35:00 17.8 C 89 % 15.96 C
2637 20-06-2019 03:40:00 17.7 C 89 % 15.86 C
2638 20-06-2019 03:45:00 17.7 C 89 % 15.86 C
2639 20-06-2019 03:50:00 17.7 C 89 % 15.86 C
2640 20-06-2019 03:55:00 17.7 C 89 % 15.86 C
2641 20-06-2019 04:00:00 17.7 C 89 % 15.86 C
2642 20-06-2019 04:05:00 17.6 C 89 % 15.77 C
2643 20-06-2019 04:10:00 17.6 C 89 % 15.77 C
2644 20-06-2019 04:15:00 17.4 C 89 % 15.57 C
2645 20-06-2019 04:20:00 17.4 C 90 % 15.74 C
2646 20-06-2019 04:25:00 17.4 C 90 % 15.74 C
2647 20-06-2019 04:30:00 17.3 C 89 % 15.47 C
2648 20-06-2019 04:35:00 17.2 C 90 % 15.55 C
2649 20-06-2019 04:40:00 17.2 C 90 % 15.55 C
2650 20-06-2019 04:45:00 17.1 C 90 % 15.45 C
Sensor: Nr:Datum:Temp:Feuchte:Taupunkt:
Aussen-T/F 2651 20-06-2019 04:50:00 17 C 90 % 15.35 C
2652 20-06-2019 04:55:00 16.9 C 90 % 15.25 C
2653 20-06-2019 05:00:00 16.9 C 90 % 15.25 C
2654 20-06-2019 05:05:00 16.8 C 91 % 15.32 C
2655 20-06-2019 05:10:00 16.8 C 91 % 15.32 C
2656 20-06-2019 05:15:00 16.7 C 91 % 15.22 C
2657 20-06-2019 05:20:00 16.7 C 91 % 15.22 C
2658 20-06-2019 05:25:00 16.7 C 91 % 15.22 C
2659 20-06-2019 05:30:00 16.6 C 91 % 15.13 C
2660 20-06-2019 05:35:00 16.6 C 92 % 15.3 C
2661 20-06-2019 05:40:00 16.6 C 92 % 15.3 C
2662 20-06-2019 05:45:00 16.6 C 92 % 15.3 C
2663 20-06-2019 05:50:00 16.6 C 92 % 15.3 C
2664 20-06-2019 05:55:00 16.6 C 92 % 15.3 C
2665 20-06-2019 06:00:00 16.6 C 92 % 15.3 C
2666 20-06-2019 06:05:00 16.6 C 92 % 15.3 C
2667 20-06-2019 06:10:00 16.6 C 93 % 15.46 C
2668 20-06-2019 06:15:00 16.7 C 93 % 15.56 C
2669 20-06-2019 06:20:00 16.7 C 93 % 15.56 C
2670 20-06-2019 06:25:00 16.8 C 93 % 15.66 C
2671 20-06-2019 06:30:00 16.8 C 92 % 15.49 C
2672 20-06-2019 06:35:00 16.9 C 93 % 15.76 C
2673 20-06-2019 06:40:00 17 C 92 % 15.69 C
2674 20-06-2019 06:45:00 17.1 C 92 % 15.79 C
2675 20-06-2019 06:50:00 17.2 C 92 % 15.89 C
Sensor: Nr:Datum:Temp:Feuchte:Taupunkt:
Aussen-T/F 2676 20-06-2019 06:55:00 17.3 C 91 % 15.82 C
2677 20-06-2019 07:00:00 17.3 C 91 % 15.82 C
2678 20-06-2019 07:05:00 17.4 C 91 % 15.92 C
2679 20-06-2019 07:10:00 17.4 C 91 % 15.92 C
2680 20-06-2019 07:15:00 17.4 C 91 % 15.92 C
2681 20-06-2019 07:20:00 17.4 C 91 % 15.92 C
2682 20-06-2019 07:25:00 17.5 C 90 % 15.84 C
2683 20-06-2019 07:30:00 17.6 C 90 % 15.94 C
2684 20-06-2019 07:35:00 17.8 C 89 % 15.96 C
2685 20-06-2019 07:40:00 17.9 C 88 % 15.88 C
2686 20-06-2019 07:45:00 18.2 C 87 % 16 C
2687 20-06-2019 07:50:00 18.4 C 87 % 16.2 C
2688 20-06-2019 07:55:00 18.5 C 85 % 15.93 C
2689 20-06-2019 08:00:00 18.6 C 85 % 16.03 C
2690 20-06-2019 08:05:00 18.8 C 84 % 16.04 C
2691 20-06-2019 08:10:00 18.9 C 84 % 16.14 C
2692 20-06-2019 08:15:00 19.2 C 83 % 16.24 C
2693 20-06-2019 08:20:00 19.4 C 82 % 16.25 C
2694 20-06-2019 08:25:00 19.6 C 81 % 16.25 C
2695 20-06-2019 08:30:00 19.7 C 81 % 16.35 C
2696 20-06-2019 08:35:00 19.8 C 80 % 16.25 C
2697 20-06-2019 08:40:00 19.8 C 79 % 16.05 C
2698 20-06-2019 08:45:00 19.8 C 79 % 16.05 C
2699 20-06-2019 08:50:00 19.9 C 80 % 16.35 C
2700 20-06-2019 08:55:00 19.9 C 79 % 16.15 C
Sensor: Nr:Datum:Temp:Feuchte:Taupunkt:
Aussen-T/F 2701 20-06-2019 09:00:00 19.9 C 78 % 15.95 C
2702 20-06-2019 09:05:00 20 C 78 % 16.05 C
2703 20-06-2019 09:10:00 20.1 C 76 % 15.74 C
2704 20-06-2019 09:15:00 20.1 C 77 % 15.94 C
2705 20-06-2019 09:20:00 20.1 C 77 % 15.94 C
2706 20-06-2019 09:25:00 20.2 C 77 % 16.04 C
2707 20-06-2019 09:30:00 20.2 C 77 % 16.04 C
2708 20-06-2019 09:35:00 20.2 C 75 % 15.63 C
2709 20-06-2019 09:40:00 20.3 C 74 % 15.51 C
2710 20-06-2019 09:45:00 20.3 C 74 % 15.51 C
2711 20-06-2019 09:50:00 20.4 C 74 % 15.61 C
2712 20-06-2019 09:55:00 20.6 C 74 % 15.8 C
2713 20-06-2019 10:00:00 20.7 C 73 % 15.69 C
2714 20-06-2019 10:05:00 20.8 C 72 % 15.57 C
2715 20-06-2019 10:10:00 20.9 C 73 % 15.88 C
2716 20-06-2019 10:15:00 21.2 C 72 % 15.95 C
2717 20-06-2019 10:20:00 21.4 C 71 % 15.93 C
2718 20-06-2019 10:25:00 21.5 C 70 % 15.8 C
2719 20-06-2019 10:30:00 21.4 C 70 % 15.7 C
2720 20-06-2019 10:35:00 21.5 C 70 % 15.8 C
2721 20-06-2019 10:40:00 21.4 C 69 % 15.48 C
2722 20-06-2019 10:45:00 21.5 C 70 % 15.8 C
2723 20-06-2019 10:50:00 21.7 C 70 % 15.99 C
2724 20-06-2019 10:55:00 21.7 C 69 % 15.77 C
2725 20-06-2019 11:00:00 21.6 C 69 % 15.67 C
Sensor: Nr:Datum:Temp:Feuchte:Taupunkt:
Aussen-T/F 2726 20-06-2019 11:05:00 21.6 C 70 % 15.89 C
2727 20-06-2019 11:10:00 21.7 C 70 % 15.99 C
2728 20-06-2019 11:15:00 21.8 C 71 % 16.31 C
2729 20-06-2019 11:20:00 21.8 C 71 % 16.31 C
2730 20-06-2019 11:25:00 21.8 C 70 % 16.09 C
2731 20-06-2019 11:30:00 21.9 C 70 % 16.18 C
2732 20-06-2019 11:35:00 22.1 C 70 % 16.37 C
2733 20-06-2019 11:40:00 22.2 C 69 % 16.24 C
2734 20-06-2019 11:45:00 22.1 C 69 % 16.15 C
2735 20-06-2019 11:50:00 22 C 69 % 16.05 C
2736 20-06-2019 11:55:00 22.1 C 71 % 16.6 C
2737 20-06-2019 12:00:00 22.2 C 68 % 16.01 C
2738 20-06-2019 12:05:00 22.3 C 67 % 15.88 C
2739 20-06-2019 12:10:00 22.3 C 68 % 16.11 C
2740 20-06-2019 12:15:00 22.4 C 69 % 16.43 C
2741 20-06-2019 12:20:00 22.7 C 67 % 16.26 C
2742 20-06-2019 12:25:00 22.8 C 65 % 15.88 C
2743 20-06-2019 12:30:00 22.7 C 66 % 16.02 C
2744 20-06-2019 12:35:00 22.7 C 66 % 16.02 C
2745 20-06-2019 12:40:00 22.7 C 66 % 16.02 C
2746 20-06-2019 12:45:00 22.9 C 66 % 16.21 C
2747 20-06-2019 12:50:00 23 C 65 % 16.07 C
2748 20-06-2019 12:55:00 23.1 C 65 % 16.16 C
2749 20-06-2019 13:00:00 23 C 65 % 16.07 C
2750 20-06-2019 13:05:00 23.2 C 64 % 16.01 C
Sensor: Nr:Datum:Temp:Feuchte:Taupunkt:
Aussen-T/F 2751 20-06-2019 13:10:00 23.4 C 64 % 16.2 C
2752 20-06-2019 13:15:00 23.4 C 65 % 16.45 C
2753 20-06-2019 13:20:00 23.3 C 64 % 16.11 C
2754 20-06-2019 13:25:00 23.2 C 64 % 16.01 C
2755 20-06-2019 13:30:00 23.1 C 63 % 15.67 C
2756 20-06-2019 13:35:00 23.1 C 65 % 16.16 C
2757 20-06-2019 13:40:00 23.1 C 67 % 16.64 C
2758 20-06-2019 13:45:00 23.2 C 64 % 16.01 C
2759 20-06-2019 13:50:00 23.3 C 66 % 16.59 C
2760 20-06-2019 13:55:00 23.6 C 66 % 16.88 C
2761 20-06-2019 14:00:00 23.8 C 63 % 16.33 C
2762 20-06-2019 14:05:00 23.9 C 62 % 16.18 C
2763 20-06-2019 14:10:00 24.2 C 60 % 15.95 C
2764 20-06-2019 14:15:00 24.4 C 59 % 15.87 C
2765 20-06-2019 14:20:00 24.5 C 59 % 15.96 C
2766 20-06-2019 14:25:00 24.8 C 60 % 16.51 C
2767 20-06-2019 14:30:00 24.9 C 59 % 16.34 C
2768 20-06-2019 14:35:00 25.1 C 58 % 16.26 C
2769 20-06-2019 14:40:00 25.1 C 56 % 15.71 C
2770 20-06-2019 14:45:00 25.1 C 55 % 15.43 C
2771 20-06-2019 14:50:00 24.9 C 57 % 15.8 C
2772 20-06-2019 14:55:00 24.7 C 57 % 15.61 C
2773 20-06-2019 15:00:00 24.3 C 59 % 15.78 C
2774 20-06-2019 15:05:00 24.1 C 60 % 15.85 C
2775 20-06-2019 15:10:00 23.8 C 59 % 15.31 C
Sensor: Nr:Datum:Temp:Feuchte:Taupunkt:
Aussen-T/F 2776 20-06-2019 15:15:00 23.3 C 63 % 15.86 C
2777 20-06-2019 15:20:00 21.8 C 72 % 16.53 C
2778 20-06-2019 15:25:00 20.6 C 77 % 16.43 C
2779 20-06-2019 15:30:00 20.1 C 82 % 16.93 C
2780 20-06-2019 15:35:00 19.8 C 84 % 17.02 C
2781 20-06-2019 15:40:00 19.8 C 86 % 17.39 C
2782 20-06-2019 15:45:00 19.8 C 85 % 17.21 C
2783 20-06-2019 15:50:00 19.9 C 87 % 17.67 C
2784 20-06-2019 15:55:00 20.2 C 87 % 17.97 C
2785 20-06-2019 16:00:00 20.7 C 84 % 17.9 C
2786 20-06-2019 16:05:00 21.3 C 83 % 18.29 C
2787 20-06-2019 16:10:00 21.8 C 76 % 17.38 C
2788 20-06-2019 16:15:00 22.4 C 74 % 17.54 C
2789 20-06-2019 16:20:00 22.9 C 72 % 17.58 C
2790 20-06-2019 16:25:00 23.2 C 69 % 17.2 C
2791 20-06-2019 16:30:00 23.6 C 70 % 17.81 C
2792 20-06-2019 16:35:00 23.7 C 66 % 16.97 C
2793 20-06-2019 16:40:00 23.7 C 67 % 17.21 C
2794 20-06-2019 16:45:00 23.6 C 65 % 16.64 C
2795 20-06-2019 16:50:00 23.3 C 68 % 17.06 C
2796 20-06-2019 16:55:00 22.8 C 69 % 16.82 C
2797 20-06-2019 17:00:00 22.5 C 71 % 16.98 C
2798 20-06-2019 17:05:00 22.3 C 71 % 16.79 C
2799 20-06-2019 17:10:00 22.1 C 72 % 16.82 C
2800 20-06-2019 17:15:00 21.8 C 72 % 16.53 C
Sensor: Nr:Datum:Temp:Feuchte:Taupunkt:
Aussen-T/F 2801 20-06-2019 17:20:00 21.5 C 75 % 16.88 C
2802 20-06-2019 17:25:00 21.4 C 79 % 17.61 C
2803 20-06-2019 17:30:00 21.1 C 77 % 16.91 C
2804 20-06-2019 17:35:00 20.9 C 78 % 16.92 C
2805 20-06-2019 17:40:00 20.6 C 80 % 17.03 C
2806 20-06-2019 17:45:00 20.4 C 81 % 17.03 C
2807 20-06-2019 17:50:00 20.3 C 81 % 16.93 C
2808 20-06-2019 17:55:00 20.2 C 81 % 16.84 C
2809 20-06-2019 18:00:00 20.1 C 82 % 16.93 C
2810 20-06-2019 18:05:00 20.1 C 82 % 16.93 C
2811 20-06-2019 18:10:00 19.9 C 82 % 16.74 C
2812 20-06-2019 18:15:00 19.9 C 82 % 16.74 C
2813 20-06-2019 18:20:00 20.1 C 83 % 17.12 C
2814 20-06-2019 18:25:00 20.2 C 80 % 16.64 C
2815 20-06-2019 18:30:00 20.2 C 80 % 16.64 C
2816 20-06-2019 18:35:00 20.2 C 81 % 16.84 C
2817 20-06-2019 18:40:00 20.1 C 81 % 16.74 C
2818 20-06-2019 18:45:00 20 C 80 % 16.44 C
2819 20-06-2019 18:50:00 19.8 C 80 % 16.25 C
2820 20-06-2019 18:55:00 19.4 C 80 % 15.86 C
2821 20-06-2019 19:00:00 19.2 C 82 % 16.05 C
2822 20-06-2019 19:05:00 19.1 C 81 % 15.76 C
2823 20-06-2019 19:10:00 18.9 C 82 % 15.76 C
2824 20-06-2019 19:15:00 18.8 C 81 % 15.47 C
2825 20-06-2019 19:20:00 18.8 C 81 % 15.47 C
Sensor: Nr:Datum:Temp:Feuchte:Taupunkt:
Aussen-T/F 2826 20-06-2019 19:25:00 18.7 C 81 % 15.37 C
2827 20-06-2019 19:30:00 18.6 C 82 % 15.47 C
2828 20-06-2019 19:35:00 18.7 C 83 % 15.75 C
2829 20-06-2019 19:40:00 18.6 C 82 % 15.47 C
2830 20-06-2019 19:45:00 18.6 C 83 % 15.66 C
2831 20-06-2019 19:50:00 18.6 C 82 % 15.47 C
2832 20-06-2019 19:55:00 18.5 C 82 % 15.37 C
2833 20-06-2019 20:00:00 18.6 C 82 % 15.47 C
2834 20-06-2019 20:05:00 18.6 C 82 % 15.47 C
2835 20-06-2019 20:10:00 18.6 C 81 % 15.28 C
2836 20-06-2019 20:15:00 18.6 C 82 % 15.47 C
2837 20-06-2019 20:20:00 18.6 C 81 % 15.28 C
2838 20-06-2019 20:25:00 18.6 C 82 % 15.47 C
2839 20-06-2019 20:30:00 18.7 C 82 % 15.57 C
2840 20-06-2019 20:35:00 18.7 C 83 % 15.75 C
2841 20-06-2019 20:40:00 18.7 C 82 % 15.57 C
2842 20-06-2019 20:45:00 18.7 C 83 % 15.75 C
2843 20-06-2019 20:50:00 18.8 C 84 % 16.04 C
2844 20-06-2019 20:55:00 18.8 C 84 % 16.04 C
2845 20-06-2019 21:00:00 18.7 C 83 % 15.75 C
2846 20-06-2019 21:05:00 18.7 C 83 % 15.75 C
2847 20-06-2019 21:10:00 18.6 C 83 % 15.66 C
2848 20-06-2019 21:15:00 18.5 C 84 % 15.75 C
2849 20-06-2019 21:20:00 18.4 C 84 % 15.65 C
2850 20-06-2019 21:25:00 18.3 C 84 % 15.55 C
Sensor: Nr:Datum:Temp:Feuchte:Taupunkt:
Aussen-T/F 2851 20-06-2019 21:30:00 18.2 C 84 % 15.45 C
2852 20-06-2019 21:35:00 18.1 C 84 % 15.35 C
2853 20-06-2019 21:40:00 18 C 84 % 15.26 C
2854 20-06-2019 21:45:00 17.8 C 85 % 15.25 C
2855 20-06-2019 21:50:00 17.7 C 85 % 15.15 C
2856 20-06-2019 21:55:00 17.6 C 86 % 15.23 C
2857 20-06-2019 22:00:00 17.4 C 86 % 15.03 C
2858 20-06-2019 22:05:00 17.3 C 86 % 14.94 C
2859 20-06-2019 22:10:00 17.2 C 87 % 15.02 C
2860 20-06-2019 22:15:00 17.1 C 87 % 14.92 C
2861 20-06-2019 22:20:00 17.1 C 87 % 14.92 C
2862 20-06-2019 22:25:00 17 C 87 % 14.82 C
2863 20-06-2019 22:30:00 16.9 C 87 % 14.72 C
2864 20-06-2019 22:35:00 16.8 C 87 % 14.62 C
2865 20-06-2019 22:40:00 16.7 C 87 % 14.53 C
2866 20-06-2019 22:45:00 16.6 C 87 % 14.43 C
2867 20-06-2019 22:50:00 16.4 C 88 % 14.41 C
2868 20-06-2019 22:55:00 16.3 C 88 % 14.31 C
2869 20-06-2019 23:00:00 16.2 C 88 % 14.21 C
2870 20-06-2019 23:05:00 16.1 C 89 % 14.29 C
2871 20-06-2019 23:10:00 16 C 89 % 14.19 C
2872 20-06-2019 23:15:00 15.9 C 90 % 14.26 C
2873 20-06-2019 23:20:00 15.8 C 90 % 14.16 C
2874 20-06-2019 23:25:00 15.7 C 91 % 14.24 C
2875 20-06-2019 23:30:00 15.7 C 91 % 14.24 C
Sensor: Nr:Datum:Temp:Feuchte:Taupunkt:
Aussen-T/F 2876 20-06-2019 23:35:00 15.6 C 92 % 14.31 C
2877 20-06-2019 23:40:00 15.5 C 92 % 14.21 C
2878 20-06-2019 23:45:00 15.5 C 92 % 14.21 C
2879 20-06-2019 23:50:00 15.4 C 92 % 14.11 C
2880 20-06-2019 23:55:00 15.3 C 92 % 14.01 C
2881 21-06-2019 00:00:00 15.4 C 93 % 14.27 C
2882 21-06-2019 00:05:00 15.5 C 94 % 14.54 C
2883 21-06-2019 00:10:00 15.6 C 94 % 14.64 C
2884 21-06-2019 00:15:00 15.6 C 94 % 14.64 C
2885 21-06-2019 00:20:00 15.7 C 94 % 14.74 C
2886 21-06-2019 00:25:00 15.7 C 94 % 14.74 C
2887 21-06-2019 00:30:00 15.7 C 94 % 14.74 C
2888 21-06-2019 00:35:00 15.6 C 93 % 14.47 C
2889 21-06-2019 00:40:00 15.4 C 93 % 14.27 C
2890 21-06-2019 00:45:00 15.3 C 93 % 14.18 C
2891 21-06-2019 00:50:00 15.3 C 93 % 14.18 C
2892 21-06-2019 00:55:00 15.2 C 93 % 14.08 C
2893 21-06-2019 01:00:00 15.2 C 93 % 14.08 C
2894 21-06-2019 01:05:00 15.1 C 93 % 13.98 C
2895 21-06-2019 01:10:00 15.1 C 93 % 13.98 C
2896 21-06-2019 01:15:00 15.1 C 93 % 13.98 C
2897 21-06-2019 01:20:00 15 C 93 % 13.88 C
2898 21-06-2019 01:25:00 14.9 C 93 % 13.78 C
2899 21-06-2019 01:30:00 14.9 C 93 % 13.78 C
2900 21-06-2019 01:35:00 14.8 C 93 % 13.68 C
Sensor: Nr:Datum:Temp:Feuchte:Taupunkt:
Aussen-T/F 2901 21-06-2019 01:40:00 14.7 C 93 % 13.58 C
2902 21-06-2019 01:45:00 14.7 C 93 % 13.58 C
2903 21-06-2019 01:50:00 14.6 C 93 % 13.48 C
2904 21-06-2019 01:55:00 14.6 C 93 % 13.48 C
2905 21-06-2019 02:00:00 14.7 C 94 % 13.74 C
2906 21-06-2019 02:05:00 14.7 C 94 % 13.74 C
2907 21-06-2019 02:10:00 14.7 C 94 % 13.74 C
2908 21-06-2019 02:15:00 14.7 C 94 % 13.74 C
2909 21-06-2019 02:20:00 14.7 C 94 % 13.74 C
2910 21-06-2019 02:25:00 14.7 C 94 % 13.74 C
2911 21-06-2019 02:30:00 14.8 C 94 % 13.84 C
2912 21-06-2019 02:35:00 14.8 C 94 % 13.84 C
2913 21-06-2019 02:40:00 14.8 C 95 % 14.01 C
2914 21-06-2019 02:45:00 14.9 C 95 % 14.11 C
2915 21-06-2019 02:50:00 14.9 C 95 % 14.11 C
2916 21-06-2019 02:55:00 15 C 95 % 14.21 C
2917 21-06-2019 03:00:00 15 C 95 % 14.21 C
2918 21-06-2019 03:05:00 15 C 94 % 14.04 C
2919 21-06-2019 03:10:00 15 C 94 % 14.04 C
2920 21-06-2019 03:15:00 15 C 94 % 14.04 C
2921 21-06-2019 03:20:00 15.1 C 95 % 14.31 C
2922 21-06-2019 03:25:00 15.1 C 95 % 14.31 C
2923 21-06-2019 03:30:00 15.1 C 94 % 14.14 C
2924 21-06-2019 03:35:00 15.1 C 94 % 14.14 C
2925 21-06-2019 03:40:00 15.1 C 94 % 14.14 C
Sensor: Nr:Datum:Temp:Feuchte:Taupunkt:
Aussen-T/F 2926 21-06-2019 03:45:00 15.1 C 94 % 14.14 C
2927 21-06-2019 03:50:00 15.1 C 94 % 14.14 C
2928 21-06-2019 03:55:00 15.1 C 94 % 14.14 C
2929 21-06-2019 04:00:00 15 C 94 % 14.04 C
2930 21-06-2019 04:05:00 15 C 95 % 14.21 C
2931 21-06-2019 04:10:00 15.1 C 95 % 14.31 C
2932 21-06-2019 04:15:00 15.1 C 94 % 14.14 C
2933 21-06-2019 04:20:00 15.1 C 94 % 14.14 C
2934 21-06-2019 04:25:00 15 C 94 % 14.04 C
2935 21-06-2019 04:30:00 15 C 94 % 14.04 C
2936 21-06-2019 04:35:00 14.9 C 94 % 13.94 C
2937 21-06-2019 04:40:00 14.8 C 94 % 13.84 C
2938 21-06-2019 04:45:00 14.7 C 94 % 13.74 C
2939 21-06-2019 04:50:00 14.7 C 94 % 13.74 C
2940 21-06-2019 04:55:00 14.6 C 94 % 13.65 C
2941 21-06-2019 05:00:00 14.6 C 94 % 13.65 C
2942 21-06-2019 05:05:00 14.5 C 94 % 13.55 C
2943 21-06-2019 05:10:00 14.4 C 94 % 13.45 C
2944 21-06-2019 05:15:00 14.3 C 93 % 13.18 C
2945 21-06-2019 05:20:00 14.3 C 94 % 13.35 C
2946 21-06-2019 05:25:00 14.3 C 94 % 13.35 C
2947 21-06-2019 05:30:00 14.3 C 94 % 13.35 C
2948 21-06-2019 05:35:00 14.3 C 94 % 13.35 C
2949 21-06-2019 05:40:00 14.3 C 94 % 13.35 C
2950 21-06-2019 05:45:00 14.2 C 94 % 13.25 C
Sensor: Nr:Datum:Temp:Feuchte:Taupunkt:
Aussen-T/F 2951 21-06-2019 05:50:00 14.2 C 94 % 13.25 C
2952 21-06-2019 05:55:00 14.2 C 94 % 13.25 C
2953 21-06-2019 06:00:00 14.2 C 94 % 13.25 C
2954 21-06-2019 06:05:00 14.2 C 94 % 13.25 C
2955 21-06-2019 06:10:00 14.2 C 94 % 13.25 C
2956 21-06-2019 06:15:00 14.2 C 94 % 13.25 C
2957 21-06-2019 06:20:00 14.2 C 94 % 13.25 C
2958 21-06-2019 06:25:00 14.2 C 93 % 13.08 C
2959 21-06-2019 06:30:00 14.2 C 93 % 13.08 C
2960 21-06-2019 06:35:00 14.1 C 93 % 12.99 C
2961 21-06-2019 06:40:00 14.1 C 93 % 12.99 C
2962 21-06-2019 06:45:00 14.1 C 93 % 12.99 C
2963 21-06-2019 06:50:00 14.2 C 93 % 13.08 C
2964 21-06-2019 06:55:00 14.2 C 93 % 13.08 C
2965 21-06-2019 07:00:00 14.3 C 93 % 13.18 C
2966 21-06-2019 07:05:00 14.4 C 94 % 13.45 C
2967 21-06-2019 07:10:00 14.6 C 94 % 13.65 C
2968 21-06-2019 07:15:00 14.6 C 93 % 13.48 C
2969 21-06-2019 07:20:00 14.7 C 93 % 13.58 C
2970 21-06-2019 07:25:00 14.7 C 93 % 13.58 C
2971 21-06-2019 07:30:00 14.6 C 92 % 13.32 C
2972 21-06-2019 07:35:00 14.6 C 92 % 13.32 C
2973 21-06-2019 07:40:00 14.6 C 92 % 13.32 C
2974 21-06-2019 07:45:00 14.7 C 92 % 13.41 C
2975 21-06-2019 07:50:00 14.9 C 92 % 13.61 C
Sensor: Nr:Datum:Temp:Feuchte:Taupunkt:
Aussen-T/F 2976 21-06-2019 07:55:00 14.9 C 92 % 13.61 C
2977 21-06-2019 08:00:00 15.1 C 90 % 13.47 C
2978 21-06-2019 08:05:00 15.2 C 90 % 13.57 C
2979 21-06-2019 08:10:00 15.3 C 85 % 12.79 C
2980 21-06-2019 08:15:00 15.5 C 82 % 12.44 C
2981 21-06-2019 08:20:00 15.8 C 79 % 12.17 C
2982 21-06-2019 08:25:00 16 C 78 % 12.17 C
2983 21-06-2019 08:30:00 16.2 C 77 % 12.17 C
2984 21-06-2019 08:35:00 16.3 C 76 % 12.07 C
2985 21-06-2019 08:40:00 16.3 C 74 % 11.66 C
2986 21-06-2019 08:45:00 16.3 C 74 % 11.66 C
2987 21-06-2019 08:50:00 16.3 C 73 % 11.46 C
2988 21-06-2019 08:55:00 16.3 C 75 % 11.86 C
2989 21-06-2019 09:00:00 16.3 C 74 % 11.66 C
2990 21-06-2019 09:05:00 16.3 C 74 % 11.66 C
2991 21-06-2019 09:10:00 16.4 C 75 % 11.96 C
2992 21-06-2019 09:15:00 16.5 C 74 % 11.85 C
2993 21-06-2019 09:20:00 16.6 C 74 % 11.95 C
2994 21-06-2019 09:25:00 16.7 C 74 % 12.05 C
2995 21-06-2019 09:30:00 16.7 C 74 % 12.05 C
2996 21-06-2019 09:35:00 16.8 C 72 % 11.73 C
2997 21-06-2019 09:40:00 16.9 C 72 % 11.82 C
2998 21-06-2019 09:45:00 17 C 72 % 11.92 C
2999 21-06-2019 09:50:00 17.1 C 72 % 12.02 C
3000 21-06-2019 09:55:00 17.1 C 72 % 12.02 C
Sensor: Nr:Datum:Temp:Feuchte:Taupunkt:
Aussen-T/F 3001 21-06-2019 10:00:00 17.2 C 73 % 12.32 C
3002 21-06-2019 10:05:00 17.3 C 70 % 11.78 C
3003 21-06-2019 10:10:00 17.4 C 69 % 11.66 C
3004 21-06-2019 10:15:00 17.7 C 68 % 11.72 C
3005 21-06-2019 10:20:00 17.9 C 68 % 11.91 C
3006 21-06-2019 10:25:00 18.1 C 68 % 12.11 C
3007 21-06-2019 10:30:00 18.4 C 66 % 11.94 C
3008 21-06-2019 10:35:00 18.7 C 66 % 12.22 C
3009 21-06-2019 10:40:00 19 C 63 % 11.8 C
3010 21-06-2019 10:45:00 19.1 C 64 % 12.14 C
3011 21-06-2019 10:50:00 19.3 C 62 % 11.84 C
3012 21-06-2019 10:55:00 19.3 C 61 % 11.6 C
3013 21-06-2019 11:00:00 19.2 C 63 % 11.99 C
3014 21-06-2019 11:05:00 19.3 C 61 % 11.6 C
3015 21-06-2019 11:10:00 19.4 C 65 % 12.66 C
3016 21-06-2019 11:15:00 19.4 C 61 % 11.69 C
3017 21-06-2019 11:20:00 19.4 C 60 % 11.44 C
3018 21-06-2019 11:25:00 19.3 C 62 % 11.84 C
3019 21-06-2019 11:30:00 19.2 C 61 % 11.5 C
3020 21-06-2019 11:35:00 19.4 C 61 % 11.69 C
3021 21-06-2019 11:40:00 19.6 C 60 % 11.63 C
3022 21-06-2019 11:45:00 19.8 C 59 % 11.56 C
3023 21-06-2019 11:50:00 19.7 C 60 % 11.72 C
3024 21-06-2019 11:55:00 19.7 C 59 % 11.47 C
3025 21-06-2019 12:00:00 19.7 C 63 % 12.46 C
Sensor: Nr:Datum:Temp:Feuchte:Taupunkt:
Aussen-T/F 3026 21-06-2019 12:05:00 19.8 C 62 % 12.31 C
3027 21-06-2019 12:10:00 19.9 C 58 % 11.4 C
3028 21-06-2019 12:15:00 20.2 C 58 % 11.68 C
3029 21-06-2019 12:20:00 20.2 C 56 % 11.15 C
3030 21-06-2019 12:25:00 20.2 C 57 % 11.42 C
3031 21-06-2019 12:30:00 20 C 58 % 11.49 C
3032 21-06-2019 12:35:00 19.9 C 58 % 11.4 C
3033 21-06-2019 12:40:00 20.1 C 58 % 11.58 C
3034 21-06-2019 12:45:00 20.2 C 58 % 11.68 C
3035 21-06-2019 12:50:00 20.4 C 57 % 11.6 C
3036 21-06-2019 12:55:00 20.7 C 56 % 11.61 C
3037 21-06-2019 13:00:00 21.1 C 54 % 11.44 C
3038 21-06-2019 13:05:00 21.3 C 53 % 11.34 C
3039 21-06-2019 13:10:00 21.2 C 54 % 11.53 C
3040 21-06-2019 13:15:00 21 C 54 % 11.34 C
3041 21-06-2019 13:20:00 21 C 53 % 11.06 C
3042 21-06-2019 13:25:00 21.1 C 52 % 10.87 C
3043 21-06-2019 13:30:00 21.1 C 55 % 11.71 C
3044 21-06-2019 13:35:00 21.2 C 52 % 10.96 C
3045 21-06-2019 13:40:00 21.3 C 53 % 11.34 C
3046 21-06-2019 13:45:00 21.5 C 52 % 11.24 C
3047 21-06-2019 13:50:00 21.8 C 50 % 10.92 C
3048 21-06-2019 13:55:00 22 C 50 % 11.11 C
3049 21-06-2019 14:00:00 22.1 C 48 % 10.58 C
3050 21-06-2019 14:05:00 21.9 C 48 % 10.4 C
Sensor: Nr:Datum:Temp:Feuchte:Taupunkt:
Aussen-T/F 3051 21-06-2019 14:10:00 21.9 C 48 % 10.4 C
3052 21-06-2019 14:15:00 21.8 C 48 % 10.31 C
3053 21-06-2019 14:20:00 21.8 C 49 % 10.62 C
3054 21-06-2019 14:25:00 21.8 C 49 % 10.62 C
3055 21-06-2019 14:30:00 21.8 C 45 % 9.35 C
3056 21-06-2019 14:35:00 21.9 C 45 % 9.44 C
3057 21-06-2019 14:40:00 22.1 C 46 % 9.95 C
3058 21-06-2019 14:45:00 22.4 C 47 % 10.54 C
3059 21-06-2019 14:50:00 22.5 C 48 % 10.95 C
3060 21-06-2019 14:55:00 22.4 C 48 % 10.86 C
3061 21-06-2019 15:00:00 22.3 C 47 % 10.45 C
3062 21-06-2019 15:05:00 22.2 C 47 % 10.36 C
3063 21-06-2019 15:10:00 22.1 C 48 % 10.58 C
3064 21-06-2019 15:15:00 22.2 C 47 % 10.36 C
3065 21-06-2019 15:20:00 22.2 C 48 % 10.67 C
3066 21-06-2019 15:25:00 22.6 C 46 % 10.4 C
3067 21-06-2019 15:30:00 22.9 C 47 % 11 C
3068 21-06-2019 15:35:00 22.8 C 45 % 10.25 C
3069 21-06-2019 15:40:00 22.8 C 44 % 9.92 C
3070 21-06-2019 15:45:00 22.8 C 44 % 9.92 C
3071 21-06-2019 15:50:00 22.9 C 46 % 10.67 C
3072 21-06-2019 15:55:00 23.4 C 46 % 11.13 C
3073 21-06-2019 16:00:00 23.8 C 43 % 10.48 C
3074 21-06-2019 16:05:00 23.9 C 40 % 9.49 C
3075 21-06-2019 16:10:00 23.7 C 41 % 9.68 C
Sensor: Nr:Datum:Temp:Feuchte:Taupunkt:
Aussen-T/F 3076 21-06-2019 16:15:00 23.6 C 44 % 10.64 C
3077 21-06-2019 16:20:00 23.7 C 41 % 9.68 C
3078 21-06-2019 16:25:00 23.5 C 43 % 10.21 C
3079 21-06-2019 16:30:00 23.2 C 47 % 11.27 C
3080 21-06-2019 16:35:00 23.2 C 46 % 10.95 C
3081 21-06-2019 16:40:00 23.4 C 45 % 10.8 C
3082 21-06-2019 16:45:00 23.8 C 44 % 10.82 C
3083 21-06-2019 16:50:00 23.8 C 43 % 10.48 C
3084 21-06-2019 16:55:00 24.1 C 42 % 10.39 C
3085 21-06-2019 17:00:00 24.5 C 43 % 11.11 C
3086 21-06-2019 17:05:00 24.7 C 43 % 11.29 C
3087 21-06-2019 17:10:00 25.1 C 41 % 10.93 C
3088 21-06-2019 17:15:00 25.1 C 38 % 9.79 C
3089 21-06-2019 17:20:00 25.1 C 40 % 10.56 C
3090 21-06-2019 17:25:00 25 C 40 % 10.47 C
3091 21-06-2019 17:30:00 25.1 C 39 % 10.18 C
3092 21-06-2019 17:35:00 25 C 39 % 10.09 C
3093 21-06-2019 17:40:00 25.3 C 39 % 10.36 C
3094 21-06-2019 17:45:00 25.4 C 38 % 10.06 C
3095 21-06-2019 17:50:00 25.6 C 37 % 9.84 C
3096 21-06-2019 17:55:00 25.6 C 37 % 9.84 C
3097 21-06-2019 18:00:00 25.7 C 38 % 10.32 C
3098 21-06-2019 18:05:00 25.8 C 38 % 10.41 C
3099 21-06-2019 18:10:00 25.7 C 37 % 9.92 C
3100 21-06-2019 18:15:00 25.6 C 38 % 10.23 C
Sensor: Nr:Datum:Temp:Feuchte:Taupunkt:
Aussen-T/F 3101 21-06-2019 18:20:00 25.4 C 39 % 10.45 C
3102 21-06-2019 18:25:00 25.1 C 40 % 10.56 C
3103 21-06-2019 18:30:00 24.8 C 40 % 10.29 C
3104 21-06-2019 18:35:00 24.7 C 40 % 10.2 C
3105 21-06-2019 18:40:00 24.5 C 40 % 10.02 C
3106 21-06-2019 18:45:00 24.3 C 41 % 10.21 C
3107 21-06-2019 18:50:00 24.1 C 41 % 10.03 C
3108 21-06-2019 18:55:00 23.8 C 42 % 10.12 C
3109 21-06-2019 19:00:00 23.8 C 42 % 10.12 C
3110 21-06-2019 19:05:00 24.1 C 42 % 10.39 C
3111 21-06-2019 19:10:00 24.2 C 41 % 10.12 C
3112 21-06-2019 19:15:00 24.2 C 41 % 10.12 C
3113 21-06-2019 19:20:00 24 C 43 % 10.66 C
3114 21-06-2019 19:25:00 23.8 C 42 % 10.12 C
3115 21-06-2019 19:30:00 23.7 C 42 % 10.03 C
3116 21-06-2019 19:35:00 23.4 C 43 % 10.12 C
3117 21-06-2019 19:40:00 23.3 C 45 % 10.71 C
3118 21-06-2019 19:45:00 23.2 C 44 % 10.28 C
3119 21-06-2019 19:50:00 23.1 C 44 % 10.19 C
3120 21-06-2019 19:55:00 22.8 C 45 % 10.25 C
3121 21-06-2019 20:00:00 22.8 C 45 % 10.25 C
3122 21-06-2019 20:05:00 22.7 C 45 % 10.16 C
3123 21-06-2019 20:10:00 22.6 C 45 % 10.07 C
3124 21-06-2019 20:15:00 22.4 C 46 % 10.22 C
3125 21-06-2019 20:20:00 22.5 C 47 % 10.63 C
Sensor: Nr:Datum:Temp:Feuchte:Taupunkt:
Aussen-T/F 3126 21-06-2019 20:25:00 22.4 C 46 % 10.22 C
3127 21-06-2019 20:30:00 22.3 C 46 % 10.13 C
3128 21-06-2019 20:35:00 22.1 C 46 % 9.95 C
3129 21-06-2019 20:40:00 21.9 C 49 % 10.71 C
3130 21-06-2019 20:45:00 21.7 C 48 % 10.22 C
3131 21-06-2019 20:50:00 21.5 C 52 % 11.24 C
3132 21-06-2019 20:55:00 20.9 C 51 % 10.39 C
3133 21-06-2019 21:00:00 20.4 C 53 % 10.51 C
3134 21-06-2019 21:05:00 20.2 C 53 % 10.32 C
3135 21-06-2019 21:10:00 20.1 C 53 % 10.23 C
3136 21-06-2019 21:15:00 20 C 53 % 10.14 C
3137 21-06-2019 21:20:00 19.9 C 54 % 10.32 C
3138 21-06-2019 21:25:00 19.8 C 57 % 11.04 C
3139 21-06-2019 21:30:00 19.6 C 58 % 11.12 C
3140 21-06-2019 21:35:00 19.2 C 60 % 11.25 C
3141 21-06-2019 21:40:00 18.8 C 59 % 10.63 C
3142 21-06-2019 21:45:00 18.5 C 61 % 10.84 C
3143 21-06-2019 21:50:00 18.2 C 62 % 10.81 C
3144 21-06-2019 21:55:00 17.8 C 63 % 10.67 C
3145 21-06-2019 22:00:00 17.6 C 64 % 10.72 C
3146 21-06-2019 22:05:00 17.3 C 64 % 10.43 C
3147 21-06-2019 22:10:00 17.1 C 65 % 10.47 C
3148 21-06-2019 22:15:00 16.9 C 65 % 10.28 C
3149 21-06-2019 22:20:00 16.8 C 66 % 10.42 C
3150 21-06-2019 22:25:00 16.7 C 66 % 10.32 C
Sensor: Nr:Datum:Temp:Feuchte:Taupunkt:
Aussen-T/F 3151 21-06-2019 22:30:00 16.5 C 67 % 10.36 C
3152 21-06-2019 22:35:00 16.3 C 67 % 10.17 C
3153 21-06-2019 22:40:00 16.2 C 68 % 10.29 C
3154 21-06-2019 22:45:00 16.1 C 68 % 10.2 C
3155 21-06-2019 22:50:00 15.9 C 68 % 10.01 C
3156 21-06-2019 22:55:00 15.8 C 69 % 10.13 C
3157 21-06-2019 23:00:00 15.8 C 70 % 10.34 C
3158 21-06-2019 23:05:00 15.7 C 70 % 10.25 C
3159 21-06-2019 23:10:00 15.6 C 71 % 10.37 C
3160 21-06-2019 23:15:00 15.5 C 72 % 10.48 C
3161 21-06-2019 23:20:00 15.4 C 72 % 10.38 C
3162 21-06-2019 23:25:00 15.3 C 72 % 10.29 C
3163 21-06-2019 23:30:00 15.2 C 73 % 10.4 C
3164 21-06-2019 23:35:00 15.1 C 73 % 10.3 C
3165 21-06-2019 23:40:00 14.9 C 73 % 10.11 C
3166 21-06-2019 23:45:00 14.9 C 74 % 10.31 C
3167 21-06-2019 23:50:00 14.8 C 75 % 10.42 C
3168 21-06-2019 23:55:00 14.6 C 75 % 10.22 C
3169 22-06-2019 00:00:00 14.4 C 76 % 10.23 C
3170 22-06-2019 00:05:00 14.3 C 77 % 10.33 C
3171 22-06-2019 00:10:00 14.2 C 78 % 10.42 C
3172 22-06-2019 00:15:00 14 C 78 % 10.23 C
3173 22-06-2019 00:20:00 13.8 C 79 % 10.22 C
3174 22-06-2019 00:25:00 13.7 C 79 % 10.13 C
3175 22-06-2019 00:30:00 13.6 C 79 % 10.03 C
Sensor: Nr:Datum:Temp:Feuchte:Taupunkt:
Aussen-T/F 3176 22-06-2019 00:35:00 13.5 C 80 % 10.12 C
3177 22-06-2019 00:40:00 13.4 C 80 % 10.02 C
3178 22-06-2019 00:45:00 13.3 C 80 % 9.93 C
3179 22-06-2019 00:50:00 13.2 C 81 % 10.01 C
3180 22-06-2019 00:55:00 13.2 C 81 % 10.01 C
3181 22-06-2019 01:00:00 13.1 C 82 % 10.1 C
3182 22-06-2019 01:05:00 13.1 C 82 % 10.1 C
3183 22-06-2019 01:10:00 13.1 C 82 % 10.1 C
3184 22-06-2019 01:15:00 13.1 C 82 % 10.1 C
3185 22-06-2019 01:20:00 13.1 C 82 % 10.1 C
3186 22-06-2019 01:25:00 13.1 C 82 % 10.1 C
3187 22-06-2019 01:30:00 13.1 C 82 % 10.1 C
3188 22-06-2019 01:35:00 13.1 C 82 % 10.1 C
3189 22-06-2019 01:40:00 13 C 82 % 10 C
3190 22-06-2019 01:45:00 12.9 C 83 % 10.09 C
3191 22-06-2019 01:50:00 12.8 C 83 % 9.99 C
3192 22-06-2019 01:55:00 12.7 C 83 % 9.89 C
3193 22-06-2019 02:00:00 12.6 C 84 % 9.97 C
3194 22-06-2019 02:05:00 12.4 C 84 % 9.78 C
3195 22-06-2019 02:10:00 12.3 C 85 % 9.85 C
3196 22-06-2019 02:15:00 12.3 C 85 % 9.85 C
3197 22-06-2019 02:20:00 12.2 C 85 % 9.76 C
3198 22-06-2019 02:25:00 12.2 C 86 % 9.93 C
3199 22-06-2019 02:30:00 12.1 C 86 % 9.83 C
3200 22-06-2019 02:35:00 12 C 86 % 9.73 C
Sensor: Nr:Datum:Temp:Feuchte:Taupunkt:
Aussen-T/F 3201 22-06-2019 02:40:00 11.9 C 86 % 9.64 C
3202 22-06-2019 02:45:00 11.8 C 87 % 9.71 C
3203 22-06-2019 02:50:00 11.8 C 87 % 9.71 C
3204 22-06-2019 02:55:00 11.7 C 87 % 9.61 C
3205 22-06-2019 03:00:00 11.7 C 88 % 9.78 C
3206 22-06-2019 03:05:00 11.7 C 88 % 9.78 C
3207 22-06-2019 03:10:00 11.6 C 88 % 9.68 C
3208 22-06-2019 03:15:00 11.6 C 88 % 9.68 C
3209 22-06-2019 03:20:00 11.6 C 88 % 9.68 C
3210 22-06-2019 03:25:00 11.5 C 88 % 9.58 C
3211 22-06-2019 03:30:00 11.4 C 89 % 9.65 C
3212 22-06-2019 03:35:00 11.4 C 89 % 9.65 C
3213 22-06-2019 03:40:00 11.4 C 89 % 9.65 C
3214 22-06-2019 03:45:00 11.4 C 89 % 9.65 C
3215 22-06-2019 03:50:00 11.4 C 89 % 9.65 C
3216 22-06-2019 03:55:00 11.3 C 89 % 9.55 C
3217 22-06-2019 04:00:00 11.3 C 90 % 9.72 C
3218 22-06-2019 04:05:00 11.3 C 90 % 9.72 C
3219 22-06-2019 04:10:00 11.3 C 90 % 9.72 C
3220 22-06-2019 04:15:00 11.2 C 90 % 9.62 C
3221 22-06-2019 04:20:00 11.1 C 90 % 9.52 C
3222 22-06-2019 04:25:00 11.1 C 90 % 9.52 C
3223 22-06-2019 04:30:00 11 C 90 % 9.42 C
3224 22-06-2019 04:35:00 11 C 91 % 9.59 C
3225 22-06-2019 04:40:00 10.9 C 91 % 9.49 C
Sensor: Nr:Datum:Temp:Feuchte:Taupunkt:
Aussen-T/F 3226 22-06-2019 04:45:00 10.9 C 91 % 9.49 C
3227 22-06-2019 04:50:00 10.8 C 91 % 9.39 C
3228 22-06-2019 04:55:00 10.8 C 91 % 9.39 C
3229 22-06-2019 05:00:00 10.8 C 91 % 9.39 C
3230 22-06-2019 05:05:00 10.8 C 91 % 9.39 C
3231 22-06-2019 05:10:00 10.7 C 91 % 9.29 C
3232 22-06-2019 05:15:00 10.7 C 92 % 9.45 C
3233 22-06-2019 05:20:00 10.7 C 92 % 9.45 C
3234 22-06-2019 05:25:00 10.7 C 92 % 9.45 C
3235 22-06-2019 05:30:00 10.7 C 92 % 9.45 C
3236 22-06-2019 05:35:00 10.7 C 92 % 9.45 C
3237 22-06-2019 05:40:00 10.6 C 92 % 9.36 C
3238 22-06-2019 05:45:00 10.6 C 92 % 9.36 C
3239 22-06-2019 05:50:00 10.5 C 92 % 9.26 C
3240 22-06-2019 05:55:00 10.6 C 92 % 9.36 C
3241 22-06-2019 06:00:00 10.6 C 92 % 9.36 C
3242 22-06-2019 06:05:00 10.6 C 93 % 9.52 C
3243 22-06-2019 06:10:00 10.6 C 93 % 9.52 C
3244 22-06-2019 06:15:00 10.6 C 93 % 9.52 C
3245 22-06-2019 06:20:00 10.7 C 93 % 9.62 C
3246 22-06-2019 06:25:00 10.7 C 93 % 9.62 C
3247 22-06-2019 06:30:00 10.7 C 93 % 9.62 C
3248 22-06-2019 06:35:00 10.7 C 93 % 9.62 C
3249 22-06-2019 06:40:00 10.8 C 93 % 9.71 C
3250 22-06-2019 06:45:00 10.8 C 93 % 9.71 C
Sensor: Nr:Datum:Temp:Feuchte:Taupunkt:
Aussen-T/F 3251 22-06-2019 06:50:00 10.8 C 93 % 9.71 C
3252 22-06-2019 06:55:00 10.9 C 94 % 9.97 C
3253 22-06-2019 07:00:00 11 C 94 % 10.07 C
3254 22-06-2019 07:05:00 11.1 C 94 % 10.17 C
3255 22-06-2019 07:10:00 11.2 C 94 % 10.27 C
3256 22-06-2019 07:15:00 11.4 C 94 % 10.47 C
3257 22-06-2019 07:20:00 11.6 C 94 % 10.67 C
3258 22-06-2019 07:25:00 11.7 C 94 % 10.77 C
3259 22-06-2019 07:30:00 11.8 C 95 % 11.03 C
3260 22-06-2019 07:35:00 12 C 94 % 11.07 C
3261 22-06-2019 07:40:00 12.2 C 95 % 11.42 C
3262 22-06-2019 07:45:00 12.3 C 94 % 11.36 C
3263 22-06-2019 07:50:00 12.6 C 95 % 11.82 C
3264 22-06-2019 07:55:00 12.8 C 95 % 12.02 C
3265 22-06-2019 08:00:00 12.9 C 94 % 11.96 C
3266 22-06-2019 08:05:00 13 C 93 % 11.9 C
3267 22-06-2019 08:10:00 13.2 C 93 % 12.09 C
3268 22-06-2019 08:15:00 13.4 C 92 % 12.13 C
3269 22-06-2019 08:20:00 13.7 C 92 % 12.42 C
3270 22-06-2019 08:25:00 13.8 C 91 % 12.36 C
3271 22-06-2019 08:30:00 13.9 C 90 % 12.29 C
3272 22-06-2019 08:35:00 14.2 C 89 % 12.41 C
3273 22-06-2019 08:40:00 14.3 C 90 % 12.68 C
3274 22-06-2019 08:45:00 14.4 C 88 % 12.44 C
3275 22-06-2019 08:50:00 14.6 C 88 % 12.64 C
Sensor: Nr:Datum:Temp:Feuchte:Taupunkt:
Aussen-T/F 3276 22-06-2019 08:55:00 14.7 C 87 % 12.56 C
3277 22-06-2019 09:00:00 14.9 C 87 % 12.76 C
3278 22-06-2019 09:05:00 15.1 C 86 % 12.78 C
3279 22-06-2019 09:10:00 15.3 C 84 % 12.61 C
3280 22-06-2019 09:15:00 15.6 C 85 % 13.09 C
3281 22-06-2019 09:20:00 15.8 C 81 % 12.55 C
3282 22-06-2019 09:25:00 16.2 C 79 % 12.56 C
3283 22-06-2019 09:30:00 16.4 C 77 % 12.36 C
3284 22-06-2019 09:35:00 16.6 C 77 % 12.55 C
3285 22-06-2019 09:40:00 16.9 C 78 % 13.04 C
3286 22-06-2019 09:45:00 17.2 C 76 % 12.94 C
3287 22-06-2019 09:50:00 17.5 C 75 % 13.02 C
3288 22-06-2019 09:55:00 17.8 C 73 % 12.9 C
3289 22-06-2019 10:00:00 18.1 C 72 % 12.98 C
3290 22-06-2019 10:05:00 18.4 C 69 % 12.61 C
3291 22-06-2019 10:10:00 18.7 C 69 % 12.9 C
3292 22-06-2019 10:15:00 18.9 C 68 % 12.87 C
3293 22-06-2019 10:20:00 19.2 C 68 % 13.15 C
3294 22-06-2019 10:25:00 19.4 C 67 % 13.12 C
3295 22-06-2019 10:30:00 19.7 C 68 % 13.63 C
3296 22-06-2019 10:35:00 20 C 67 % 13.69 C
3297 22-06-2019 10:40:00 20.2 C 65 % 13.41 C
3298 22-06-2019 10:45:00 20.3 C 65 % 13.51 C
3299 22-06-2019 10:50:00 20.4 C 64 % 13.37 C
3300 22-06-2019 10:55:00 20.4 C 64 % 13.37 C
Sensor: Nr:Datum:Temp:Feuchte:Taupunkt:
Aussen-T/F 3301 22-06-2019 11:00:00 20.6 C 64 % 13.55 C
3302 22-06-2019 11:05:00 20.8 C 63 % 13.5 C
3303 22-06-2019 11:10:00 20.9 C 63 % 13.6 C
3304 22-06-2019 11:15:00 20.9 C 63 % 13.6 C
3305 22-06-2019 11:20:00 21.1 C 62 % 13.54 C
3306 22-06-2019 11:25:00 21.2 C 62 % 13.63 C
3307 22-06-2019 11:30:00 21.2 C 62 % 13.63 C
3308 22-06-2019 11:35:00 21.3 C 61 % 13.48 C
3309 22-06-2019 11:40:00 21.4 C 62 % 13.82 C
3310 22-06-2019 11:45:00 21.6 C 61 % 13.76 C
3311 22-06-2019 11:50:00 21.8 C 61 % 13.95 C
3312 22-06-2019 11:55:00 21.8 C 62 % 14.2 C
3313 22-06-2019 12:00:00 22 C 61 % 14.14 C
3314 22-06-2019 12:05:00 22.1 C 61 % 14.23 C
3315 22-06-2019 12:10:00 22.3 C 60 % 14.16 C
3316 22-06-2019 12:15:00 22.4 C 60 % 14.26 C
3317 22-06-2019 12:20:00 22.5 C 60 % 14.35 C
3318 22-06-2019 12:25:00 22.6 C 60 % 14.44 C
3319 22-06-2019 12:30:00 22.6 C 60 % 14.44 C
3320 22-06-2019 12:35:00 22.8 C 59 % 14.37 C
3321 22-06-2019 12:40:00 22.9 C 59 % 14.47 C
3322 22-06-2019 12:45:00 23.1 C 59 % 14.65 C
3323 22-06-2019 12:50:00 23.3 C 59 % 14.84 C
3324 22-06-2019 12:55:00 23.4 C 57 % 14.4 C
3325 22-06-2019 13:00:00 23.5 C 58 % 14.76 C
Sensor: Nr:Datum:Temp:Feuchte:Taupunkt:
Aussen-T/F 3326 22-06-2019 13:05:00 23.7 C 57 % 14.68 C
3327 22-06-2019 13:10:00 23.7 C 58 % 14.95 C
3328 22-06-2019 13:15:00 23.9 C 56 % 14.59 C
3329 22-06-2019 13:20:00 24.1 C 57 % 15.05 C
3330 22-06-2019 13:25:00 24.3 C 55 % 14.68 C
3331 22-06-2019 13:30:00 24.3 C 55 % 14.68 C
3332 22-06-2019 13:35:00 24.3 C 54 % 14.4 C
3333 22-06-2019 13:40:00 24.4 C 55 % 14.78 C
3334 22-06-2019 13:45:00 24.6 C 54 % 14.68 C
3335 22-06-2019 13:50:00 24.7 C 54 % 14.77 C
3336 22-06-2019 13:55:00 24.6 C 55 % 14.96 C
3337 22-06-2019 14:00:00 24.6 C 54 % 14.68 C
3338 22-06-2019 14:05:00 24.7 C 56 % 15.33 C
3339 22-06-2019 14:10:00 24.9 C 54 % 14.95 C
3340 22-06-2019 14:15:00 25.1 C 54 % 15.14 C
3341 22-06-2019 14:20:00 25.1 C 53 % 14.85 C
3342 22-06-2019 14:25:00 25.1 C 54 % 15.14 C
3343 22-06-2019 14:30:00 25.2 C 53 % 14.94 C
3344 22-06-2019 14:35:00 25.1 C 54 % 15.14 C
3345 22-06-2019 14:40:00 25.1 C 54 % 15.14 C
3346 22-06-2019 14:45:00 25.1 C 53 % 14.85 C
3347 22-06-2019 14:50:00 25.1 C 54 % 15.14 C
3348 22-06-2019 14:55:00 25.2 C 54 % 15.23 C
3349 22-06-2019 15:00:00 25.3 C 52 % 14.74 C
3350 22-06-2019 15:05:00 25.3 C 52 % 14.74 C
Sensor: Nr:Datum:Temp:Feuchte:Taupunkt:
Aussen-T/F 3351 22-06-2019 15:10:00 25.3 C 51 % 14.44 C
3352 22-06-2019 15:15:00 25.3 C 52 % 14.74 C
3353 22-06-2019 15:20:00 25.6 C 49 % 14.1 C
3354 22-06-2019 15:25:00 25.8 C 49 % 14.28 C
3355 22-06-2019 15:30:00 25.8 C 47 % 13.64 C
3356 22-06-2019 15:35:00 25.7 C 50 % 14.5 C
3357 22-06-2019 15:40:00 25.7 C 50 % 14.5 C
3358 22-06-2019 15:45:00 25.7 C 50 % 14.5 C
3359 22-06-2019 15:50:00 25.8 C 48 % 13.96 C
3360 22-06-2019 15:55:00 25.8 C 49 % 14.28 C
3361 22-06-2019 16:00:00 25.8 C 46 % 13.31 C
3362 22-06-2019 16:05:00 25.9 C 47 % 13.73 C
3363 22-06-2019 16:10:00 26.1 C 48 % 14.23 C
3364 22-06-2019 16:15:00 26.3 C 50 % 15.05 C
3365 22-06-2019 16:20:00 26.6 C 47 % 14.36 C
3366 22-06-2019 16:25:00 26.7 C 45 % 13.78 C
3367 22-06-2019 16:30:00 26.8 C 47 % 14.55 C
3368 22-06-2019 16:35:00 26.8 C 46 % 14.21 C
3369 22-06-2019 16:40:00 26.8 C 47 % 14.55 C
3370 22-06-2019 16:45:00 26.8 C 47 % 14.55 C
3371 22-06-2019 16:50:00 26.8 C 49 % 15.19 C
3372 22-06-2019 16:55:00 26.7 C 47 % 14.45 C
3373 22-06-2019 17:00:00 26.6 C 47 % 14.36 C
3374 22-06-2019 17:05:00 26.4 C 48 % 14.51 C
3375 22-06-2019 17:10:00 26.3 C 48 % 14.42 C
Sensor: Nr:Datum:Temp:Feuchte:Taupunkt:
Aussen-T/F 3376 22-06-2019 17:15:00 26.1 C 48 % 14.23 C
3377 22-06-2019 17:20:00 25.9 C 49 % 14.37 C
3378 22-06-2019 17:25:00 25.8 C 50 % 14.59 C
3379 22-06-2019 17:30:00 25.9 C 50 % 14.68 C
3380 22-06-2019 17:35:00 26 C 53 % 15.68 C
3381 22-06-2019 17:40:00 26.1 C 49 % 14.55 C
3382 22-06-2019 17:45:00 26.3 C 49 % 14.74 C
3383 22-06-2019 17:50:00 26.7 C 47 % 14.45 C
3384 22-06-2019 17:55:00 27.1 C 46 % 14.49 C
3385 22-06-2019 18:00:00 27.2 C 46 % 14.58 C
3386 22-06-2019 18:05:00 27.4 C 45 % 14.42 C
3387 22-06-2019 18:10:00 27.4 C 45 % 14.42 C
3388 22-06-2019 18:15:00 27.3 C 45 % 14.33 C
3389 22-06-2019 18:20:00 27.4 C 42 % 13.35 C
3390 22-06-2019 18:25:00 27.6 C 42 % 13.53 C
3391 22-06-2019 18:30:00 27.7 C 42 % 13.62 C
3392 22-06-2019 18:35:00 27.7 C 43 % 13.99 C
3393 22-06-2019 18:40:00 27.7 C 43 % 13.99 C
3394 22-06-2019 18:45:00 27.4 C 43 % 13.72 C
3395 22-06-2019 18:50:00 27.3 C 43 % 13.63 C
3396 22-06-2019 18:55:00 27.3 C 43 % 13.63 C
3397 22-06-2019 19:00:00 27.4 C 43 % 13.72 C
3398 22-06-2019 19:05:00 27.6 C 43 % 13.9 C
3399 22-06-2019 19:10:00 27.4 C 44 % 14.07 C
3400 22-06-2019 19:15:00 27.4 C 44 % 14.07 C
Sensor: Nr:Datum:Temp:Feuchte:Taupunkt:
Aussen-T/F 3401 22-06-2019 19:20:00 27.6 C 44 % 14.25 C
3402 22-06-2019 19:25:00 27.6 C 43 % 13.9 C
3403 22-06-2019 19:30:00 27.6 C 44 % 14.25 C
3404 22-06-2019 19:35:00 27.6 C 44 % 14.25 C
3405 22-06-2019 19:40:00 27.6 C 45 % 14.6 C
3406 22-06-2019 19:45:00 27.6 C 43 % 13.9 C
3407 22-06-2019 19:50:00 27.5 C 44 % 14.16 C
3408 22-06-2019 19:55:00 27.5 C 44 % 14.16 C
3409 22-06-2019 20:00:00 27.4 C 45 % 14.42 C
3410 22-06-2019 20:05:00 27.3 C 45 % 14.33 C
3411 22-06-2019 20:10:00 27.2 C 45 % 14.24 C
3412 22-06-2019 20:15:00 27.2 C 46 % 14.58 C
3413 22-06-2019 20:20:00 27.2 C 47 % 14.91 C
3414 22-06-2019 20:25:00 27.1 C 47 % 14.82 C
3415 22-06-2019 20:30:00 26.9 C 48 % 14.96 C
3416 22-06-2019 20:35:00 26.9 C 48 % 14.96 C
3417 22-06-2019 20:40:00 26.8 C 49 % 15.19 C
3418 22-06-2019 20:45:00 26.7 C 52 % 16.03 C
3419 22-06-2019 20:50:00 26.6 C 52 % 15.94 C
3420 22-06-2019 20:55:00 26.1 C 54 % 16.07 C
3421 22-06-2019 21:00:00 25.4 C 55 % 15.7 C
3422 22-06-2019 21:05:00 24.9 C 57 % 15.8 C
3423 22-06-2019 21:10:00 24.5 C 59 % 15.96 C
3424 22-06-2019 21:15:00 24.2 C 60 % 15.95 C
3425 22-06-2019 21:20:00 23.9 C 63 % 16.43 C
Sensor: Nr:Datum:Temp:Feuchte:Taupunkt:
Aussen-T/F 3426 22-06-2019 21:25:00 23.7 C 62 % 15.99 C
3427 22-06-2019 21:30:00 23.4 C 63 % 15.96 C
3428 22-06-2019 21:35:00 23.1 C 63 % 15.67 C
3429 22-06-2019 21:40:00 22.7 C 65 % 15.78 C
3430 22-06-2019 21:45:00 22.4 C 66 % 15.74 C
3431 22-06-2019 21:50:00 22.2 C 67 % 15.78 C
3432 22-06-2019 21:55:00 21.9 C 68 % 15.73 C
3433 22-06-2019 22:00:00 21.6 C 69 % 15.67 C
3434 22-06-2019 22:05:00 21.4 C 70 % 15.7 C
3435 22-06-2019 22:10:00 21.1 C 70 % 15.42 C
3436 22-06-2019 22:15:00 20.8 C 71 % 15.35 C
3437 22-06-2019 22:20:00 20.5 C 72 % 15.28 C
3438 22-06-2019 22:25:00 20.2 C 73 % 15.21 C
3439 22-06-2019 22:30:00 20 C 74 % 15.23 C
3440 22-06-2019 22:35:00 19.8 C 74 % 15.03 C
3441 22-06-2019 22:40:00 19.7 C 75 % 15.15 C
3442 22-06-2019 22:45:00 19.6 C 76 % 15.26 C
3443 22-06-2019 22:50:00 19.5 C 76 % 15.16 C
3444 22-06-2019 22:55:00 19.4 C 77 % 15.27 C
3445 22-06-2019 23:00:00 19.3 C 77 % 15.17 C
3446 22-06-2019 23:05:00 19.2 C 77 % 15.07 C
3447 22-06-2019 23:10:00 19.1 C 78 % 15.18 C
3448 22-06-2019 23:15:00 18.9 C 78 % 14.98 C
3449 22-06-2019 23:20:00 18.7 C 79 % 14.99 C
3450 22-06-2019 23:25:00 18.6 C 80 % 15.08 C
Sensor: Nr:Datum:Temp:Feuchte:Taupunkt:
Aussen-T/F 3451 22-06-2019 23:30:00 18.5 C 80 % 14.99 C
3452 22-06-2019 23:35:00 18.4 C 80 % 14.89 C
3453 22-06-2019 23:40:00 18.3 C 80 % 14.79 C
3454 22-06-2019 23:45:00 18.3 C 81 % 14.98 C
3455 22-06-2019 23:50:00 18.2 C 81 % 14.89 C
3456 22-06-2019 23:55:00 18.1 C 81 % 14.79 C
3457 23-06-2019 00:00:00 18.1 C 82 % 14.98 C
3458 23-06-2019 00:05:00 17.9 C 82 % 14.78 C
3459 23-06-2019 00:10:00 17.8 C 82 % 14.69 C
3460 23-06-2019 00:15:00 17.7 C 82 % 14.59 C
3461 23-06-2019 00:20:00 17.6 C 83 % 14.68 C
3462 23-06-2019 00:25:00 17.4 C 83 % 14.48 C
3463 23-06-2019 00:30:00 17.3 C 84 % 14.57 C
3464 23-06-2019 00:35:00 17.2 C 84 % 14.47 C
3465 23-06-2019 00:40:00 17.1 C 84 % 14.38 C
3466 23-06-2019 00:45:00 17 C 85 % 14.46 C
3467 23-06-2019 00:50:00 16.9 C 85 % 14.36 C
3468 23-06-2019 00:55:00 16.8 C 86 % 14.45 C
3469 23-06-2019 01:00:00 16.7 C 86 % 14.35 C
3470 23-06-2019 01:05:00 16.7 C 86 % 14.35 C
3471 23-06-2019 01:10:00 16.6 C 86 % 14.25 C
3472 23-06-2019 01:15:00 16.5 C 86 % 14.15 C
3473 23-06-2019 01:20:00 16.4 C 87 % 14.23 C
3474 23-06-2019 01:25:00 16.4 C 87 % 14.23 C
3475 23-06-2019 01:30:00 16.3 C 87 % 14.13 C
Sensor: Nr:Datum:Temp:Feuchte:Taupunkt:
Aussen-T/F 3476 23-06-2019 01:35:00 16.2 C 87 % 14.03 C
3477 23-06-2019 01:40:00 16.2 C 87 % 14.03 C
3478 23-06-2019 01:45:00 16.1 C 88 % 14.11 C
3479 23-06-2019 01:50:00 16 C 88 % 14.01 C
3480 23-06-2019 01:55:00 15.9 C 88 % 13.92 C
3481 23-06-2019 02:00:00 15.9 C 89 % 14.09 C
3482 23-06-2019 02:05:00 15.8 C 89 % 13.99 C
3483 23-06-2019 02:10:00 15.8 C 89 % 13.99 C
3484 23-06-2019 02:15:00 15.8 C 89 % 13.99 C
3485 23-06-2019 02:20:00 15.7 C 89 % 13.89 C
3486 23-06-2019 02:25:00 15.7 C 89 % 13.89 C
3487 23-06-2019 02:30:00 15.7 C 89 % 13.89 C
3488 23-06-2019 02:35:00 15.6 C 89 % 13.79 C
3489 23-06-2019 02:40:00 15.5 C 89 % 13.7 C
3490 23-06-2019 02:45:00 15.4 C 90 % 13.77 C
3491 23-06-2019 02:50:00 15.4 C 90 % 13.77 C
3492 23-06-2019 02:55:00 15.4 C 90 % 13.77 C
3493 23-06-2019 03:00:00 15.3 C 90 % 13.67 C
3494 23-06-2019 03:05:00 15.2 C 90 % 13.57 C
3495 23-06-2019 03:10:00 15.2 C 90 % 13.57 C
3496 23-06-2019 03:15:00 15.1 C 91 % 13.64 C
3497 23-06-2019 03:20:00 15.1 C 91 % 13.64 C
3498 23-06-2019 03:25:00 15 C 91 % 13.54 C
3499 23-06-2019 03:30:00 14.9 C 91 % 13.44 C
3500 23-06-2019 03:35:00 14.8 C 91 % 13.35 C
Sensor: Nr:Datum:Temp:Feuchte:Taupunkt:
Aussen-T/F 3501 23-06-2019 03:40:00 14.8 C 91 % 13.35 C
3502 23-06-2019 03:45:00 14.8 C 92 % 13.51 C
3503 23-06-2019 03:50:00 14.8 C 92 % 13.51 C
3504 23-06-2019 03:55:00 14.8 C 92 % 13.51 C
3505 23-06-2019 04:00:00 14.7 C 92 % 13.41 C
3506 23-06-2019 04:05:00 14.7 C 92 % 13.41 C
3507 23-06-2019 04:10:00 14.7 C 92 % 13.41 C
3508 23-06-2019 04:15:00 14.7 C 92 % 13.41 C
3509 23-06-2019 04:20:00 14.7 C 92 % 13.41 C
3510 23-06-2019 04:25:00 14.6 C 92 % 13.32 C
3511 23-06-2019 04:30:00 14.6 C 92 % 13.32 C
3512 23-06-2019 04:35:00 14.4 C 92 % 13.12 C
3513 23-06-2019 04:40:00 14.4 C 92 % 13.12 C
3514 23-06-2019 04:45:00 14.3 C 93 % 13.18 C
3515 23-06-2019 04:50:00 14.3 C 93 % 13.18 C
3516 23-06-2019 04:55:00 14.3 C 93 % 13.18 C
3517 23-06-2019 05:00:00 14.3 C 93 % 13.18 C
3518 23-06-2019 05:05:00 14.2 C 93 % 13.08 C
3519 23-06-2019 05:10:00 14.1 C 93 % 12.99 C
3520 23-06-2019 05:15:00 14.1 C 93 % 12.99 C
3521 23-06-2019 05:20:00 14.1 C 93 % 12.99 C
3522 23-06-2019 05:25:00 14.1 C 93 % 12.99 C
3523 23-06-2019 05:30:00 14 C 93 % 12.89 C
3524 23-06-2019 05:35:00 14 C 94 % 13.05 C
3525 23-06-2019 05:40:00 14 C 93 % 12.89 C
Sensor: Nr:Datum:Temp:Feuchte:Taupunkt:
Aussen-T/F 3526 23-06-2019 05:45:00 14 C 94 % 13.05 C
3527 23-06-2019 05:50:00 14 C 94 % 13.05 C
3528 23-06-2019 05:55:00 14 C 94 % 13.05 C
3529 23-06-2019 06:00:00 14.1 C 94 % 13.15 C
3530 23-06-2019 06:05:00 14.1 C 94 % 13.15 C
3531 23-06-2019 06:10:00 14.1 C 94 % 13.15 C
3532 23-06-2019 06:15:00 14.1 C 94 % 13.15 C
3533 23-06-2019 06:20:00 14.2 C 94 % 13.25 C
3534 23-06-2019 06:25:00 14.2 C 94 % 13.25 C
3535 23-06-2019 06:30:00 14.3 C 95 % 13.51 C
3536 23-06-2019 06:35:00 14.2 C 94 % 13.25 C
3537 23-06-2019 06:40:00 14.3 C 94 % 13.35 C
3538 23-06-2019 06:45:00 14.3 C 94 % 13.35 C
3539 23-06-2019 06:50:00 14.3 C 95 % 13.51 C
3540 23-06-2019 06:55:00 14.3 C 94 % 13.35 C
3541 23-06-2019 07:00:00 14.4 C 94 % 13.45 C
3542 23-06-2019 07:05:00 14.4 C 95 % 13.61 C
3543 23-06-2019 07:10:00 14.5 C 95 % 13.71 C
3544 23-06-2019 07:15:00 14.6 C 95 % 13.81 C
3545 23-06-2019 07:20:00 14.6 C 95 % 13.81 C
3546 23-06-2019 07:25:00 14.7 C 95 % 13.91 C
3547 23-06-2019 07:30:00 14.7 C 95 % 13.91 C
3548 23-06-2019 07:35:00 14.8 C 95 % 14.01 C
3549 23-06-2019 07:40:00 14.9 C 95 % 14.11 C
3550 23-06-2019 07:45:00 15 C 95 % 14.21 C
Sensor: Nr:Datum:Temp:Feuchte:Taupunkt:
Aussen-T/F 3551 23-06-2019 07:50:00 15.1 C 95 % 14.31 C
3552 23-06-2019 07:55:00 15.2 C 95 % 14.4 C
3553 23-06-2019 08:00:00 15.3 C 95 % 14.5 C
3554 23-06-2019 08:05:00 15.4 C 95 % 14.6 C
3555 23-06-2019 08:10:00 15.6 C 95 % 14.8 C
3556 23-06-2019 08:15:00 15.8 C 95 % 15 C
3557 23-06-2019 08:20:00 15.9 C 95 % 15.1 C
3558 23-06-2019 08:25:00 16 C 95 % 15.2 C
3559 23-06-2019 08:30:00 16.2 C 95 % 15.4 C
3560 23-06-2019 08:35:00 16.3 C 94 % 15.33 C
3561 23-06-2019 08:40:00 16.4 C 94 % 15.43 C
3562 23-06-2019 08:45:00 16.6 C 94 % 15.63 C
3563 23-06-2019 08:50:00 16.7 C 94 % 15.73 C
3564 23-06-2019 08:55:00 16.9 C 94 % 15.93 C
3565 23-06-2019 09:00:00 17.2 C 93 % 16.06 C
3566 23-06-2019 09:05:00 17.4 C 93 % 16.26 C
3567 23-06-2019 09:10:00 17.6 C 92 % 16.28 C
3568 23-06-2019 09:15:00 17.8 C 91 % 16.31 C
3569 23-06-2019 09:20:00 18.1 C 90 % 16.43 C
3570 23-06-2019 09:25:00 18.3 C 87 % 16.1 C
3571 23-06-2019 09:30:00 18.8 C 87 % 16.59 C
3572 23-06-2019 09:35:00 19.1 C 86 % 16.7 C
3573 23-06-2019 09:40:00 19.4 C 82 % 16.25 C
3574 23-06-2019 09:45:00 19.8 C 83 % 16.83 C
3575 23-06-2019 09:50:00 20 C 78 % 16.05 C
Sensor: Nr:Datum:Temp:Feuchte:Taupunkt:
Aussen-T/F 3576 23-06-2019 09:55:00 20.4 C 76 % 16.03 C
3577 23-06-2019 10:00:00 20.8 C 74 % 16 C
3578 23-06-2019 10:05:00 21.1 C 74 % 16.29 C
3579 23-06-2019 10:10:00 21.5 C 72 % 16.24 C
3580 23-06-2019 10:15:00 21.9 C 70 % 16.18 C
3581 23-06-2019 10:20:00 22.3 C 70 % 16.56 C
3582 23-06-2019 10:25:00 22.7 C 68 % 16.49 C
3583 23-06-2019 10:30:00 23 C 68 % 16.78 C
3584 23-06-2019 10:35:00 23.2 C 67 % 16.73 C
3585 23-06-2019 10:40:00 23.3 C 67 % 16.83 C
3586 23-06-2019 10:45:00 23.4 C 66 % 16.69 C
3587 23-06-2019 10:50:00 23.5 C 66 % 16.78 C
3588 23-06-2019 10:55:00 23.6 C 66 % 16.88 C
3589 23-06-2019 11:00:00 23.7 C 66 % 16.97 C
3590 23-06-2019 11:05:00 23.7 C 66 % 16.97 C
3591 23-06-2019 11:10:00 23.8 C 65 % 16.83 C
3592 23-06-2019 11:15:00 23.9 C 65 % 16.92 C
3593 23-06-2019 11:20:00 24 C 65 % 17.01 C
3594 23-06-2019 11:25:00 24.1 C 64 % 16.86 C
3595 23-06-2019 11:30:00 24.1 C 64 % 16.86 C
3596 23-06-2019 11:35:00 24.3 C 64 % 17.05 C
3597 23-06-2019 11:40:00 24.4 C 63 % 16.9 C
3598 23-06-2019 11:45:00 24.5 C 64 % 17.24 C
3599 23-06-2019 11:50:00 24.6 C 63 % 17.09 C
3600 23-06-2019 11:55:00 24.6 C 63 % 17.09 C
Sensor: Nr:Datum:Temp:Feuchte:Taupunkt:
Aussen-T/F 3601 23-06-2019 12:00:00 24.7 C 64 % 17.43 C
3602 23-06-2019 12:05:00 24.7 C 63 % 17.18 C
3603 23-06-2019 12:10:00 24.8 C 62 % 17.02 C
3604 23-06-2019 12:15:00 24.8 C 63 % 17.28 C
3605 23-06-2019 12:20:00 24.9 C 62 % 17.12 C
3606 23-06-2019 12:25:00 25.1 C 62 % 17.31 C
3607 23-06-2019 12:30:00 25.2 C 62 % 17.4 C
3608 23-06-2019 12:35:00 25.3 C 62 % 17.5 C
3609 23-06-2019 12:40:00 25.4 C 60 % 17.07 C
3610 23-06-2019 12:45:00 25.7 C 60 % 17.35 C
3611 23-06-2019 12:50:00 25.9 C 60 % 17.54 C
3612 23-06-2019 12:55:00 26.1 C 58 % 17.19 C
3613 23-06-2019 13:00:00 26.1 C 59 % 17.46 C
3614 23-06-2019 13:05:00 26.2 C 58 % 17.28 C
3615 23-06-2019 13:10:00 26.2 C 59 % 17.55 C
3616 23-06-2019 13:15:00 26.2 C 57 % 17.01 C
3617 23-06-2019 13:20:00 26.2 C 57 % 17.01 C
3618 23-06-2019 13:25:00 26.3 C 56 % 16.82 C
3619 23-06-2019 13:30:00 26.6 C 55 % 16.82 C
3620 23-06-2019 13:35:00 26.8 C 56 % 17.29 C
3621 23-06-2019 13:40:00 26.9 C 55 % 17.09 C
3622 23-06-2019 13:45:00 27.1 C 54 % 16.99 C
3623 23-06-2019 13:50:00 27.2 C 53 % 16.79 C
3624 23-06-2019 13:55:00 27.2 C 53 % 16.79 C
3625 23-06-2019 14:00:00 27.2 C 53 % 16.79 C
Sensor: Nr:Datum:Temp:Feuchte:Taupunkt:
Aussen-T/F 3626 23-06-2019 14:05:00 27.2 C 52 % 16.49 C
3627 23-06-2019 14:10:00 27.3 C 53 % 16.88 C
3628 23-06-2019 14:15:00 27.6 C 52 % 16.86 C
3629 23-06-2019 14:20:00 27.7 C 53 % 17.25 C
3630 23-06-2019 14:25:00 28.1 C 51 % 17.01 C
3631 23-06-2019 14:30:00 28.2 C 51 % 17.1 C
3632 23-06-2019 14:35:00 28.2 C 50 % 16.79 C
3633 23-06-2019 14:40:00 28.3 C 49 % 16.56 C
3634 23-06-2019 14:45:00 28.3 C 50 % 16.88 C
3635 23-06-2019 14:50:00 28.1 C 49 % 16.38 C
3636 23-06-2019 14:55:00 27.9 C 50 % 16.51 C
3637 23-06-2019 15:00:00 27.7 C 50 % 16.33 C
3638 23-06-2019 15:05:00 27.7 C 50 % 16.33 C
3639 23-06-2019 15:10:00 27.9 C 50 % 16.51 C
3640 23-06-2019 15:15:00 28.1 C 49 % 16.38 C
3641 23-06-2019 15:20:00 28.1 C 50 % 16.7 C
3642 23-06-2019 15:25:00 28.2 C 48 % 16.15 C
3643 23-06-2019 15:30:00 28.3 C 48 % 16.24 C
3644 23-06-2019 15:35:00 28.3 C 50 % 16.88 C
3645 23-06-2019 15:40:00 29 C 48 % 16.88 C
3646 23-06-2019 15:45:00 29.4 C 46 % 16.57 C
3647 23-06-2019 15:50:00 29.9 C 46 % 17.02 C
3648 23-06-2019 15:55:00 30.3 C 44 % 16.68 C
3649 23-06-2019 16:00:00 30.4 C 42 % 16.04 C
3650 23-06-2019 16:05:00 30.7 C 43 % 16.68 C
Sensor: Nr:Datum:Temp:Feuchte:Taupunkt:
Aussen-T/F 3651 23-06-2019 16:10:00 30.7 C 42 % 16.31 C
3652 23-06-2019 16:15:00 30.4 C 42 % 16.04 C
3653 23-06-2019 16:20:00 30.1 C 43 % 16.14 C
3654 23-06-2019 16:25:00 30.1 C 43 % 16.14 C
3655 23-06-2019 16:30:00 30 C 44 % 16.41 C
3656 23-06-2019 16:35:00 29.9 C 44 % 16.32 C
3657 23-06-2019 16:40:00 29.9 C 44 % 16.32 C
3658 23-06-2019 16:45:00 30.1 C 45 % 16.86 C
3659 23-06-2019 16:50:00 30.2 C 43 % 16.23 C
3660 23-06-2019 16:55:00 30.4 C 43 % 16.41 C
3661 23-06-2019 17:00:00 30.7 C 43 % 16.68 C
3662 23-06-2019 17:05:00 30.3 C 43 % 16.32 C
3663 23-06-2019 17:10:00 29.9 C 45 % 16.68 C
3664 23-06-2019 17:15:00 29.7 C 45 % 16.5 C
3665 23-06-2019 17:20:00 29.9 C 44 % 16.32 C
3666 23-06-2019 17:25:00 30.3 C 44 % 16.68 C
3667 23-06-2019 17:30:00 30.7 C 43 % 16.68 C
3668 23-06-2019 17:35:00 31.1 C 43 % 17.04 C
3669 23-06-2019 17:40:00 31.2 C 42 % 16.76 C
3670 23-06-2019 17:45:00 31.2 C 43 % 17.13 C
3671 23-06-2019 17:50:00 31.2 C 42 % 16.76 C
3672 23-06-2019 17:55:00 31 C 41 % 16.2 C
3673 23-06-2019 18:00:00 30.5 C 45 % 17.22 C
3674 23-06-2019 18:05:00 30.3 C 44 % 16.68 C
3675 23-06-2019 18:10:00 30.3 C 43 % 16.32 C
Sensor: Nr:Datum:Temp:Feuchte:Taupunkt:
Aussen-T/F 3676 23-06-2019 18:15:00 30.4 C 42 % 16.04 C
3677 23-06-2019 18:20:00 30.7 C 43 % 16.68 C
3678 23-06-2019 18:25:00 30.7 C 43 % 16.68 C
3679 23-06-2019 18:30:00 30.7 C 48 % 18.43 C
3680 23-06-2019 18:35:00 30.6 C 44 % 16.95 C
3681 23-06-2019 18:40:00 30.3 C 43 % 16.32 C
3682 23-06-2019 18:45:00 29.9 C 44 % 16.32 C
3683 23-06-2019 18:50:00 29.6 C 45 % 16.41 C
3684 23-06-2019 18:55:00 29.6 C 46 % 16.75 C
3685 23-06-2019 19:00:00 29.6 C 47 % 17.09 C
3686 23-06-2019 19:05:00 29.5 C 47 % 17 C
3687 23-06-2019 19:10:00 29.3 C 46 % 16.48 C
3688 23-06-2019 19:15:00 29.1 C 46 % 16.3 C
3689 23-06-2019 19:20:00 28.9 C 47 % 16.45 C
3690 23-06-2019 19:25:00 29 C 47 % 16.55 C
3691 23-06-2019 19:30:00 29.1 C 48 % 16.97 C
3692 23-06-2019 19:35:00 29.1 C 53 % 18.54 C
3693 23-06-2019 19:40:00 29.1 C 54 % 18.84 C
3694 23-06-2019 19:45:00 28.9 C 55 % 18.95 C
3695 23-06-2019 19:50:00 28.6 C 57 % 19.24 C
3696 23-06-2019 19:55:00 28.1 C 57 % 18.78 C
3697 23-06-2019 20:00:00 27.6 C 57 % 18.31 C
3698 23-06-2019 20:05:00 27.1 C 59 % 18.4 C
3699 23-06-2019 20:10:00 26.7 C 60 % 18.29 C
3700 23-06-2019 20:15:00 26.4 C 61 % 18.27 C
Sensor: Nr:Datum:Temp:Feuchte:Taupunkt:
Aussen-T/F 3701 23-06-2019 20:20:00 26.2 C 62 % 18.34 C
3702 23-06-2019 20:25:00 25.9 C 62 % 18.06 C
3703 23-06-2019 20:30:00 25.7 C 62 % 17.87 C
3704 23-06-2019 20:35:00 25.4 C 63 % 17.84 C
3705 23-06-2019 20:40:00 25.2 C 64 % 17.9 C
3706 23-06-2019 20:45:00 24.9 C 64 % 17.62 C
3707 23-06-2019 20:50:00 24.7 C 65 % 17.68 C
3708 23-06-2019 20:55:00 24.5 C 65 % 17.49 C
3709 23-06-2019 21:00:00 24.3 C 65 % 17.3 C
3710 23-06-2019 21:05:00 24.2 C 66 % 17.45 C
3711 23-06-2019 21:10:00 24 C 67 % 17.49 C
3712 23-06-2019 21:15:00 23.8 C 67 % 17.3 C
3713 23-06-2019 21:20:00 23.6 C 67 % 17.11 C
3714 23-06-2019 21:25:00 23.5 C 67 % 17.02 C
3715 23-06-2019 21:30:00 23.3 C 68 % 17.06 C
3716 23-06-2019 21:35:00 23.2 C 68 % 16.97 C
3717 23-06-2019 21:40:00 23 C 69 % 17.01 C
3718 23-06-2019 21:45:00 22.8 C 69 % 16.82 C
3719 23-06-2019 21:50:00 22.6 C 69 % 16.62 C
3720 23-06-2019 21:55:00 22.4 C 70 % 16.66 C
3721 23-06-2019 22:00:00 22.3 C 70 % 16.56 C
3722 23-06-2019 22:05:00 22.2 C 70 % 16.47 C
3723 23-06-2019 22:10:00 22.1 C 71 % 16.6 C
3724 23-06-2019 22:15:00 22 C 71 % 16.5 C
3725 23-06-2019 22:20:00 21.9 C 72 % 16.62 C
Sensor: Nr:Datum:Temp:Feuchte:Taupunkt:
Aussen-T/F 3726 23-06-2019 22:25:00 21.8 C 72 % 16.53 C
3727 23-06-2019 22:30:00 21.7 C 72 % 16.43 C
3728 23-06-2019 22:35:00 21.6 C 73 % 16.55 C
3729 23-06-2019 22:40:00 21.4 C 73 % 16.36 C
3730 23-06-2019 22:45:00 21.3 C 74 % 16.48 C
3731 23-06-2019 22:50:00 21.2 C 75 % 16.59 C
3732 23-06-2019 22:55:00 21 C 75 % 16.4 C
3733 23-06-2019 23:00:00 20.9 C 75 % 16.3 C
3734 23-06-2019 23:05:00 20.8 C 76 % 16.41 C
3735 23-06-2019 23:10:00 20.7 C 76 % 16.32 C
3736 23-06-2019 23:15:00 20.6 C 77 % 16.43 C
3737 23-06-2019 23:20:00 20.4 C 77 % 16.23 C
3738 23-06-2019 23:25:00 20.3 C 78 % 16.34 C
3739 23-06-2019 23:30:00 20.2 C 78 % 16.24 C
3740 23-06-2019 23:35:00 20.1 C 78 % 16.14 C
3741 23-06-2019 23:40:00 19.9 C 79 % 16.15 C
3742 23-06-2019 23:45:00 19.8 C 80 % 16.25 C
3743 23-06-2019 23:50:00 19.7 C 80 % 16.15 C
3744 23-06-2019 23:55:00 19.6 C 80 % 16.06 C
3745 24-06-2019 00:00:00 19.5 C 81 % 16.15 C
3746 24-06-2019 00:05:00 19.4 C 81 % 16.06 C
3747 24-06-2019 00:10:00 19.3 C 81 % 15.96 C
3748 24-06-2019 00:15:00 19.3 C 82 % 16.15 C
3749 24-06-2019 00:20:00 19.2 C 82 % 16.05 C
3750 24-06-2019 00:25:00 19.2 C 82 % 16.05 C
Sensor: Nr:Datum:Temp:Feuchte:Taupunkt:
Aussen-T/F 3751 24-06-2019 00:30:00 19.1 C 82 % 15.96 C
3752 24-06-2019 00:35:00 19 C 83 % 16.05 C
3753 24-06-2019 00:40:00 18.9 C 83 % 15.95 C
3754 24-06-2019 00:45:00 18.9 C 83 % 15.95 C
3755 24-06-2019 00:50:00 18.8 C 83 % 15.85 C
3756 24-06-2019 00:55:00 18.8 C 83 % 15.85 C
3757 24-06-2019 01:00:00 18.7 C 84 % 15.94 C
3758 24-06-2019 01:05:00 18.7 C 84 % 15.94 C
3759 24-06-2019 01:10:00 18.7 C 84 % 15.94 C
3760 24-06-2019 01:15:00 18.7 C 84 % 15.94 C
3761 24-06-2019 01:20:00 18.6 C 84 % 15.84 C
3762 24-06-2019 01:25:00 18.5 C 84 % 15.75 C
3763 24-06-2019 01:30:00 18.4 C 84 % 15.65 C
3764 24-06-2019 01:35:00 18.3 C 84 % 15.55 C
3765 24-06-2019 01:40:00 18.3 C 85 % 15.74 C
3766 24-06-2019 01:45:00 18.2 C 85 % 15.64 C
3767 24-06-2019 01:50:00 18.1 C 85 % 15.54 C
3768 24-06-2019 01:55:00 18 C 85 % 15.44 C
3769 24-06-2019 02:00:00 17.9 C 86 % 15.53 C
3770 24-06-2019 02:05:00 17.9 C 86 % 15.53 C
3771 24-06-2019 02:10:00 17.8 C 86 % 15.43 C
3772 24-06-2019 02:15:00 17.7 C 86 % 15.33 C
3773 24-06-2019 02:20:00 17.7 C 87 % 15.51 C
3774 24-06-2019 02:25:00 17.6 C 87 % 15.41 C
3775 24-06-2019 02:30:00 17.5 C 87 % 15.31 C
Sensor: Nr:Datum:Temp:Feuchte:Taupunkt:
Aussen-T/F 3776 24-06-2019 02:35:00 17.4 C 87 % 15.21 C
3777 24-06-2019 02:40:00 17.3 C 88 % 15.29 C
3778 24-06-2019 02:45:00 17.3 C 88 % 15.29 C
3779 24-06-2019 02:50:00 17.2 C 88 % 15.2 C
3780 24-06-2019 02:55:00 17.2 C 89 % 15.37 C
3781 24-06-2019 03:00:00 17.2 C 88 % 15.2 C
3782 24-06-2019 03:05:00 17.1 C 88 % 15.1 C
3783 24-06-2019 03:10:00 17.1 C 89 % 15.27 C
3784 24-06-2019 03:15:00 17.1 C 89 % 15.27 C
3785 24-06-2019 03:20:00 17 C 89 % 15.17 C
3786 24-06-2019 03:25:00 17 C 89 % 15.17 C
3787 24-06-2019 03:30:00 16.9 C 89 % 15.08 C
3788 24-06-2019 03:35:00 16.9 C 89 % 15.08 C
3789 24-06-2019 03:40:00 16.9 C 89 % 15.08 C
3790 24-06-2019 03:45:00 16.8 C 90 % 15.15 C
3791 24-06-2019 03:50:00 16.8 C 90 % 15.15 C
3792 24-06-2019 03:55:00 16.7 C 90 % 15.05 C
3793 24-06-2019 04:00:00 16.7 C 90 % 15.05 C
3794 24-06-2019 04:05:00 16.7 C 90 % 15.05 C
3795 24-06-2019 04:10:00 16.7 C 90 % 15.05 C
3796 24-06-2019 04:15:00 16.6 C 90 % 14.95 C
3797 24-06-2019 04:20:00 16.6 C 91 % 15.13 C
3798 24-06-2019 04:25:00 16.6 C 91 % 15.13 C
3799 24-06-2019 04:30:00 16.6 C 91 % 15.13 C
3800 24-06-2019 04:35:00 16.5 C 91 % 15.03 C
Sensor: Nr:Datum:Temp:Feuchte:Taupunkt:
Aussen-T/F 3801 24-06-2019 04:40:00 16.4 C 91 % 14.93 C
3802 24-06-2019 04:45:00 16.4 C 91 % 14.93 C
3803 24-06-2019 04:50:00 16.4 C 91 % 14.93 C
3804 24-06-2019 04:55:00 16.4 C 91 % 14.93 C
3805 24-06-2019 05:00:00 16.4 C 92 % 15.1 C
3806 24-06-2019 05:05:00 16.3 C 92 % 15 C
3807 24-06-2019 05:10:00 16.3 C 92 % 15 C
3808 24-06-2019 05:15:00 16.3 C 92 % 15 C
3809 24-06-2019 05:20:00 16.4 C 92 % 15.1 C
3810 24-06-2019 05:25:00 16.4 C 92 % 15.1 C
3811 24-06-2019 05:30:00 16.5 C 93 % 15.36 C
3812 24-06-2019 05:35:00 16.5 C 92 % 15.2 C
3813 24-06-2019 05:40:00 16.5 C 92 % 15.2 C
3814 24-06-2019 05:45:00 16.4 C 92 % 15.1 C
3815 24-06-2019 05:50:00 16.4 C 92 % 15.1 C
3816 24-06-2019 05:55:00 16.5 C 92 % 15.2 C
3817 24-06-2019 06:00:00 16.5 C 92 % 15.2 C
3818 24-06-2019 06:05:00 16.5 C 93 % 15.36 C
3819 24-06-2019 06:10:00 16.6 C 93 % 15.46 C
3820 24-06-2019 06:15:00 16.6 C 93 % 15.46 C
3821 24-06-2019 06:20:00 16.7 C 93 % 15.56 C
3822 24-06-2019 06:25:00 16.7 C 93 % 15.56 C
3823 24-06-2019 06:30:00 16.7 C 93 % 15.56 C
3824 24-06-2019 06:35:00 16.8 C 93 % 15.66 C
3825 24-06-2019 06:40:00 16.8 C 93 % 15.66 C
Sensor: Nr:Datum:Temp:Feuchte:Taupunkt:
Aussen-T/F 3826 24-06-2019 06:45:00 16.8 C 93 % 15.66 C
3827 24-06-2019 06:50:00 16.9 C 93 % 15.76 C
3828 24-06-2019 06:55:00 16.9 C 93 % 15.76 C
3829 24-06-2019 07:00:00 17.1 C 93 % 15.96 C
3830 24-06-2019 07:05:00 17.1 C 93 % 15.96 C
3831 24-06-2019 07:10:00 17.2 C 93 % 16.06 C
3832 24-06-2019 07:15:00 17.3 C 93 % 16.16 C
3833 24-06-2019 07:20:00 17.3 C 93 % 16.16 C
3834 24-06-2019 07:25:00 17.4 C 93 % 16.26 C
3835 24-06-2019 07:30:00 17.5 C 93 % 16.36 C
3836 24-06-2019 07:35:00 17.6 C 93 % 16.45 C
3837 24-06-2019 07:40:00 17.6 C 93 % 16.45 C
3838 24-06-2019 07:45:00 17.7 C 93 % 16.55 C
3839 24-06-2019 07:50:00 17.8 C 93 % 16.65 C
3840 24-06-2019 07:55:00 17.8 C 92 % 16.48 C
3841 24-06-2019 08:00:00 17.9 C 92 % 16.58 C
3842 24-06-2019 08:05:00 18 C 92 % 16.68 C
3843 24-06-2019 08:10:00 18.1 C 92 % 16.78 C
3844 24-06-2019 08:15:00 18.2 C 92 % 16.88 C
3845 24-06-2019 08:20:00 18.3 C 92 % 16.98 C
3846 24-06-2019 08:25:00 18.5 C 92 % 17.18 C
3847 24-06-2019 08:30:00 18.6 C 92 % 17.27 C
3848 24-06-2019 08:35:00 18.7 C 92 % 17.37 C
3849 24-06-2019 08:40:00 18.8 C 92 % 17.47 C
3850 24-06-2019 08:45:00 19 C 91 % 17.5 C
Sensor: Nr:Datum:Temp:Feuchte:Taupunkt:
Aussen-T/F 3851 24-06-2019 08:50:00 19.2 C 91 % 17.69 C
3852 24-06-2019 08:55:00 19.3 C 91 % 17.79 C
3853 24-06-2019 09:00:00 19.6 C 91 % 18.09 C
3854 24-06-2019 09:05:00 19.7 C 90 % 18.01 C
3855 24-06-2019 09:10:00 19.9 C 90 % 18.21 C
3856 24-06-2019 09:15:00 20.2 C 89 % 18.33 C
3857 24-06-2019 09:20:00 20.4 C 88 % 18.34 C
3858 24-06-2019 09:25:00 20.8 C 87 % 18.56 C
3859 24-06-2019 09:30:00 21.3 C 84 % 18.49 C
3860 24-06-2019 09:35:00 21.9 C 83 % 18.88 C
3861 24-06-2019 09:40:00 22.3 C 81 % 18.88 C
3862 24-06-2019 09:45:00 22.7 C 79 % 18.87 C
3863 24-06-2019 09:50:00 23 C 77 % 18.75 C
3864 24-06-2019 09:55:00 23.3 C 77 % 19.04 C
3865 24-06-2019 10:00:00 23.5 C 77 % 19.23 C
3866 24-06-2019 10:05:00 23.9 C 73 % 18.76 C
3867 24-06-2019 10:10:00 24.3 C 73 % 19.15 C
3868 24-06-2019 10:15:00 24.8 C 70 % 18.95 C
3869 24-06-2019 10:20:00 25.3 C 67 % 18.73 C
3870 24-06-2019 10:25:00 25.6 C 67 % 19.01 C
3871 24-06-2019 10:30:00 25.9 C 64 % 18.57 C
3872 24-06-2019 10:35:00 26.2 C 64 % 18.85 C
3873 24-06-2019 10:40:00 26.3 C 62 % 18.44 C
3874 24-06-2019 10:45:00 26.6 C 64 % 19.23 C
3875 24-06-2019 10:50:00 26.6 C 62 % 18.72 C
Sensor: Nr:Datum:Temp:Feuchte:Taupunkt:
Aussen-T/F 3876 24-06-2019 10:55:00 26.7 C 62 % 18.81 C
</